<?xml version="1.0" encoding="UTF-8"?>
<gpx version="1.1" creator="2bulu-scraper" xmlns="http://www.topografix.com/GPX/1/1">
  <metadata><name>宜宾兴文僰王山</name><desc>source: 2bulu.com trackId=82631067; exported 2026-08-30T14:28:37.577Z</desc></metadata>
  <wpt lat="28.312437" lon="105.049203"><ele>850</ele><name></name></wpt>
  <wpt lat="28.312655" lon="105.049461"><ele>839</ele><name></name></wpt>
  <wpt lat="28.313162" lon="105.049453"><ele>840</ele><name></name></wpt>
  <wpt lat="28.314542" lon="105.049225"><ele>805</ele><name></name></wpt>
  <wpt lat="28.314103" lon="105.048119"><ele>801</ele><name></name></wpt>
  <wpt lat="28.314208" lon="105.048011"><ele>800</ele><name></name></wpt>
  <wpt lat="28.31422" lon="105.047997"><ele>803</ele><name></name></wpt>
  <wpt lat="28.314783" lon="105.048517"><ele>783</ele><name></name></wpt>
  <wpt lat="28.314945" lon="105.049269"><ele>783</ele><name></name></wpt>
  <wpt lat="28.315025" lon="105.049239"><ele>781</ele><name></name></wpt>
  <wpt lat="28.315537" lon="105.049736"><ele>758</ele><name></name></wpt>
  <wpt lat="28.316325" lon="105.049736"><ele>772</ele><name></name></wpt>
  <wpt lat="28.316272" lon="105.049842"><ele>770</ele><name></name></wpt>
  <wpt lat="28.31628" lon="105.049842"><ele>769</ele><name></name></wpt>
  <wpt lat="28.315605" lon="105.049689"><ele>772</ele><name></name></wpt>
  <wpt lat="28.315083" lon="105.04975"><ele>787</ele><name></name></wpt>
  <wpt lat="28.315263" lon="105.04957"><ele>787</ele><name></name></wpt>
  <wpt lat="28.315312" lon="105.049544"><ele>787</ele><name></name></wpt>
  <wpt lat="28.315272" lon="105.049575"><ele>788</ele><name></name></wpt>
  <wpt lat="28.315328" lon="105.049644"><ele>786</ele><name></name></wpt>
  <wpt lat="28.315588" lon="105.049683"><ele>771</ele><name></name></wpt>
  <wpt lat="28.319295" lon="105.050011"><ele>707</ele><name></name></wpt>
  <wpt lat="28.322058" lon="105.053086"><ele>668</ele><name></name></wpt>
  <wpt lat="28.321888" lon="105.053261"><ele>684</ele><name></name></wpt>
  <wpt lat="28.321575" lon="105.053803"><ele>682</ele><name></name></wpt>
  <wpt lat="28.321592" lon="105.054275"><ele>673</ele><name></name></wpt>
  <wpt lat="28.321405" lon="105.05455"><ele>677</ele><name></name></wpt>
  <wpt lat="28.320922" lon="105.054825"><ele>689</ele><name></name></wpt>
  <wpt lat="28.321763" lon="105.059822"><ele>748</ele><name></name></wpt>
  <wpt lat="28.324642" lon="105.061517"><ele>675</ele><name></name></wpt>
  <wpt lat="28.331705" lon="105.059189"><ele>601</ele><name></name></wpt>
  <wpt lat="28.331713" lon="105.05918"><ele>602</ele><name></name></wpt>
  <wpt lat="28.330717" lon="105.059411"><ele>596</ele><name></name></wpt>
  <wpt lat="28.330767" lon="105.059342"><ele>596</ele><name></name></wpt>
  <wpt lat="28.330722" lon="105.059364"><ele>598</ele><name></name></wpt>
  <trk><name>宜宾兴文僰王山</name>
      <trkseg>
        <trkpt lat="28.312009" lon="105.049406"><ele>860.09064</ele><time>2026-04-17T18:22:13.000Z</time></trkpt>
        <trkpt lat="28.312061" lon="105.049421"><ele>857.8277</ele><time>2026-04-17T18:22:29.000Z</time></trkpt>
        <trkpt lat="28.312039" lon="105.049373"><ele>856.89984</ele><time>2026-04-17T18:22:35.000Z</time></trkpt>
        <trkpt lat="28.312012" lon="105.049323"><ele>856.62036</ele><time>2026-04-17T18:22:43.000Z</time></trkpt>
        <trkpt lat="28.312011" lon="105.049269"><ele>855.6282</ele><time>2026-04-17T18:22:51.000Z</time></trkpt>
        <trkpt lat="28.312012" lon="105.049212"><ele>855.18304</ele><time>2026-04-17T18:22:58.000Z</time></trkpt>
        <trkpt lat="28.31205" lon="105.049259"><ele>851.4245</ele><time>2026-04-17T18:23:06.000Z</time></trkpt>
        <trkpt lat="28.312041" lon="105.049311"><ele>851.8648</ele><time>2026-04-17T18:23:10.000Z</time></trkpt>
        <trkpt lat="28.312073" lon="105.049353"><ele>852.57086</ele><time>2026-04-17T18:23:14.000Z</time></trkpt>
        <trkpt lat="28.312106" lon="105.049388"><ele>852.34125</ele><time>2026-04-17T18:23:18.000Z</time></trkpt>
        <trkpt lat="28.312147" lon="105.049426"><ele>852.10284</ele><time>2026-04-17T18:23:25.000Z</time></trkpt>
        <trkpt lat="28.312191" lon="105.049443"><ele>850.31476</ele><time>2026-04-17T18:23:32.000Z</time></trkpt>
        <trkpt lat="28.312226" lon="105.049483"><ele>851.4667</ele><time>2026-04-17T18:23:36.000Z</time></trkpt>
        <trkpt lat="28.312284" lon="105.049483"><ele>850.71497</ele><time>2026-04-17T18:23:44.000Z</time></trkpt>
        <trkpt lat="28.312329" lon="105.049481"><ele>849.1039</ele><time>2026-04-17T18:23:52.000Z</time></trkpt>
        <trkpt lat="28.312383" lon="105.049476"><ele>848.83887</ele><time>2026-04-17T18:23:59.000Z</time></trkpt>
        <trkpt lat="28.312429" lon="105.049476"><ele>846.04236</ele><time>2026-04-17T18:24:04.000Z</time></trkpt>
        <trkpt lat="28.312465" lon="105.049445"><ele>845.6991</ele><time>2026-04-17T18:24:08.000Z</time></trkpt>
        <trkpt lat="28.312452" lon="105.049375"><ele>844.64844</ele><time>2026-04-17T18:24:14.000Z</time></trkpt>
        <trkpt lat="28.312441" lon="105.049326"><ele>846.05774</ele><time>2026-04-17T18:24:17.000Z</time></trkpt>
        <trkpt lat="28.312423" lon="105.04927"><ele>845.3853</ele><time>2026-04-17T18:24:21.000Z</time></trkpt>
        <trkpt lat="28.312426" lon="105.0492"><ele>847.134</ele><time>2026-04-17T18:24:28.000Z</time></trkpt>
        <trkpt lat="28.312482" lon="105.049204"><ele>846.40344</ele><time>2026-04-17T18:24:47.000Z</time></trkpt>
        <trkpt lat="28.312551" lon="105.049204"><ele>846.2664</ele><time>2026-04-17T18:24:49.000Z</time></trkpt>
        <trkpt lat="28.312597" lon="105.049226"><ele>843.50745</ele><time>2026-04-17T18:24:59.000Z</time></trkpt>
        <trkpt lat="28.312651" lon="105.049263"><ele>840.1335</ele><time>2026-04-17T18:25:13.000Z</time></trkpt>
        <trkpt lat="28.312655" lon="105.049332"><ele>840.55743</ele><time>2026-04-17T18:25:23.000Z</time></trkpt>
        <trkpt lat="28.312683" lon="105.049407"><ele>841.43823</ele><time>2026-04-17T18:25:27.000Z</time></trkpt>
        <trkpt lat="28.312624" lon="105.049441"><ele>834.6213</ele><time>2026-04-17T18:26:15.000Z</time></trkpt>
        <trkpt lat="28.312672" lon="105.049454"><ele>839.4171</ele><time>2026-04-17T18:26:40.000Z</time></trkpt>
        <trkpt lat="28.312622" lon="105.049448"><ele>837.89594</ele><time>2026-04-17T18:26:54.000Z</time></trkpt>
        <trkpt lat="28.312642" lon="105.04938"><ele>846.4319</ele><time>2026-04-17T18:27:36.000Z</time></trkpt>
        <trkpt lat="28.312683" lon="105.049406"><ele>842.22424</ele><time>2026-04-17T18:27:45.000Z</time></trkpt>
        <trkpt lat="28.31274" lon="105.049402"><ele>840.664</ele><time>2026-04-17T18:28:01.000Z</time></trkpt>
        <trkpt lat="28.31276" lon="105.049458"><ele>838.2516</ele><time>2026-04-17T18:29:08.000Z</time></trkpt>
        <trkpt lat="28.312657" lon="105.049461"><ele>834.7635</ele><time>2026-04-17T18:29:42.000Z</time></trkpt>
        <trkpt lat="28.312681" lon="105.049411"><ele>835.8594</ele><time>2026-04-17T18:29:55.000Z</time></trkpt>
        <trkpt lat="28.312728" lon="105.049416"><ele>837.50726</ele><time>2026-04-17T18:31:09.000Z</time></trkpt>
        <trkpt lat="28.312773" lon="105.049458"><ele>837.3141</ele><time>2026-04-17T18:31:21.000Z</time></trkpt>
        <trkpt lat="28.312789" lon="105.049508"><ele>837.99445</ele><time>2026-04-17T18:31:23.000Z</time></trkpt>
        <trkpt lat="28.31282" lon="105.049557"><ele>840.29114</ele><time>2026-04-17T18:31:26.000Z</time></trkpt>
        <trkpt lat="28.312869" lon="105.049559"><ele>838.8628</ele><time>2026-04-17T18:31:35.000Z</time></trkpt>
        <trkpt lat="28.312916" lon="105.049548"><ele>837.7043</ele><time>2026-04-17T18:31:41.000Z</time></trkpt>
        <trkpt lat="28.312967" lon="105.049558"><ele>839.7114</ele><time>2026-04-17T18:31:47.000Z</time></trkpt>
        <trkpt lat="28.312978" lon="105.049609"><ele>842.3088</ele><time>2026-04-17T18:31:57.000Z</time></trkpt>
        <trkpt lat="28.313023" lon="105.04962"><ele>840.1761</ele><time>2026-04-17T18:32:12.000Z</time></trkpt>
        <trkpt lat="28.313066" lon="105.049588"><ele>838.2003</ele><time>2026-04-17T18:32:17.000Z</time></trkpt>
        <trkpt lat="28.313097" lon="105.049549"><ele>838.10394</ele><time>2026-04-17T18:32:20.000Z</time></trkpt>
        <trkpt lat="28.313142" lon="105.049525"><ele>837.1344</ele><time>2026-04-17T18:32:25.000Z</time></trkpt>
        <trkpt lat="28.313178" lon="105.049491"><ele>837.6129</ele><time>2026-04-17T18:32:29.000Z</time></trkpt>
        <trkpt lat="28.313199" lon="105.049424"><ele>838.39966</ele><time>2026-04-17T18:32:35.000Z</time></trkpt>
        <trkpt lat="28.313143" lon="105.049416"><ele>838.8143</ele><time>2026-04-17T18:32:37.000Z</time></trkpt>
        <trkpt lat="28.313094" lon="105.049435"><ele>838.76544</ele><time>2026-04-17T18:32:43.000Z</time></trkpt>
        <trkpt lat="28.313059" lon="105.049398"><ele>839.3158</ele><time>2026-04-17T18:32:51.000Z</time></trkpt>
        <trkpt lat="28.313096" lon="105.049428"><ele>838.90875</ele><time>2026-04-17T18:32:56.000Z</time></trkpt>
        <trkpt lat="28.313144" lon="105.04946"><ele>838.976</ele><time>2026-04-17T18:33:00.000Z</time></trkpt>
        <trkpt lat="28.313174" lon="105.049499"><ele>838.11584</ele><time>2026-04-17T18:33:05.000Z</time></trkpt>
        <trkpt lat="28.313158" lon="105.049443"><ele>840.2648</ele><time>2026-04-17T18:33:13.000Z</time></trkpt>
        <trkpt lat="28.313202" lon="105.049475"><ele>838.2649</ele><time>2026-04-17T18:33:24.000Z</time></trkpt>
        <trkpt lat="28.313244" lon="105.049511"><ele>836.07355</ele><time>2026-04-17T18:33:32.000Z</time></trkpt>
        <trkpt lat="28.313302" lon="105.04952"><ele>836.5715</ele><time>2026-04-17T18:33:34.000Z</time></trkpt>
        <trkpt lat="28.313266" lon="105.049487"><ele>835.56116</ele><time>2026-04-17T18:33:37.000Z</time></trkpt>
        <trkpt lat="28.313201" lon="105.049427"><ele>835.06537</ele><time>2026-04-17T18:33:41.000Z</time></trkpt>
        <trkpt lat="28.313162" lon="105.049461"><ele>834.6367</ele><time>2026-04-17T18:33:44.000Z</time></trkpt>
        <trkpt lat="28.313206" lon="105.049528"><ele>834.40137</ele><time>2026-04-17T18:33:46.000Z</time></trkpt>
        <trkpt lat="28.313256" lon="105.049605"><ele>834.4201</ele><time>2026-04-17T18:33:48.000Z</time></trkpt>
        <trkpt lat="28.313306" lon="105.049597"><ele>833.59064</ele><time>2026-04-17T18:33:53.000Z</time></trkpt>
        <trkpt lat="28.313334" lon="105.049552"><ele>833.1302</ele><time>2026-04-17T18:33:56.000Z</time></trkpt>
        <trkpt lat="28.313374" lon="105.04951"><ele>834.2874</ele><time>2026-04-17T18:33:59.000Z</time></trkpt>
        <trkpt lat="28.313419" lon="105.049544"><ele>833.9792</ele><time>2026-04-17T18:34:02.000Z</time></trkpt>
        <trkpt lat="28.313458" lon="105.04951"><ele>832.6845</ele><time>2026-04-17T18:34:12.000Z</time></trkpt>
        <trkpt lat="28.313492" lon="105.049546"><ele>832.3544</ele><time>2026-04-17T18:34:18.000Z</time></trkpt>
        <trkpt lat="28.313544" lon="105.049548"><ele>831.92065</ele><time>2026-04-17T18:34:24.000Z</time></trkpt>
        <trkpt lat="28.313575" lon="105.049508"><ele>832.0365</ele><time>2026-04-17T18:34:29.000Z</time></trkpt>
        <trkpt lat="28.31357" lon="105.049454"><ele>828.69434</ele><time>2026-04-17T18:34:37.000Z</time></trkpt>
        <trkpt lat="28.313615" lon="105.049509"><ele>831.4512</ele><time>2026-04-17T18:34:43.000Z</time></trkpt>
        <trkpt lat="28.313649" lon="105.049467"><ele>830.1625</ele><time>2026-04-17T18:34:50.000Z</time></trkpt>
        <trkpt lat="28.313689" lon="105.049497"><ele>831.96906</ele><time>2026-04-17T18:34:54.000Z</time></trkpt>
        <trkpt lat="28.313705" lon="105.049551"><ele>831.2641</ele><time>2026-04-17T18:34:58.000Z</time></trkpt>
        <trkpt lat="28.313713" lon="105.049602"><ele>831.01215</ele><time>2026-04-17T18:35:00.000Z</time></trkpt>
        <trkpt lat="28.313764" lon="105.049596"><ele>831.3264</ele><time>2026-04-17T18:35:03.000Z</time></trkpt>
        <trkpt lat="28.313779" lon="105.049545"><ele>831.163</ele><time>2026-04-17T18:35:05.000Z</time></trkpt>
        <trkpt lat="28.313797" lon="105.049496"><ele>830.76184</ele><time>2026-04-17T18:35:08.000Z</time></trkpt>
        <trkpt lat="28.313804" lon="105.049439"><ele>829.4057</ele><time>2026-04-17T18:35:12.000Z</time></trkpt>
        <trkpt lat="28.313845" lon="105.049404"><ele>827.4003</ele><time>2026-04-17T18:35:16.000Z</time></trkpt>
        <trkpt lat="28.313891" lon="105.049403"><ele>824.69806</ele><time>2026-04-17T18:35:21.000Z</time></trkpt>
        <trkpt lat="28.313914" lon="105.049359"><ele>822.5311</ele><time>2026-04-17T18:35:26.000Z</time></trkpt>
        <trkpt lat="28.313976" lon="105.049352"><ele>822.228</ele><time>2026-04-17T18:35:29.000Z</time></trkpt>
        <trkpt lat="28.314013" lon="105.04931"><ele>823.3043</ele><time>2026-04-17T18:35:34.000Z</time></trkpt>
        <trkpt lat="28.314056" lon="105.049274"><ele>817.5865</ele><time>2026-04-17T18:36:08.000Z</time></trkpt>
        <trkpt lat="28.314104" lon="105.049255"><ele>817.40173</ele><time>2026-04-17T18:36:14.000Z</time></trkpt>
        <trkpt lat="28.314128" lon="105.0493"><ele>815.3712</ele><time>2026-04-17T18:36:35.000Z</time></trkpt>
        <trkpt lat="28.314153" lon="105.049354"><ele>815.3669</ele><time>2026-04-17T18:36:45.000Z</time></trkpt>
        <trkpt lat="28.314157" lon="105.049411"><ele>818.42377</ele><time>2026-04-17T18:36:56.000Z</time></trkpt>
        <trkpt lat="28.314123" lon="105.049446"><ele>819.6473</ele><time>2026-04-17T18:37:05.000Z</time></trkpt>
        <trkpt lat="28.314172" lon="105.049414"><ele>822.08276</ele><time>2026-04-17T18:37:25.000Z</time></trkpt>
        <trkpt lat="28.3142" lon="105.049368"><ele>819.0597</ele><time>2026-04-17T18:37:30.000Z</time></trkpt>
        <trkpt lat="28.314241" lon="105.049345"><ele>817.6895</ele><time>2026-04-17T18:37:34.000Z</time></trkpt>
        <trkpt lat="28.314253" lon="105.049292"><ele>816.5504</ele><time>2026-04-17T18:37:39.000Z</time></trkpt>
        <trkpt lat="28.314299" lon="105.049284"><ele>814.3898</ele><time>2026-04-17T18:37:43.000Z</time></trkpt>
        <trkpt lat="28.314348" lon="105.049303"><ele>813.43567</ele><time>2026-04-17T18:37:47.000Z</time></trkpt>
        <trkpt lat="28.314401" lon="105.049289"><ele>812.06586</ele><time>2026-04-17T18:37:55.000Z</time></trkpt>
        <trkpt lat="28.314449" lon="105.049268"><ele>812.8261</ele><time>2026-04-17T18:38:02.000Z</time></trkpt>
        <trkpt lat="28.314494" lon="105.049251"><ele>807.14404</ele><time>2026-04-17T18:38:16.000Z</time></trkpt>
        <trkpt lat="28.314545" lon="105.049248"><ele>804.7833</ele><time>2026-04-17T18:38:24.000Z</time></trkpt>
        <trkpt lat="28.314546" lon="105.049192"><ele>805.2939</ele><time>2026-04-17T18:38:30.000Z</time></trkpt>
        <trkpt lat="28.314553" lon="105.049246"><ele>806.2126</ele><time>2026-04-17T18:38:46.000Z</time></trkpt>
        <trkpt lat="28.314533" lon="105.049201"><ele>804.7231</ele><time>2026-04-17T18:38:59.000Z</time></trkpt>
        <trkpt lat="28.314568" lon="105.049233"><ele>801.9933</ele><time>2026-04-17T18:39:03.000Z</time></trkpt>
        <trkpt lat="28.314599" lon="105.049286"><ele>802.3137</ele><time>2026-04-17T18:39:07.000Z</time></trkpt>
        <trkpt lat="28.314605" lon="105.049228"><ele>797.9484</ele><time>2026-04-17T18:39:16.000Z</time></trkpt>
        <trkpt lat="28.314551" lon="105.049236"><ele>800.11755</ele><time>2026-04-17T18:39:26.000Z</time></trkpt>
        <trkpt lat="28.314538" lon="105.049184"><ele>801.4395</ele><time>2026-04-17T18:39:31.000Z</time></trkpt>
        <trkpt lat="28.314573" lon="105.049147"><ele>805.0937</ele><time>2026-04-17T18:39:36.000Z</time></trkpt>
        <trkpt lat="28.314595" lon="105.049095"><ele>804.8548</ele><time>2026-04-17T18:39:45.000Z</time></trkpt>
        <trkpt lat="28.314588" lon="105.049039"><ele>795.8605</ele><time>2026-04-17T18:39:57.000Z</time></trkpt>
        <trkpt lat="28.314611" lon="105.048993"><ele>797.65784</ele><time>2026-04-17T18:40:00.000Z</time></trkpt>
        <trkpt lat="28.314578" lon="105.049029"><ele>801.0117</ele><time>2026-04-17T18:40:09.000Z</time></trkpt>
        <trkpt lat="28.314544" lon="105.048993"><ele>803.80865</ele><time>2026-04-17T18:40:21.000Z</time></trkpt>
        <trkpt lat="28.314542" lon="105.048933"><ele>804.4034</ele><time>2026-04-17T18:40:29.000Z</time></trkpt>
        <trkpt lat="28.31454" lon="105.048873"><ele>807.9148</ele><time>2026-04-17T18:40:37.000Z</time></trkpt>
        <trkpt lat="28.314552" lon="105.048818"><ele>809.1952</ele><time>2026-04-17T18:40:46.000Z</time></trkpt>
        <trkpt lat="28.314545" lon="105.048759"><ele>806.65686</ele><time>2026-04-17T18:40:54.000Z</time></trkpt>
        <trkpt lat="28.314512" lon="105.048719"><ele>806.8061</ele><time>2026-04-17T18:41:39.000Z</time></trkpt>
        <trkpt lat="28.314488" lon="105.048675"><ele>806.6066</ele><time>2026-04-17T18:41:45.000Z</time></trkpt>
        <trkpt lat="28.314474" lon="105.048759"><ele>805.8244</ele><time>2026-04-17T18:42:53.000Z</time></trkpt>
        <trkpt lat="28.314475" lon="105.048707"><ele>802.5597</ele><time>2026-04-17T18:43:30.000Z</time></trkpt>
        <trkpt lat="28.314446" lon="105.048642"><ele>802.9265</ele><time>2026-04-17T18:43:37.000Z</time></trkpt>
        <trkpt lat="28.314489" lon="105.048665"><ele>803.72644</ele><time>2026-04-17T18:43:43.000Z</time></trkpt>
        <trkpt lat="28.314479" lon="105.048722"><ele>805.1233</ele><time>2026-04-17T18:43:50.000Z</time></trkpt>
        <trkpt lat="28.314458" lon="105.048791"><ele>808.7665</ele><time>2026-04-17T18:44:10.000Z</time></trkpt>
        <trkpt lat="28.314479" lon="105.048721"><ele>806.759</ele><time>2026-04-17T18:44:17.000Z</time></trkpt>
        <trkpt lat="28.314486" lon="105.048667"><ele>806.7564</ele><time>2026-04-17T18:44:30.000Z</time></trkpt>
        <trkpt lat="28.31452" lon="105.048708"><ele>804.84814</ele><time>2026-04-17T18:45:04.000Z</time></trkpt>
        <trkpt lat="28.314471" lon="105.048712"><ele>803.4924</ele><time>2026-04-17T18:45:10.000Z</time></trkpt>
        <trkpt lat="28.314444" lon="105.048652"><ele>803.46313</ele><time>2026-04-17T18:45:16.000Z</time></trkpt>
        <trkpt lat="28.314437" lon="105.048588"><ele>806.2654</ele><time>2026-04-17T18:45:24.000Z</time></trkpt>
        <trkpt lat="28.314445" lon="105.048535"><ele>805.14294</ele><time>2026-04-17T18:45:32.000Z</time></trkpt>
        <trkpt lat="28.314451" lon="105.048479"><ele>803.66833</ele><time>2026-04-17T18:45:40.000Z</time></trkpt>
        <trkpt lat="28.31442" lon="105.04844"><ele>802.6655</ele><time>2026-04-17T18:45:54.000Z</time></trkpt>
        <trkpt lat="28.314363" lon="105.048418"><ele>810.0897</ele><time>2026-04-17T18:46:11.000Z</time></trkpt>
        <trkpt lat="28.314315" lon="105.048371"><ele>815.4729</ele><time>2026-04-17T18:46:14.000Z</time></trkpt>
        <trkpt lat="28.314345" lon="105.048331"><ele>802.8102</ele><time>2026-04-17T18:46:34.000Z</time></trkpt>
        <trkpt lat="28.314306" lon="105.048286"><ele>802.3882</ele><time>2026-04-17T18:46:40.000Z</time></trkpt>
        <trkpt lat="28.314254" lon="105.048293"><ele>803.34766</ele><time>2026-04-17T18:46:45.000Z</time></trkpt>
        <trkpt lat="28.314203" lon="105.048283"><ele>802.21173</ele><time>2026-04-17T18:46:50.000Z</time></trkpt>
        <trkpt lat="28.31417" lon="105.048233"><ele>805.10693</ele><time>2026-04-17T18:46:55.000Z</time></trkpt>
        <trkpt lat="28.314137" lon="105.048195"><ele>805.598</ele><time>2026-04-17T18:46:58.000Z</time></trkpt>
        <trkpt lat="28.314089" lon="105.048175"><ele>807.0006</ele><time>2026-04-17T18:47:04.000Z</time></trkpt>
        <trkpt lat="28.314049" lon="105.048144"><ele>804.49774</ele><time>2026-04-17T18:47:17.000Z</time></trkpt>
        <trkpt lat="28.314091" lon="105.048124"><ele>801.581</ele><time>2026-04-17T18:47:29.000Z</time></trkpt>
        <trkpt lat="28.314051" lon="105.048078"><ele>803.26196</ele><time>2026-04-17T18:47:49.000Z</time></trkpt>
        <trkpt lat="28.314019" lon="105.048031"><ele>804.25494</ele><time>2026-04-17T18:47:51.000Z</time></trkpt>
        <trkpt lat="28.314071" lon="105.048021"><ele>803.9326</ele><time>2026-04-17T18:47:56.000Z</time></trkpt>
        <trkpt lat="28.314117" lon="105.048036"><ele>803.1384</ele><time>2026-04-17T18:47:59.000Z</time></trkpt>
        <trkpt lat="28.314169" lon="105.048055"><ele>802.27576</ele><time>2026-04-17T18:48:03.000Z</time></trkpt>
        <trkpt lat="28.314241" lon="105.048052"><ele>801.75323</ele><time>2026-04-17T18:48:10.000Z</time></trkpt>
        <trkpt lat="28.31429" lon="105.048027"><ele>800.4413</ele><time>2026-04-17T18:48:18.000Z</time></trkpt>
        <trkpt lat="28.314308" lon="105.047974"><ele>798.55096</ele><time>2026-04-17T18:48:21.000Z</time></trkpt>
        <trkpt lat="28.314254" lon="105.047951"><ele>798.8234</ele><time>2026-04-17T18:48:24.000Z</time></trkpt>
        <trkpt lat="28.314183" lon="105.04802"><ele>799.11993</ele><time>2026-04-17T18:48:27.000Z</time></trkpt>
        <trkpt lat="28.31414" lon="105.047987"><ele>799.5014</ele><time>2026-04-17T18:48:31.000Z</time></trkpt>
        <trkpt lat="28.31416" lon="105.04793"><ele>800.1993</ele><time>2026-04-17T18:48:38.000Z</time></trkpt>
        <trkpt lat="28.314212" lon="105.047899"><ele>800.48096</ele><time>2026-04-17T18:48:39.000Z</time></trkpt>
        <trkpt lat="28.314249" lon="105.047848"><ele>800.74756</ele><time>2026-04-17T18:48:41.000Z</time></trkpt>
        <trkpt lat="28.314309" lon="105.047861"><ele>803.2398</ele><time>2026-04-17T18:49:05.000Z</time></trkpt>
        <trkpt lat="28.314262" lon="105.047846"><ele>804.3293</ele><time>2026-04-17T18:49:11.000Z</time></trkpt>
        <trkpt lat="28.314324" lon="105.047872"><ele>803.8281</ele><time>2026-04-17T18:49:18.000Z</time></trkpt>
        <trkpt lat="28.314297" lon="105.047944"><ele>802.3549</ele><time>2026-04-17T18:49:20.000Z</time></trkpt>
        <trkpt lat="28.314266" lon="105.047984"><ele>801.3686</ele><time>2026-04-17T18:49:35.000Z</time></trkpt>
        <trkpt lat="28.314228" lon="105.048016"><ele>800.7479</ele><time>2026-04-17T18:49:39.000Z</time></trkpt>
        <trkpt lat="28.314275" lon="105.047991"><ele>797.7892</ele><time>2026-04-17T18:50:22.000Z</time></trkpt>
        <trkpt lat="28.314242" lon="105.04804"><ele>800.85486</ele><time>2026-04-17T18:50:33.000Z</time></trkpt>
        <trkpt lat="28.314227" lon="105.048099"><ele>799.4455</ele><time>2026-04-17T18:50:51.000Z</time></trkpt>
        <trkpt lat="28.314178" lon="105.048062"><ele>798.7752</ele><time>2026-04-17T18:51:04.000Z</time></trkpt>
        <trkpt lat="28.314231" lon="105.047998"><ele>802.05634</ele><time>2026-04-17T18:51:21.000Z</time></trkpt>
        <trkpt lat="28.314286" lon="105.048005"><ele>801.62054</ele><time>2026-04-17T18:51:24.000Z</time></trkpt>
        <trkpt lat="28.314239" lon="105.048024"><ele>802.55597</ele><time>2026-04-17T18:51:35.000Z</time></trkpt>
        <trkpt lat="28.314179" lon="105.048091"><ele>800.8807</ele><time>2026-04-17T18:51:46.000Z</time></trkpt>
        <trkpt lat="28.314194" lon="105.04804"><ele>800.0367</ele><time>2026-04-17T18:51:52.000Z</time></trkpt>
        <trkpt lat="28.314262" lon="105.047949"><ele>801.1734</ele><time>2026-04-17T18:52:03.000Z</time></trkpt>
        <trkpt lat="28.314238" lon="105.047996"><ele>801.54846</ele><time>2026-04-17T18:52:09.000Z</time></trkpt>
        <trkpt lat="28.314207" lon="105.048038"><ele>800.6178</ele><time>2026-04-17T18:52:37.000Z</time></trkpt>
        <trkpt lat="28.314266" lon="105.048024"><ele>801.39905</ele><time>2026-04-17T18:52:49.000Z</time></trkpt>
        <trkpt lat="28.314333" lon="105.047993"><ele>802.9993</ele><time>2026-04-17T18:52:59.000Z</time></trkpt>
        <trkpt lat="28.314305" lon="105.048036"><ele>803.4247</ele><time>2026-04-17T18:53:07.000Z</time></trkpt>
        <trkpt lat="28.314324" lon="105.048087"><ele>803.0158</ele><time>2026-04-17T18:53:27.000Z</time></trkpt>
        <trkpt lat="28.314278" lon="105.04809"><ele>801.9831</ele><time>2026-04-17T18:53:33.000Z</time></trkpt>
        <trkpt lat="28.314246" lon="105.048137"><ele>802.0612</ele><time>2026-04-17T18:53:44.000Z</time></trkpt>
        <trkpt lat="28.314193" lon="105.048055"><ele>801.0325</ele><time>2026-04-17T18:54:01.000Z</time></trkpt>
        <trkpt lat="28.314153" lon="105.048002"><ele>801.4125</ele><time>2026-04-17T18:54:04.000Z</time></trkpt>
        <trkpt lat="28.31417" lon="105.048051"><ele>802.8098</ele><time>2026-04-17T18:54:13.000Z</time></trkpt>
        <trkpt lat="28.314192" lon="105.048"><ele>803.1238</ele><time>2026-04-17T18:54:23.000Z</time></trkpt>
        <trkpt lat="28.314238" lon="105.047999"><ele>802.1189</ele><time>2026-04-17T18:54:38.000Z</time></trkpt>
        <trkpt lat="28.314273" lon="105.047966"><ele>800.0102</ele><time>2026-04-17T18:54:53.000Z</time></trkpt>
        <trkpt lat="28.314224" lon="105.048016"><ele>800.06256</ele><time>2026-04-17T18:55:13.000Z</time></trkpt>
        <trkpt lat="28.314285" lon="105.047938"><ele>797.7588</ele><time>2026-04-17T18:55:32.000Z</time></trkpt>
        <trkpt lat="28.314403" lon="105.047902"><ele>803.8457</ele><time>2026-04-17T18:55:54.000Z</time></trkpt>
        <trkpt lat="28.314318" lon="105.048016"><ele>803.6145</ele><time>2026-04-17T18:55:55.000Z</time></trkpt>
        <trkpt lat="28.314323" lon="105.047948"><ele>803.17786</ele><time>2026-04-17T18:55:59.000Z</time></trkpt>
        <trkpt lat="28.314275" lon="105.04795"><ele>802.49164</ele><time>2026-04-17T18:56:04.000Z</time></trkpt>
        <trkpt lat="28.314236" lon="105.047991"><ele>802.4189</ele><time>2026-04-17T18:56:10.000Z</time></trkpt>
        <trkpt lat="28.314271" lon="105.047913"><ele>798.9681</ele><time>2026-04-17T18:56:27.000Z</time></trkpt>
        <trkpt lat="28.314337" lon="105.047881"><ele>800.99896</ele><time>2026-04-17T18:56:41.000Z</time></trkpt>
        <trkpt lat="28.314303" lon="105.047933"><ele>806.0445</ele><time>2026-04-17T18:57:07.000Z</time></trkpt>
        <trkpt lat="28.314304" lon="105.047986"><ele>804.2489</ele><time>2026-04-17T18:57:12.000Z</time></trkpt>
        <trkpt lat="28.314286" lon="105.048039"><ele>803.75165</ele><time>2026-04-17T18:57:15.000Z</time></trkpt>
        <trkpt lat="28.314305" lon="105.048109"><ele>805.2713</ele><time>2026-04-17T18:57:18.000Z</time></trkpt>
        <trkpt lat="28.314312" lon="105.048164"><ele>806.0814</ele><time>2026-04-17T18:57:22.000Z</time></trkpt>
        <trkpt lat="28.31431" lon="105.04822"><ele>805.04395</ele><time>2026-04-17T18:57:28.000Z</time></trkpt>
        <trkpt lat="28.314356" lon="105.04824"><ele>800.5605</ele><time>2026-04-17T18:57:39.000Z</time></trkpt>
        <trkpt lat="28.314375" lon="105.04818"><ele>799.25903</ele><time>2026-04-17T18:57:43.000Z</time></trkpt>
        <trkpt lat="28.314424" lon="105.048204"><ele>797.8105</ele><time>2026-04-17T18:57:45.000Z</time></trkpt>
        <trkpt lat="28.314477" lon="105.048218"><ele>798.12866</ele><time>2026-04-17T18:57:48.000Z</time></trkpt>
        <trkpt lat="28.314515" lon="105.048256"><ele>794.09564</ele><time>2026-04-17T18:57:55.000Z</time></trkpt>
        <trkpt lat="28.314556" lon="105.048295"><ele>795.1155</ele><time>2026-04-17T18:58:00.000Z</time></trkpt>
        <trkpt lat="28.314569" lon="105.048345"><ele>791.1883</ele><time>2026-04-17T18:58:06.000Z</time></trkpt>
        <trkpt lat="28.314588" lon="105.048393"><ele>791.5937</ele><time>2026-04-17T18:58:11.000Z</time></trkpt>
        <trkpt lat="28.314617" lon="105.048438"><ele>791.86633</ele><time>2026-04-17T18:58:17.000Z</time></trkpt>
        <trkpt lat="28.314606" lon="105.04849"><ele>787.4585</ele><time>2026-04-17T18:58:28.000Z</time></trkpt>
        <trkpt lat="28.31463" lon="105.048537"><ele>786.1824</ele><time>2026-04-17T18:58:34.000Z</time></trkpt>
        <trkpt lat="28.314677" lon="105.048549"><ele>787.86597</ele><time>2026-04-17T18:58:37.000Z</time></trkpt>
        <trkpt lat="28.314722" lon="105.048558"><ele>786.5837</ele><time>2026-04-17T18:58:42.000Z</time></trkpt>
        <trkpt lat="28.314755" lon="105.048518"><ele>784.6327</ele><time>2026-04-17T18:58:48.000Z</time></trkpt>
        <trkpt lat="28.314806" lon="105.048544"><ele>782.51544</ele><time>2026-04-17T18:59:08.000Z</time></trkpt>
        <trkpt lat="28.314827" lon="105.048598"><ele>782.3876</ele><time>2026-04-17T18:59:12.000Z</time></trkpt>
        <trkpt lat="28.314854" lon="105.048658"><ele>785.1353</ele><time>2026-04-17T18:59:17.000Z</time></trkpt>
        <trkpt lat="28.314859" lon="105.048727"><ele>786.4502</ele><time>2026-04-17T18:59:20.000Z</time></trkpt>
        <trkpt lat="28.314893" lon="105.0488"><ele>787.36255</ele><time>2026-04-17T18:59:27.000Z</time></trkpt>
        <trkpt lat="28.314901" lon="105.048851"><ele>786.7092</ele><time>2026-04-17T18:59:31.000Z</time></trkpt>
        <trkpt lat="28.314931" lon="105.048898"><ele>786.1856</ele><time>2026-04-17T18:59:37.000Z</time></trkpt>
        <trkpt lat="28.314964" lon="105.048941"><ele>786.4128</ele><time>2026-04-17T18:59:41.000Z</time></trkpt>
        <trkpt lat="28.314921" lon="105.048962"><ele>784.9184</ele><time>2026-04-17T18:59:47.000Z</time></trkpt>
        <trkpt lat="28.314962" lon="105.049007"><ele>784.993</ele><time>2026-04-17T18:59:50.000Z</time></trkpt>
        <trkpt lat="28.314921" lon="105.049038"><ele>784.46045</ele><time>2026-04-17T18:59:54.000Z</time></trkpt>
        <trkpt lat="28.314871" lon="105.049046"><ele>785.02875</ele><time>2026-04-17T18:59:57.000Z</time></trkpt>
        <trkpt lat="28.314889" lon="105.049118"><ele>781.3927</ele><time>2026-04-17T19:00:10.000Z</time></trkpt>
        <trkpt lat="28.314906" lon="105.049188"><ele>782.8201</ele><time>2026-04-17T19:00:13.000Z</time></trkpt>
        <trkpt lat="28.314917" lon="105.049256"><ele>781.5485</ele><time>2026-04-17T19:00:15.000Z</time></trkpt>
        <trkpt lat="28.314937" lon="105.049317"><ele>782.1036</ele><time>2026-04-17T19:00:20.000Z</time></trkpt>
        <trkpt lat="28.314938" lon="105.049241"><ele>781.37494</ele><time>2026-04-17T19:00:29.000Z</time></trkpt>
        <trkpt lat="28.314956" lon="105.049182"><ele>778.48425</ele><time>2026-04-17T19:00:35.000Z</time></trkpt>
        <trkpt lat="28.314931" lon="105.049134"><ele>776.36707</ele><time>2026-04-17T19:00:39.000Z</time></trkpt>
        <trkpt lat="28.314976" lon="105.049105"><ele>777.4673</ele><time>2026-04-17T19:00:41.000Z</time></trkpt>
        <trkpt lat="28.315024" lon="105.049099"><ele>777.76086</ele><time>2026-04-17T19:00:49.000Z</time></trkpt>
        <trkpt lat="28.315038" lon="105.049166"><ele>778.5259</ele><time>2026-04-17T19:00:59.000Z</time></trkpt>
        <trkpt lat="28.314991" lon="105.049169"><ele>778.8688</ele><time>2026-04-17T19:01:02.000Z</time></trkpt>
        <trkpt lat="28.314999" lon="105.049221"><ele>779.86255</ele><time>2026-04-17T19:01:10.000Z</time></trkpt>
        <trkpt lat="28.315022" lon="105.049267"><ele>781.22064</ele><time>2026-04-17T19:01:14.000Z</time></trkpt>
        <trkpt lat="28.315029" lon="105.049216"><ele>777.6794</ele><time>2026-04-17T19:01:32.000Z</time></trkpt>
        <trkpt lat="28.315036" lon="105.049267"><ele>778.9383</ele><time>2026-04-17T19:01:41.000Z</time></trkpt>
        <trkpt lat="28.314997" lon="105.049304"><ele>779.1175</ele><time>2026-04-17T19:01:51.000Z</time></trkpt>
        <trkpt lat="28.315028" lon="105.049351"><ele>777.15906</ele><time>2026-04-17T19:01:57.000Z</time></trkpt>
        <trkpt lat="28.315045" lon="105.049295"><ele>777.96497</ele><time>2026-04-17T19:02:05.000Z</time></trkpt>
        <trkpt lat="28.315046" lon="105.049231"><ele>777.1376</ele><time>2026-04-17T19:02:08.000Z</time></trkpt>
        <trkpt lat="28.315072" lon="105.049188"><ele>775.90454</ele><time>2026-04-17T19:02:14.000Z</time></trkpt>
        <trkpt lat="28.315024" lon="105.049221"><ele>775.4598</ele><time>2026-04-17T19:02:21.000Z</time></trkpt>
        <trkpt lat="28.315059" lon="105.049272"><ele>776.5174</ele><time>2026-04-17T19:02:24.000Z</time></trkpt>
        <trkpt lat="28.315084" lon="105.049319"><ele>774.9542</ele><time>2026-04-17T19:02:30.000Z</time></trkpt>
        <trkpt lat="28.315129" lon="105.049376"><ele>774.5562</ele><time>2026-04-17T19:02:35.000Z</time></trkpt>
        <trkpt lat="28.315172" lon="105.049415"><ele>774.7951</ele><time>2026-04-17T19:02:40.000Z</time></trkpt>
        <trkpt lat="28.315219" lon="105.049431"><ele>772.36237</ele><time>2026-04-17T19:02:46.000Z</time></trkpt>
        <trkpt lat="28.315265" lon="105.049445"><ele>771.89044</ele><time>2026-04-17T19:02:51.000Z</time></trkpt>
        <trkpt lat="28.315307" lon="105.04947"><ele>770.381</ele><time>2026-04-17T19:02:57.000Z</time></trkpt>
        <trkpt lat="28.315349" lon="105.049492"><ele>769.76874</ele><time>2026-04-17T19:03:05.000Z</time></trkpt>
        <trkpt lat="28.315393" lon="105.049507"><ele>767.8471</ele><time>2026-04-17T19:03:13.000Z</time></trkpt>
        <trkpt lat="28.315443" lon="105.049525"><ele>765.9836</ele><time>2026-04-17T19:03:20.000Z</time></trkpt>
        <trkpt lat="28.31549" lon="105.049518"><ele>765.97455</ele><time>2026-04-17T19:03:24.000Z</time></trkpt>
        <trkpt lat="28.315538" lon="105.049519"><ele>764.5739</ele><time>2026-04-17T19:03:31.000Z</time></trkpt>
        <trkpt lat="28.315588" lon="105.049529"><ele>766.0464</ele><time>2026-04-17T19:03:35.000Z</time></trkpt>
        <trkpt lat="28.315649" lon="105.049538"><ele>766.9259</ele><time>2026-04-17T19:03:40.000Z</time></trkpt>
        <trkpt lat="28.315709" lon="105.049557"><ele>770.25</ele><time>2026-04-17T19:03:44.000Z</time></trkpt>
        <trkpt lat="28.315753" lon="105.049573"><ele>767.9399</ele><time>2026-04-17T19:03:50.000Z</time></trkpt>
        <trkpt lat="28.3158" lon="105.049585"><ele>766.8756</ele><time>2026-04-17T19:03:57.000Z</time></trkpt>
        <trkpt lat="28.315853" lon="105.049604"><ele>765.45264</ele><time>2026-04-17T19:04:05.000Z</time></trkpt>
        <trkpt lat="28.315888" lon="105.049654"><ele>765.7296</ele><time>2026-04-17T19:04:11.000Z</time></trkpt>
        <trkpt lat="28.315839" lon="105.04964"><ele>760.3308</ele><time>2026-04-17T19:04:21.000Z</time></trkpt>
        <trkpt lat="28.315781" lon="105.049632"><ele>760.5527</ele><time>2026-04-17T19:04:25.000Z</time></trkpt>
        <trkpt lat="28.315738" lon="105.049616"><ele>760.35925</ele><time>2026-04-17T19:04:31.000Z</time></trkpt>
        <trkpt lat="28.315693" lon="105.049636"><ele>761.3419</ele><time>2026-04-17T19:04:38.000Z</time></trkpt>
        <trkpt lat="28.315688" lon="105.049691"><ele>758.3278</ele><time>2026-04-17T19:04:44.000Z</time></trkpt>
        <trkpt lat="28.315649" lon="105.04972"><ele>758.3974</ele><time>2026-04-17T19:04:49.000Z</time></trkpt>
        <trkpt lat="28.315601" lon="105.049738"><ele>759.3257</ele><time>2026-04-17T19:04:56.000Z</time></trkpt>
        <trkpt lat="28.31556" lon="105.04977"><ele>759.8243</ele><time>2026-04-17T19:05:03.000Z</time></trkpt>
        <trkpt lat="28.315572" lon="105.049705"><ele>759.57904</ele><time>2026-04-17T19:05:06.000Z</time></trkpt>
        <trkpt lat="28.315526" lon="105.049694"><ele>760.002</ele><time>2026-04-17T19:05:10.000Z</time></trkpt>
        <trkpt lat="28.315555" lon="105.049734"><ele>754.29224</ele><time>2026-04-17T19:05:23.000Z</time></trkpt>
        <trkpt lat="28.315548" lon="105.049682"><ele>760.5321</ele><time>2026-04-17T19:05:47.000Z</time></trkpt>
        <trkpt lat="28.315542" lon="105.049744"><ele>760.8043</ele><time>2026-04-17T19:05:51.000Z</time></trkpt>
        <trkpt lat="28.315583" lon="105.049792"><ele>761.80286</ele><time>2026-04-17T19:06:06.000Z</time></trkpt>
        <trkpt lat="28.315546" lon="105.04976"><ele>759.5626</ele><time>2026-04-17T19:06:14.000Z</time></trkpt>
        <trkpt lat="28.315508" lon="105.049725"><ele>760.1602</ele><time>2026-04-17T19:06:18.000Z</time></trkpt>
        <trkpt lat="28.315557" lon="105.049667"><ele>761.9406</ele><time>2026-04-17T19:06:47.000Z</time></trkpt>
        <trkpt lat="28.315517" lon="105.049707"><ele>766.99274</ele><time>2026-04-17T19:07:41.000Z</time></trkpt>
        <trkpt lat="28.315588" lon="105.049752"><ele>761.46576</ele><time>2026-04-17T19:08:34.000Z</time></trkpt>
        <trkpt lat="28.315549" lon="105.049697"><ele>764.43665</ele><time>2026-04-17T19:08:52.000Z</time></trkpt>
        <trkpt lat="28.315609" lon="105.049718"><ele>765.25903</ele><time>2026-04-17T19:11:14.000Z</time></trkpt>
        <trkpt lat="28.315653" lon="105.049762"><ele>776.67633</ele><time>2026-04-17T19:15:01.000Z</time></trkpt>
        <trkpt lat="28.315596" lon="105.049727"><ele>775.3647</ele><time>2026-04-17T19:15:03.000Z</time></trkpt>
        <trkpt lat="28.315565" lon="105.049633"><ele>767.2673</ele><time>2026-04-17T19:16:27.000Z</time></trkpt>
        <trkpt lat="28.315546" lon="105.049688"><ele>768.1426</ele><time>2026-04-17T19:16:37.000Z</time></trkpt>
        <trkpt lat="28.315599" lon="105.049713"><ele>770.6116</ele><time>2026-04-17T19:17:34.000Z</time></trkpt>
        <trkpt lat="28.315653" lon="105.049704"><ele>768.71643</ele><time>2026-04-17T19:17:41.000Z</time></trkpt>
        <trkpt lat="28.315603" lon="105.049688"><ele>764.93024</ele><time>2026-04-17T19:17:47.000Z</time></trkpt>
        <trkpt lat="28.315653" lon="105.049699"><ele>761.66534</ele><time>2026-04-17T19:18:26.000Z</time></trkpt>
        <trkpt lat="28.315694" lon="105.04975"><ele>764.70483</ele><time>2026-04-17T19:18:31.000Z</time></trkpt>
        <trkpt lat="28.315731" lon="105.049788"><ele>765.41705</ele><time>2026-04-17T19:18:35.000Z</time></trkpt>
        <trkpt lat="28.315775" lon="105.049811"><ele>762.48267</ele><time>2026-04-17T19:19:00.000Z</time></trkpt>
        <trkpt lat="28.315805" lon="105.049873"><ele>763.06665</ele><time>2026-04-17T19:19:15.000Z</time></trkpt>
        <trkpt lat="28.31584" lon="105.04984"><ele>763.1442</ele><time>2026-04-17T19:19:22.000Z</time></trkpt>
        <trkpt lat="28.315874" lon="105.049802"><ele>762.4014</ele><time>2026-04-17T19:19:28.000Z</time></trkpt>
        <trkpt lat="28.315926" lon="105.049794"><ele>762.66833</ele><time>2026-04-17T19:19:35.000Z</time></trkpt>
        <trkpt lat="28.315927" lon="105.049714"><ele>772.44775</ele><time>2026-04-17T19:19:49.000Z</time></trkpt>
        <trkpt lat="28.315953" lon="105.049758"><ele>772.8736</ele><time>2026-04-17T19:19:54.000Z</time></trkpt>
        <trkpt lat="28.315999" lon="105.049766"><ele>769.31805</ele><time>2026-04-17T19:20:02.000Z</time></trkpt>
        <trkpt lat="28.316039" lon="105.049734"><ele>766.325</ele><time>2026-04-17T19:20:07.000Z</time></trkpt>
        <trkpt lat="28.316087" lon="105.049716"><ele>765.82416</ele><time>2026-04-17T19:20:13.000Z</time></trkpt>
        <trkpt lat="28.31609" lon="105.049637"><ele>767.5969</ele><time>2026-04-17T19:20:18.000Z</time></trkpt>
        <trkpt lat="28.316043" lon="105.049608"><ele>768.27454</ele><time>2026-04-17T19:20:29.000Z</time></trkpt>
        <trkpt lat="28.315993" lon="105.049666"><ele>765.86084</ele><time>2026-04-17T19:20:32.000Z</time></trkpt>
        <trkpt lat="28.31595" lon="105.049694"><ele>765.852</ele><time>2026-04-17T19:20:34.000Z</time></trkpt>
        <trkpt lat="28.315911" lon="105.049733"><ele>763.18805</ele><time>2026-04-17T19:20:42.000Z</time></trkpt>
        <trkpt lat="28.315876" lon="105.049779"><ele>761.6868</ele><time>2026-04-17T19:20:48.000Z</time></trkpt>
        <trkpt lat="28.315901" lon="105.04971"><ele>758.11804</ele><time>2026-04-17T19:21:00.000Z</time></trkpt>
        <trkpt lat="28.315948" lon="105.049685"><ele>761.4824</ele><time>2026-04-17T19:21:09.000Z</time></trkpt>
        <trkpt lat="28.315983" lon="105.049651"><ele>762.9693</ele><time>2026-04-17T19:21:12.000Z</time></trkpt>
        <trkpt lat="28.316079" lon="105.049805"><ele>766.2871</ele><time>2026-04-17T19:21:20.000Z</time></trkpt>
        <trkpt lat="28.31609" lon="105.049827"><ele>766.41565</ele><time>2026-04-17T19:21:21.000Z</time></trkpt>
        <trkpt lat="28.316138" lon="105.049862"><ele>767.4295</ele><time>2026-04-17T19:21:28.000Z</time></trkpt>
        <trkpt lat="28.316156" lon="105.049982"><ele>768.19525</ele><time>2026-04-17T19:21:42.000Z</time></trkpt>
        <trkpt lat="28.316167" lon="105.050046"><ele>767.72864</ele><time>2026-04-17T19:21:44.000Z</time></trkpt>
        <trkpt lat="28.316418" lon="105.049735"><ele>767.14984</ele><time>2026-04-17T19:22:04.000Z</time></trkpt>
        <trkpt lat="28.316457" lon="105.049691"><ele>766.03644</ele><time>2026-04-17T19:22:06.000Z</time></trkpt>
        <trkpt lat="28.316463" lon="105.049614"><ele>741.23456</ele><time>2026-04-17T19:22:11.000Z</time></trkpt>
        <trkpt lat="28.316447" lon="105.049578"><ele>766.04175</ele><time>2026-04-17T19:22:21.000Z</time></trkpt>
        <trkpt lat="28.316387" lon="105.049597"><ele>766.1857</ele><time>2026-04-17T19:22:22.000Z</time></trkpt>
        <trkpt lat="28.316349" lon="105.049567"><ele>766.5961</ele><time>2026-04-17T19:22:26.000Z</time></trkpt>
        <trkpt lat="28.316301" lon="105.049708"><ele>771.04956</ele><time>2026-04-17T19:22:42.000Z</time></trkpt>
        <trkpt lat="28.316347" lon="105.049655"><ele>771.0056</ele><time>2026-04-17T19:22:49.000Z</time></trkpt>
        <trkpt lat="28.316364" lon="105.049607"><ele>770.32043</ele><time>2026-04-17T19:22:51.000Z</time></trkpt>
        <trkpt lat="28.316243" lon="105.049787"><ele>769.4303</ele><time>2026-04-17T19:23:22.000Z</time></trkpt>
        <trkpt lat="28.316255" lon="105.049839"><ele>769.8852</ele><time>2026-04-17T19:23:27.000Z</time></trkpt>
        <trkpt lat="28.316246" lon="105.04977"><ele>768.1972</ele><time>2026-04-17T19:23:33.000Z</time></trkpt>
        <trkpt lat="28.316274" lon="105.049844"><ele>769.7642</ele><time>2026-04-17T19:23:38.000Z</time></trkpt>
        <trkpt lat="28.315417" lon="105.04952"><ele>780.3152</ele><time>2026-04-17T19:27:25.000Z</time></trkpt>
        <trkpt lat="28.315358" lon="105.049547"><ele>780.6245</ele><time>2026-04-17T19:27:26.000Z</time></trkpt>
        <trkpt lat="28.315235" lon="105.049638"><ele>781.73315</ele><time>2026-04-17T19:27:28.000Z</time></trkpt>
        <trkpt lat="28.31531" lon="105.049586"><ele>784.42096</ele><time>2026-04-17T19:27:28.000Z</time></trkpt>
        <trkpt lat="28.315252" lon="105.049583"><ele>786.0915</ele><time>2026-04-17T19:27:36.000Z</time></trkpt>
        <trkpt lat="28.315196" lon="105.049636"><ele>784.5769</ele><time>2026-04-17T19:27:47.000Z</time></trkpt>
        <trkpt lat="28.315047" lon="105.04977"><ele>787.4891</ele><time>2026-04-17T19:27:59.000Z</time></trkpt>
        <trkpt lat="28.315077" lon="105.04973"><ele>787.9252</ele><time>2026-04-17T19:28:03.000Z</time></trkpt>
        <trkpt lat="28.315054" lon="105.049682"><ele>788.08734</ele><time>2026-04-17T19:28:06.000Z</time></trkpt>
        <trkpt lat="28.315321" lon="105.049598"><ele>785.9852</ele><time>2026-04-17T19:28:39.000Z</time></trkpt>
        <trkpt lat="28.315274" lon="105.049598"><ele>786.02673</ele><time>2026-04-17T19:28:51.000Z</time></trkpt>
        <trkpt lat="28.315278" lon="105.049598"><ele>786.01984</ele><time>2026-04-17T19:28:52.000Z</time></trkpt>
        <trkpt lat="28.315004" lon="105.049254"><ele>778.9196</ele><time>2026-04-17T19:29:17.000Z</time></trkpt>
        <trkpt lat="28.314957" lon="105.049222"><ele>782.89764</ele><time>2026-04-17T19:29:21.000Z</time></trkpt>
        <trkpt lat="28.314985" lon="105.049271"><ele>783.1419</ele><time>2026-04-17T19:29:25.000Z</time></trkpt>
        <trkpt lat="28.315202" lon="105.049582"><ele>787.12897</ele><time>2026-04-17T19:29:48.000Z</time></trkpt>
        <trkpt lat="28.315264" lon="105.04957"><ele>787.1136</ele><time>2026-04-17T19:29:54.000Z</time></trkpt>
        <trkpt lat="28.315379" lon="105.049485"><ele>779.9157</ele><time>2026-04-17T19:30:00.000Z</time></trkpt>
        <trkpt lat="28.31555" lon="105.049617"><ele>784.73114</ele><time>2026-04-17T19:30:11.000Z</time></trkpt>
        <trkpt lat="28.315239" lon="105.049649"><ele>784.66034</ele><time>2026-04-17T19:30:36.000Z</time></trkpt>
        <trkpt lat="28.315215" lon="105.049595"><ele>785.9411</ele><time>2026-04-17T19:31:00.000Z</time></trkpt>
        <trkpt lat="28.315283" lon="105.049573"><ele>786.7681</ele><time>2026-04-17T19:31:16.000Z</time></trkpt>
        <trkpt lat="28.315329" lon="105.049555"><ele>786.39636</ele><time>2026-04-17T19:31:27.000Z</time></trkpt>
        <trkpt lat="28.315257" lon="105.049581"><ele>788.03143</ele><time>2026-04-17T19:31:35.000Z</time></trkpt>
        <trkpt lat="28.315215" lon="105.049623"><ele>786.31055</ele><time>2026-04-17T19:31:42.000Z</time></trkpt>
        <trkpt lat="28.315175" lon="105.049636"><ele>787.0311</ele><time>2026-04-17T19:32:07.000Z</time></trkpt>
        <trkpt lat="28.31516" lon="105.049685"><ele>787.3044</ele><time>2026-04-17T19:34:07.000Z</time></trkpt>
        <trkpt lat="28.31522" lon="105.049659"><ele>787.23224</ele><time>2026-04-17T19:34:16.000Z</time></trkpt>
        <trkpt lat="28.315175" lon="105.049651"><ele>787.4249</ele><time>2026-04-17T19:34:21.000Z</time></trkpt>
        <trkpt lat="28.315207" lon="105.049603"><ele>787.36725</ele><time>2026-04-17T19:34:22.000Z</time></trkpt>
        <trkpt lat="28.315161" lon="105.049623"><ele>787.66235</ele><time>2026-04-17T19:34:25.000Z</time></trkpt>
        <trkpt lat="28.315205" lon="105.049589"><ele>786.0446</ele><time>2026-04-17T19:34:40.000Z</time></trkpt>
        <trkpt lat="28.315131" lon="105.049613"><ele>786.5493</ele><time>2026-04-17T19:34:56.000Z</time></trkpt>
        <trkpt lat="28.315152" lon="105.049571"><ele>786.92554</ele><time>2026-04-17T19:34:58.000Z</time></trkpt>
        <trkpt lat="28.31512" lon="105.049615"><ele>787.53485</ele><time>2026-04-17T19:35:07.000Z</time></trkpt>
        <trkpt lat="28.315175" lon="105.049627"><ele>787.2999</ele><time>2026-04-17T19:35:14.000Z</time></trkpt>
        <trkpt lat="28.31525" lon="105.049597"><ele>788.253</ele><time>2026-04-17T19:35:45.000Z</time></trkpt>
        <trkpt lat="28.315297" lon="105.049554"><ele>787.32086</ele><time>2026-04-17T19:35:59.000Z</time></trkpt>
        <trkpt lat="28.31526" lon="105.049608"><ele>787.2962</ele><time>2026-04-17T19:36:01.000Z</time></trkpt>
        <trkpt lat="28.315391" lon="105.049623"><ele>787.43304</ele><time>2026-04-17T19:36:11.000Z</time></trkpt>
        <trkpt lat="28.315437" lon="105.049621"><ele>786.97845</ele><time>2026-04-17T19:36:15.000Z</time></trkpt>
        <trkpt lat="28.315372" lon="105.049619"><ele>786.3096</ele><time>2026-04-17T19:36:22.000Z</time></trkpt>
        <trkpt lat="28.315326" lon="105.049588"><ele>785.6105</ele><time>2026-04-17T19:36:57.000Z</time></trkpt>
        <trkpt lat="28.315287" lon="105.049622"><ele>785.62537</ele><time>2026-04-17T19:37:01.000Z</time></trkpt>
        <trkpt lat="28.315346" lon="105.049597"><ele>785.0644</ele><time>2026-04-17T19:37:03.000Z</time></trkpt>
        <trkpt lat="28.315283" lon="105.049609"><ele>785.7569</ele><time>2026-04-17T19:37:26.000Z</time></trkpt>
        <trkpt lat="28.315225" lon="105.049593"><ele>785.79785</ele><time>2026-04-17T19:37:34.000Z</time></trkpt>
        <trkpt lat="28.315276" lon="105.049542"><ele>785.6407</ele><time>2026-04-17T19:37:36.000Z</time></trkpt>
        <trkpt lat="28.315212" lon="105.049539"><ele>785.6958</ele><time>2026-04-17T19:37:37.000Z</time></trkpt>
        <trkpt lat="28.31517" lon="105.049608"><ele>786.26483</ele><time>2026-04-17T19:37:45.000Z</time></trkpt>
        <trkpt lat="28.315247" lon="105.049646"><ele>786.4243</ele><time>2026-04-17T19:38:00.000Z</time></trkpt>
        <trkpt lat="28.3153" lon="105.049649"><ele>786.91223</ele><time>2026-04-17T19:38:24.000Z</time></trkpt>
        <trkpt lat="28.315253" lon="105.049634"><ele>786.5287</ele><time>2026-04-17T19:38:27.000Z</time></trkpt>
        <trkpt lat="28.315251" lon="105.049628"><ele>786.3573</ele><time>2026-04-17T19:39:02.000Z</time></trkpt>
        <trkpt lat="28.315222" lon="105.04964"><ele>786.60065</ele><time>2026-04-17T19:39:07.000Z</time></trkpt>
        <trkpt lat="28.315243" lon="105.049593"><ele>786.7892</ele><time>2026-04-17T19:39:16.000Z</time></trkpt>
        <trkpt lat="28.315197" lon="105.049598"><ele>787.14264</ele><time>2026-04-17T19:39:31.000Z</time></trkpt>
        <trkpt lat="28.315241" lon="105.049537"><ele>786.1704</ele><time>2026-04-17T19:39:39.000Z</time></trkpt>
        <trkpt lat="28.315297" lon="105.04954"><ele>784.4034</ele><time>2026-04-17T19:39:46.000Z</time></trkpt>
        <trkpt lat="28.315264" lon="105.04962"><ele>783.78015</ele><time>2026-04-17T19:39:48.000Z</time></trkpt>
        <trkpt lat="28.315231" lon="105.049659"><ele>779.3609</ele><time>2026-04-17T19:39:51.000Z</time></trkpt>
        <trkpt lat="28.315269" lon="105.049686"><ele>786.1302</ele><time>2026-04-17T19:40:22.000Z</time></trkpt>
        <trkpt lat="28.31531" lon="105.049661"><ele>785.74603</ele><time>2026-04-17T19:40:24.000Z</time></trkpt>
        <trkpt lat="28.315385" lon="105.049661"><ele>770.61224</ele><time>2026-04-17T19:40:55.000Z</time></trkpt>
        <trkpt lat="28.315548" lon="105.049681"><ele>770.61224</ele><time>2026-04-17T19:41:12.000Z</time></trkpt>
        <trkpt lat="28.315799" lon="105.04971"><ele>767.82214</ele><time>2026-04-17T19:42:48.000Z</time></trkpt>
        <trkpt lat="28.315826" lon="105.049713"><ele>767.82214</ele><time>2026-04-17T19:43:45.000Z</time></trkpt>
        <trkpt lat="28.315846" lon="105.049727"><ele>767.6529</ele><time>2026-04-17T19:43:47.000Z</time></trkpt>
        <trkpt lat="28.315805" lon="105.049719"><ele>767.8222</ele><time>2026-04-17T19:43:55.000Z</time></trkpt>
        <trkpt lat="28.316108" lon="105.050076"><ele>778.97064</ele><time>2026-04-17T19:44:09.000Z</time></trkpt>
        <trkpt lat="28.316072" lon="105.050007"><ele>777.479</ele><time>2026-04-17T19:44:18.000Z</time></trkpt>
        <trkpt lat="28.316003" lon="105.049853"><ele>774.9702</ele><time>2026-04-17T19:44:19.000Z</time></trkpt>
        <trkpt lat="28.316004" lon="105.049784"><ele>775.65326</ele><time>2026-04-17T19:44:24.000Z</time></trkpt>
        <trkpt lat="28.316026" lon="105.049738"><ele>774.58875</ele><time>2026-04-17T19:44:27.000Z</time></trkpt>
        <trkpt lat="28.316056" lon="105.049674"><ele>775.2904</ele><time>2026-04-17T19:44:33.000Z</time></trkpt>
        <trkpt lat="28.316005" lon="105.049665"><ele>775.57526</ele><time>2026-04-17T19:44:39.000Z</time></trkpt>
        <trkpt lat="28.316047" lon="105.049642"><ele>776.2663</ele><time>2026-04-17T19:44:49.000Z</time></trkpt>
        <trkpt lat="28.316083" lon="105.049684"><ele>774.091</ele><time>2026-04-17T19:45:01.000Z</time></trkpt>
        <trkpt lat="28.316092" lon="105.04974"><ele>773.43054</ele><time>2026-04-17T19:45:03.000Z</time></trkpt>
        <trkpt lat="28.316095" lon="105.049804"><ele>773.28125</ele><time>2026-04-17T19:45:05.000Z</time></trkpt>
        <trkpt lat="28.316127" lon="105.049736"><ele>771.64984</ele><time>2026-04-17T19:45:13.000Z</time></trkpt>
        <trkpt lat="28.31616" lon="105.049677"><ele>771.4147</ele><time>2026-04-17T19:45:16.000Z</time></trkpt>
        <trkpt lat="28.316227" lon="105.049608"><ele>770.22943</ele><time>2026-04-17T19:45:24.000Z</time></trkpt>
        <trkpt lat="28.316243" lon="105.049555"><ele>771.2907</ele><time>2026-04-17T19:45:28.000Z</time></trkpt>
        <trkpt lat="28.316289" lon="105.049583"><ele>770.8005</ele><time>2026-04-17T19:45:33.000Z</time></trkpt>
        <trkpt lat="28.316342" lon="105.049593"><ele>771.36786</ele><time>2026-04-17T19:45:37.000Z</time></trkpt>
        <trkpt lat="28.316381" lon="105.049624"><ele>771.1077</ele><time>2026-04-17T19:45:41.000Z</time></trkpt>
        <trkpt lat="28.316416" lon="105.049665"><ele>769.73016</ele><time>2026-04-17T19:45:46.000Z</time></trkpt>
        <trkpt lat="28.316464" lon="105.049675"><ele>768.91675</ele><time>2026-04-17T19:45:52.000Z</time></trkpt>
        <trkpt lat="28.316513" lon="105.04967"><ele>767.5415</ele><time>2026-04-17T19:45:59.000Z</time></trkpt>
        <trkpt lat="28.316552" lon="105.049705"><ele>764.5594</ele><time>2026-04-17T19:46:03.000Z</time></trkpt>
        <trkpt lat="28.316596" lon="105.049683"><ele>763.7316</ele><time>2026-04-17T19:46:07.000Z</time></trkpt>
        <trkpt lat="28.316649" lon="105.049689"><ele>761.4303</ele><time>2026-04-17T19:46:12.000Z</time></trkpt>
        <trkpt lat="28.316701" lon="105.049678"><ele>759.12823</ele><time>2026-04-17T19:46:17.000Z</time></trkpt>
        <trkpt lat="28.316742" lon="105.049707"><ele>758.1301</ele><time>2026-04-17T19:46:23.000Z</time></trkpt>
        <trkpt lat="28.316815" lon="105.049818"><ele>760.42114</ele><time>2026-04-17T19:47:24.000Z</time></trkpt>
        <trkpt lat="28.31669" lon="105.04962"><ele>761.1207</ele><time>2026-04-17T19:47:26.000Z</time></trkpt>
        <trkpt lat="28.316738" lon="105.049676"><ele>757.6396</ele><time>2026-04-17T19:47:29.000Z</time></trkpt>
        <trkpt lat="28.316782" lon="105.049692"><ele>757.6469</ele><time>2026-04-17T19:47:31.000Z</time></trkpt>
        <trkpt lat="28.316844" lon="105.049705"><ele>755.94025</ele><time>2026-04-17T19:47:36.000Z</time></trkpt>
        <trkpt lat="28.316891" lon="105.049734"><ele>754.1692</ele><time>2026-04-17T19:47:43.000Z</time></trkpt>
        <trkpt lat="28.316941" lon="105.049728"><ele>752.20166</ele><time>2026-04-17T19:47:51.000Z</time></trkpt>
        <trkpt lat="28.316986" lon="105.049716"><ele>752.16095</ele><time>2026-04-17T19:47:57.000Z</time></trkpt>
        <trkpt lat="28.317041" lon="105.049709"><ele>751.5267</ele><time>2026-04-17T19:48:04.000Z</time></trkpt>
        <trkpt lat="28.317082" lon="105.049674"><ele>751.8509</ele><time>2026-04-17T19:48:09.000Z</time></trkpt>
        <trkpt lat="28.317131" lon="105.049648"><ele>752.77313</ele><time>2026-04-17T19:48:13.000Z</time></trkpt>
        <trkpt lat="28.317174" lon="105.049624"><ele>752.92975</ele><time>2026-04-17T19:48:18.000Z</time></trkpt>
        <trkpt lat="28.317227" lon="105.049627"><ele>753.2087</ele><time>2026-04-17T19:48:22.000Z</time></trkpt>
        <trkpt lat="28.317274" lon="105.04962"><ele>752.8846</ele><time>2026-04-17T19:48:28.000Z</time></trkpt>
        <trkpt lat="28.317327" lon="105.049598"><ele>753.6677</ele><time>2026-04-17T19:48:32.000Z</time></trkpt>
        <trkpt lat="28.317374" lon="105.049573"><ele>750.38104</ele><time>2026-04-17T19:48:40.000Z</time></trkpt>
        <trkpt lat="28.317423" lon="105.049565"><ele>750.0165</ele><time>2026-04-17T19:48:49.000Z</time></trkpt>
        <trkpt lat="28.31746" lon="105.049535"><ele>748.9153</ele><time>2026-04-17T19:48:54.000Z</time></trkpt>
        <trkpt lat="28.317502" lon="105.049504"><ele>747.3614</ele><time>2026-04-17T19:49:00.000Z</time></trkpt>
        <trkpt lat="28.317528" lon="105.049446"><ele>749.1554</ele><time>2026-04-17T19:49:07.000Z</time></trkpt>
        <trkpt lat="28.317577" lon="105.049438"><ele>748.753</ele><time>2026-04-17T19:49:12.000Z</time></trkpt>
        <trkpt lat="28.317624" lon="105.049456"><ele>746.2802</ele><time>2026-04-17T19:49:16.000Z</time></trkpt>
        <trkpt lat="28.317677" lon="105.049454"><ele>745.5489</ele><time>2026-04-17T19:49:23.000Z</time></trkpt>
        <trkpt lat="28.317734" lon="105.049428"><ele>747.06165</ele><time>2026-04-17T19:49:28.000Z</time></trkpt>
        <trkpt lat="28.317761" lon="105.049381"><ele>746.5588</ele><time>2026-04-17T19:49:31.000Z</time></trkpt>
        <trkpt lat="28.317792" lon="105.049341"><ele>746.43396</ele><time>2026-04-17T19:49:33.000Z</time></trkpt>
        <trkpt lat="28.317799" lon="105.04928"><ele>747.42804</ele><time>2026-04-17T19:49:36.000Z</time></trkpt>
        <trkpt lat="28.317845" lon="105.049241"><ele>748.75665</ele><time>2026-04-17T19:49:40.000Z</time></trkpt>
        <trkpt lat="28.317892" lon="105.049226"><ele>750.79816</ele><time>2026-04-17T19:49:46.000Z</time></trkpt>
        <trkpt lat="28.317915" lon="105.049282"><ele>749.0855</ele><time>2026-04-17T19:49:50.000Z</time></trkpt>
        <trkpt lat="28.317965" lon="105.049307"><ele>749.7478</ele><time>2026-04-17T19:49:53.000Z</time></trkpt>
        <trkpt lat="28.318006" lon="105.049348"><ele>748.0589</ele><time>2026-04-17T19:49:56.000Z</time></trkpt>
        <trkpt lat="28.31804" lon="105.049405"><ele>746.22974</ele><time>2026-04-17T19:49:59.000Z</time></trkpt>
        <trkpt lat="28.318086" lon="105.049441"><ele>744.03735</ele><time>2026-04-17T19:50:01.000Z</time></trkpt>
        <trkpt lat="28.318125" lon="105.049469"><ele>741.2114</ele><time>2026-04-17T19:50:04.000Z</time></trkpt>
        <trkpt lat="28.318179" lon="105.049491"><ele>740.7956</ele><time>2026-04-17T19:50:07.000Z</time></trkpt>
        <trkpt lat="28.318227" lon="105.049488"><ele>736.76697</ele><time>2026-04-17T19:50:11.000Z</time></trkpt>
        <trkpt lat="28.318272" lon="105.049453"><ele>735.97723</ele><time>2026-04-17T19:50:14.000Z</time></trkpt>
        <trkpt lat="28.318317" lon="105.049465"><ele>737.0603</ele><time>2026-04-17T19:50:18.000Z</time></trkpt>
        <trkpt lat="28.318381" lon="105.049477"><ele>734.2499</ele><time>2026-04-17T19:50:23.000Z</time></trkpt>
        <trkpt lat="28.318434" lon="105.049474"><ele>733.4998</ele><time>2026-04-17T19:50:26.000Z</time></trkpt>
        <trkpt lat="28.318487" lon="105.049479"><ele>733.39545</ele><time>2026-04-17T19:50:30.000Z</time></trkpt>
        <trkpt lat="28.318528" lon="105.049501"><ele>731.79297</ele><time>2026-04-17T19:50:33.000Z</time></trkpt>
        <trkpt lat="28.318591" lon="105.049499"><ele>729.57056</ele><time>2026-04-17T19:50:37.000Z</time></trkpt>
        <trkpt lat="28.31864" lon="105.049528"><ele>727.65485</ele><time>2026-04-17T19:50:41.000Z</time></trkpt>
        <trkpt lat="28.31869" lon="105.04955"><ele>724.5755</ele><time>2026-04-17T19:50:45.000Z</time></trkpt>
        <trkpt lat="28.318745" lon="105.049548"><ele>720.14594</ele><time>2026-04-17T19:50:50.000Z</time></trkpt>
        <trkpt lat="28.318779" lon="105.049593"><ele>716.93036</ele><time>2026-04-17T19:50:54.000Z</time></trkpt>
        <trkpt lat="28.318826" lon="105.049615"><ele>713.6113</ele><time>2026-04-17T19:51:01.000Z</time></trkpt>
        <trkpt lat="28.31888" lon="105.049621"><ele>713.78015</ele><time>2026-04-17T19:51:09.000Z</time></trkpt>
        <trkpt lat="28.318941" lon="105.049618"><ele>714.49603</ele><time>2026-04-17T19:51:15.000Z</time></trkpt>
        <trkpt lat="28.318992" lon="105.04963"><ele>712.05536</ele><time>2026-04-17T19:51:20.000Z</time></trkpt>
        <trkpt lat="28.319041" lon="105.049645"><ele>709.98004</ele><time>2026-04-17T19:51:24.000Z</time></trkpt>
        <trkpt lat="28.319066" lon="105.049687"><ele>710.5181</ele><time>2026-04-17T19:51:27.000Z</time></trkpt>
        <trkpt lat="28.319082" lon="105.049739"><ele>709.9744</ele><time>2026-04-17T19:51:31.000Z</time></trkpt>
        <trkpt lat="28.319088" lon="105.049794"><ele>711.35547</ele><time>2026-04-17T19:51:34.000Z</time></trkpt>
        <trkpt lat="28.319109" lon="105.049851"><ele>709.72186</ele><time>2026-04-17T19:51:39.000Z</time></trkpt>
        <trkpt lat="28.319142" lon="105.049902"><ele>708.0561</ele><time>2026-04-17T19:51:44.000Z</time></trkpt>
        <trkpt lat="28.319183" lon="105.049945"><ele>708.1985</ele><time>2026-04-17T19:51:49.000Z</time></trkpt>
        <trkpt lat="28.319216" lon="105.049982"><ele>705.457</ele><time>2026-04-17T19:51:55.000Z</time></trkpt>
        <trkpt lat="28.319262" lon="105.050012"><ele>704.685</ele><time>2026-04-17T19:52:01.000Z</time></trkpt>
        <trkpt lat="28.319308" lon="105.05003"><ele>704.28485</ele><time>2026-04-17T19:52:04.000Z</time></trkpt>
        <trkpt lat="28.319359" lon="105.049986"><ele>706.6404</ele><time>2026-04-17T19:52:19.000Z</time></trkpt>
        <trkpt lat="28.319418" lon="105.049961"><ele>707.1406</ele><time>2026-04-17T19:52:23.000Z</time></trkpt>
        <trkpt lat="28.319472" lon="105.049984"><ele>707.6486</ele><time>2026-04-17T19:52:27.000Z</time></trkpt>
        <trkpt lat="28.319516" lon="105.049999"><ele>707.19434</ele><time>2026-04-17T19:52:30.000Z</time></trkpt>
        <trkpt lat="28.319566" lon="105.050036"><ele>706.40576</ele><time>2026-04-17T19:52:34.000Z</time></trkpt>
        <trkpt lat="28.319612" lon="105.050065"><ele>705.3358</ele><time>2026-04-17T19:52:38.000Z</time></trkpt>
        <trkpt lat="28.319647" lon="105.050097"><ele>705.0487</ele><time>2026-04-17T19:52:42.000Z</time></trkpt>
        <trkpt lat="28.319663" lon="105.05015"><ele>703.80066</ele><time>2026-04-17T19:52:46.000Z</time></trkpt>
        <trkpt lat="28.31965" lon="105.050204"><ele>702.9015</ele><time>2026-04-17T19:52:49.000Z</time></trkpt>
        <trkpt lat="28.319623" lon="105.050258"><ele>702.5217</ele><time>2026-04-17T19:52:53.000Z</time></trkpt>
        <trkpt lat="28.319615" lon="105.050329"><ele>700.6952</ele><time>2026-04-17T19:52:59.000Z</time></trkpt>
        <trkpt lat="28.319655" lon="105.050369"><ele>696.98096</ele><time>2026-04-17T19:53:07.000Z</time></trkpt>
        <trkpt lat="28.319693" lon="105.050411"><ele>692.8589</ele><time>2026-04-17T19:53:18.000Z</time></trkpt>
        <trkpt lat="28.319737" lon="105.050432"><ele>690.37897</ele><time>2026-04-17T19:53:26.000Z</time></trkpt>
        <trkpt lat="28.319788" lon="105.050449"><ele>691.26715</ele><time>2026-04-17T19:53:31.000Z</time></trkpt>
        <trkpt lat="28.319837" lon="105.050453"><ele>690.44415</ele><time>2026-04-17T19:53:37.000Z</time></trkpt>
        <trkpt lat="28.319893" lon="105.050465"><ele>691.67395</ele><time>2026-04-17T19:53:42.000Z</time></trkpt>
        <trkpt lat="28.319939" lon="105.050485"><ele>691.47876</ele><time>2026-04-17T19:53:50.000Z</time></trkpt>
        <trkpt lat="28.319965" lon="105.050528"><ele>692.08014</ele><time>2026-04-17T19:53:55.000Z</time></trkpt>
        <trkpt lat="28.319972" lon="105.05058"><ele>691.7475</ele><time>2026-04-17T19:54:00.000Z</time></trkpt>
        <trkpt lat="28.31998" lon="105.050632"><ele>691.2418</ele><time>2026-04-17T19:54:06.000Z</time></trkpt>
        <trkpt lat="28.31999" lon="105.050684"><ele>690.25244</ele><time>2026-04-17T19:54:11.000Z</time></trkpt>
        <trkpt lat="28.320002" lon="105.050739"><ele>689.08575</ele><time>2026-04-17T19:54:17.000Z</time></trkpt>
        <trkpt lat="28.320018" lon="105.050787"><ele>687.5142</ele><time>2026-04-17T19:54:22.000Z</time></trkpt>
        <trkpt lat="28.320058" lon="105.050812"><ele>685.3678</ele><time>2026-04-17T19:54:30.000Z</time></trkpt>
        <trkpt lat="28.320082" lon="105.050858"><ele>685.20825</ele><time>2026-04-17T19:54:37.000Z</time></trkpt>
        <trkpt lat="28.320101" lon="105.050909"><ele>685.544</ele><time>2026-04-17T19:54:43.000Z</time></trkpt>
        <trkpt lat="28.320109" lon="105.050966"><ele>682.15906</ele><time>2026-04-17T19:54:51.000Z</time></trkpt>
        <trkpt lat="28.320134" lon="105.051014"><ele>676.94226</ele><time>2026-04-17T19:55:03.000Z</time></trkpt>
        <trkpt lat="28.32017" lon="105.051048"><ele>675.4325</ele><time>2026-04-17T19:55:13.000Z</time></trkpt>
        <trkpt lat="28.320217" lon="105.051048"><ele>673.7325</ele><time>2026-04-17T19:55:22.000Z</time></trkpt>
        <trkpt lat="28.320258" lon="105.051082"><ele>673.87067</ele><time>2026-04-17T19:55:27.000Z</time></trkpt>
        <trkpt lat="28.320307" lon="105.051088"><ele>672.66187</ele><time>2026-04-17T19:55:33.000Z</time></trkpt>
        <trkpt lat="28.320349" lon="105.051112"><ele>671.4273</ele><time>2026-04-17T19:55:40.000Z</time></trkpt>
        <trkpt lat="28.320389" lon="105.051139"><ele>671.0006</ele><time>2026-04-17T19:55:46.000Z</time></trkpt>
        <trkpt lat="28.320346" lon="105.051158"><ele>669.67816</ele><time>2026-04-17T19:56:04.000Z</time></trkpt>
        <trkpt lat="28.320344" lon="105.051222"><ele>669.3134</ele><time>2026-04-17T19:56:12.000Z</time></trkpt>
        <trkpt lat="28.320336" lon="105.051279"><ele>667.11597</ele><time>2026-04-17T19:56:27.000Z</time></trkpt>
        <trkpt lat="28.32038" lon="105.051249"><ele>666.8869</ele><time>2026-04-17T19:56:52.000Z</time></trkpt>
        <trkpt lat="28.320425" lon="105.051259"><ele>667.15015</ele><time>2026-04-17T19:57:01.000Z</time></trkpt>
        <trkpt lat="28.320468" lon="105.051274"><ele>667.9686</ele><time>2026-04-17T19:57:06.000Z</time></trkpt>
        <trkpt lat="28.320436" lon="105.051236"><ele>669.633</ele><time>2026-04-17T19:58:25.000Z</time></trkpt>
        <trkpt lat="28.320465" lon="105.051277"><ele>671.08356</ele><time>2026-04-17T20:01:22.000Z</time></trkpt>
        <trkpt lat="28.320424" lon="105.051253"><ele>674.6067</ele><time>2026-04-17T20:02:22.000Z</time></trkpt>
        <trkpt lat="28.320453" lon="105.051294"><ele>669.58575</ele><time>2026-04-17T20:03:32.000Z</time></trkpt>
        <trkpt lat="28.32042" lon="105.051254"><ele>667.4374</ele><time>2026-04-17T20:03:42.000Z</time></trkpt>
        <trkpt lat="28.320406" lon="105.051303"><ele>669.6004</ele><time>2026-04-17T20:13:08.000Z</time></trkpt>
        <trkpt lat="28.320419" lon="105.051253"><ele>670.56445</ele><time>2026-04-17T20:16:39.000Z</time></trkpt>
        <trkpt lat="28.320444" lon="105.051295"><ele>671.54767</ele><time>2026-04-17T20:19:55.000Z</time></trkpt>
        <trkpt lat="28.320458" lon="105.051345"><ele>670.06854</ele><time>2026-04-17T20:22:29.000Z</time></trkpt>
        <trkpt lat="28.320441" lon="105.051297"><ele>668.1224</ele><time>2026-04-17T20:24:43.000Z</time></trkpt>
        <trkpt lat="28.320386" lon="105.051246"><ele>670.0264</ele><time>2026-04-17T20:28:08.000Z</time></trkpt>
        <trkpt lat="28.320422" lon="105.051278"><ele>670.47345</ele><time>2026-04-17T20:29:04.000Z</time></trkpt>
        <trkpt lat="28.320422" lon="105.051332"><ele>671.9495</ele><time>2026-04-17T20:32:57.000Z</time></trkpt>
        <trkpt lat="28.320434" lon="105.051281"><ele>670.069</ele><time>2026-04-17T20:33:49.000Z</time></trkpt>
        <trkpt lat="28.320427" lon="105.051333"><ele>668.0068</ele><time>2026-04-17T20:37:51.000Z</time></trkpt>
        <trkpt lat="28.320423" lon="105.051277"><ele>673.82837</ele><time>2026-04-17T20:40:52.000Z</time></trkpt>
        <trkpt lat="28.320448" lon="105.051224"><ele>668.7928</ele><time>2026-04-17T20:43:20.000Z</time></trkpt>
        <trkpt lat="28.320463" lon="105.051273"><ele>672.69684</ele><time>2026-04-17T20:44:06.000Z</time></trkpt>
        <trkpt lat="28.320452" lon="105.051214"><ele>672.48</ele><time>2026-04-17T20:48:43.000Z</time></trkpt>
        <trkpt lat="28.320456" lon="105.051266"><ele>669.918</ele><time>2026-04-17T20:49:10.000Z</time></trkpt>
        <trkpt lat="28.32041" lon="105.051266"><ele>669.6358</ele><time>2026-04-17T20:49:23.000Z</time></trkpt>
        <trkpt lat="28.320356" lon="105.051297"><ele>668.765</ele><time>2026-04-17T20:49:30.000Z</time></trkpt>
        <trkpt lat="28.320355" lon="105.051244"><ele>665.41907</ele><time>2026-04-17T20:49:50.000Z</time></trkpt>
        <trkpt lat="28.320365" lon="105.051297"><ele>664.557</ele><time>2026-04-17T20:50:08.000Z</time></trkpt>
        <trkpt lat="28.32038" lon="105.051358"><ele>665.92365</ele><time>2026-04-17T20:50:15.000Z</time></trkpt>
        <trkpt lat="28.320428" lon="105.051355"><ele>665.11975</ele><time>2026-04-17T20:50:20.000Z</time></trkpt>
        <trkpt lat="28.320475" lon="105.051373"><ele>666.51575</ele><time>2026-04-17T20:50:25.000Z</time></trkpt>
        <trkpt lat="28.320496" lon="105.051421"><ele>666.4948</ele><time>2026-04-17T20:50:42.000Z</time></trkpt>
        <trkpt lat="28.320544" lon="105.051409"><ele>668.00433</ele><time>2026-04-17T20:50:49.000Z</time></trkpt>
        <trkpt lat="28.320591" lon="105.05142"><ele>666.08154</ele><time>2026-04-17T20:50:54.000Z</time></trkpt>
        <trkpt lat="28.320639" lon="105.051401"><ele>666.11554</ele><time>2026-04-17T20:50:59.000Z</time></trkpt>
        <trkpt lat="28.320635" lon="105.051455"><ele>666.5395</ele><time>2026-04-17T20:51:02.000Z</time></trkpt>
        <trkpt lat="28.320622" lon="105.051515"><ele>665.7923</ele><time>2026-04-17T20:51:07.000Z</time></trkpt>
        <trkpt lat="28.320628" lon="105.051569"><ele>666.3239</ele><time>2026-04-17T20:51:11.000Z</time></trkpt>
        <trkpt lat="28.320728" lon="105.05163"><ele>667.6474</ele><time>2026-04-17T20:51:26.000Z</time></trkpt>
        <trkpt lat="28.320766" lon="105.051593"><ele>666.9146</ele><time>2026-04-17T20:51:32.000Z</time></trkpt>
        <trkpt lat="28.320783" lon="105.05165"><ele>666.13434</ele><time>2026-04-17T20:51:41.000Z</time></trkpt>
        <trkpt lat="28.320782" lon="105.051707"><ele>666.4184</ele><time>2026-04-17T20:51:45.000Z</time></trkpt>
        <trkpt lat="28.320847" lon="105.051708"><ele>664.92194</ele><time>2026-04-17T20:51:51.000Z</time></trkpt>
        <trkpt lat="28.320896" lon="105.05173"><ele>664.6548</ele><time>2026-04-17T20:51:58.000Z</time></trkpt>
        <trkpt lat="28.32091" lon="105.051784"><ele>663.59247</ele><time>2026-04-17T20:52:05.000Z</time></trkpt>
        <trkpt lat="28.320943" lon="105.051832"><ele>665.1954</ele><time>2026-04-17T20:52:13.000Z</time></trkpt>
        <trkpt lat="28.320948" lon="105.051885"><ele>663.6204</ele><time>2026-04-17T20:52:21.000Z</time></trkpt>
        <trkpt lat="28.320997" lon="105.051896"><ele>662.9173</ele><time>2026-04-17T20:52:27.000Z</time></trkpt>
        <trkpt lat="28.321039" lon="105.051861"><ele>663.0357</ele><time>2026-04-17T20:52:35.000Z</time></trkpt>
        <trkpt lat="28.321037" lon="105.05192"><ele>663.9191</ele><time>2026-04-17T20:52:39.000Z</time></trkpt>
        <trkpt lat="28.321095" lon="105.051969"><ele>665.99445</ele><time>2026-04-17T20:52:45.000Z</time></trkpt>
        <trkpt lat="28.321092" lon="105.052022"><ele>665.8511</ele><time>2026-04-17T20:52:50.000Z</time></trkpt>
        <trkpt lat="28.321139" lon="105.052038"><ele>664.99384</ele><time>2026-04-17T20:52:59.000Z</time></trkpt>
        <trkpt lat="28.321199" lon="105.052034"><ele>664.568</ele><time>2026-04-17T20:53:03.000Z</time></trkpt>
        <trkpt lat="28.321227" lon="105.052079"><ele>664.49915</ele><time>2026-04-17T20:53:11.000Z</time></trkpt>
        <trkpt lat="28.321266" lon="105.052109"><ele>665.87714</ele><time>2026-04-17T20:53:15.000Z</time></trkpt>
        <trkpt lat="28.321302" lon="105.052141"><ele>665.636</ele><time>2026-04-17T20:53:22.000Z</time></trkpt>
        <trkpt lat="28.321356" lon="105.052139"><ele>665.08606</ele><time>2026-04-17T20:53:49.000Z</time></trkpt>
        <trkpt lat="28.321396" lon="105.052173"><ele>663.44116</ele><time>2026-04-17T20:53:56.000Z</time></trkpt>
        <trkpt lat="28.321428" lon="105.052218"><ele>662.51013</ele><time>2026-04-17T20:54:09.000Z</time></trkpt>
        <trkpt lat="28.321472" lon="105.052236"><ele>662.6453</ele><time>2026-04-17T20:54:17.000Z</time></trkpt>
        <trkpt lat="28.32144" lon="105.052281"><ele>663.3662</ele><time>2026-04-17T20:54:21.000Z</time></trkpt>
        <trkpt lat="28.321478" lon="105.052311"><ele>661.6973</ele><time>2026-04-17T20:54:28.000Z</time></trkpt>
        <trkpt lat="28.321519" lon="105.052348"><ele>663.1022</ele><time>2026-04-17T20:54:41.000Z</time></trkpt>
        <trkpt lat="28.321576" lon="105.052362"><ele>662.4985</ele><time>2026-04-17T20:54:48.000Z</time></trkpt>
        <trkpt lat="28.321622" lon="105.052364"><ele>663.5613</ele><time>2026-04-17T20:55:00.000Z</time></trkpt>
        <trkpt lat="28.321581" lon="105.052393"><ele>663.6057</ele><time>2026-04-17T20:55:05.000Z</time></trkpt>
        <trkpt lat="28.321626" lon="105.052371"><ele>664.5189</ele><time>2026-04-17T20:55:13.000Z</time></trkpt>
        <trkpt lat="28.321671" lon="105.052352"><ele>663.93207</ele><time>2026-04-17T20:55:17.000Z</time></trkpt>
        <trkpt lat="28.321713" lon="105.052319"><ele>664.1574</ele><time>2026-04-17T20:55:23.000Z</time></trkpt>
        <trkpt lat="28.321715" lon="105.052372"><ele>661.6355</ele><time>2026-04-17T20:55:28.000Z</time></trkpt>
        <trkpt lat="28.32174" lon="105.05243"><ele>659.57874</ele><time>2026-04-17T20:55:47.000Z</time></trkpt>
        <trkpt lat="28.321784" lon="105.052442"><ele>660.7284</ele><time>2026-04-17T20:55:56.000Z</time></trkpt>
        <trkpt lat="28.321737" lon="105.052466"><ele>661.5732</ele><time>2026-04-17T20:55:57.000Z</time></trkpt>
        <trkpt lat="28.321783" lon="105.052441"><ele>659.9171</ele><time>2026-04-17T20:56:10.000Z</time></trkpt>
        <trkpt lat="28.321809" lon="105.052483"><ele>658.0478</ele><time>2026-04-17T20:56:26.000Z</time></trkpt>
        <trkpt lat="28.321813" lon="105.052535"><ele>657.8772</ele><time>2026-04-17T20:56:33.000Z</time></trkpt>
        <trkpt lat="28.321828" lon="105.052586"><ele>657.15955</ele><time>2026-04-17T20:56:47.000Z</time></trkpt>
        <trkpt lat="28.321877" lon="105.052587"><ele>656.8586</ele><time>2026-04-17T20:56:52.000Z</time></trkpt>
        <trkpt lat="28.321927" lon="105.05262"><ele>659.75073</ele><time>2026-04-17T20:56:58.000Z</time></trkpt>
        <trkpt lat="28.321975" lon="105.052589"><ele>660.96686</ele><time>2026-04-17T20:57:06.000Z</time></trkpt>
        <trkpt lat="28.322002" lon="105.052635"><ele>660.79785</ele><time>2026-04-17T20:57:16.000Z</time></trkpt>
        <trkpt lat="28.322039" lon="105.052672"><ele>658.48047</ele><time>2026-04-17T20:57:28.000Z</time></trkpt>
        <trkpt lat="28.322074" lon="105.052709"><ele>655.7105</ele><time>2026-04-17T20:57:34.000Z</time></trkpt>
        <trkpt lat="28.322095" lon="105.052755"><ele>656.55756</ele><time>2026-04-17T20:57:37.000Z</time></trkpt>
        <trkpt lat="28.322077" lon="105.052812"><ele>655.91864</ele><time>2026-04-17T20:57:41.000Z</time></trkpt>
        <trkpt lat="28.322082" lon="105.052877"><ele>655.9437</ele><time>2026-04-17T20:57:49.000Z</time></trkpt>
        <trkpt lat="28.322112" lon="105.052931"><ele>656.3071</ele><time>2026-04-17T20:57:54.000Z</time></trkpt>
        <trkpt lat="28.322106" lon="105.052985"><ele>658.41046</ele><time>2026-04-17T20:58:12.000Z</time></trkpt>
        <trkpt lat="28.322098" lon="105.053039"><ele>660.15424</ele><time>2026-04-17T20:58:26.000Z</time></trkpt>
        <trkpt lat="28.322072" lon="105.053081"><ele>664.66644</ele><time>2026-04-17T20:58:39.000Z</time></trkpt>
        <trkpt lat="28.322035" lon="105.053116"><ele>668.8483</ele><time>2026-04-17T20:59:09.000Z</time></trkpt>
        <trkpt lat="28.322008" lon="105.053058"><ele>669.0002</ele><time>2026-04-17T20:59:16.000Z</time></trkpt>
        <trkpt lat="28.321983" lon="105.053105"><ele>669.23065</ele><time>2026-04-17T20:59:22.000Z</time></trkpt>
        <trkpt lat="28.321948" lon="105.053068"><ele>667.6829</ele><time>2026-04-17T20:59:51.000Z</time></trkpt>
        <trkpt lat="28.321963" lon="105.053055"><ele>666.70123</ele><time>2026-04-17T20:59:54.000Z</time></trkpt>
        <trkpt lat="28.32191" lon="105.053084"><ele>666.7816</ele><time>2026-04-17T21:00:04.000Z</time></trkpt>
        <trkpt lat="28.321963" lon="105.0531"><ele>670.15497</ele><time>2026-04-17T21:00:15.000Z</time></trkpt>
        <trkpt lat="28.322051" lon="105.053264"><ele>660.2723</ele><time>2026-04-17T21:00:45.000Z</time></trkpt>
        <trkpt lat="28.321936" lon="105.053298"><ele>672.7039</ele><time>2026-04-17T21:00:47.000Z</time></trkpt>
        <trkpt lat="28.32192" lon="105.053248"><ele>675.27057</ele><time>2026-04-17T21:00:48.000Z</time></trkpt>
        <trkpt lat="28.321897" lon="105.0533"><ele>682.043</ele><time>2026-04-17T21:01:03.000Z</time></trkpt>
        <trkpt lat="28.321857" lon="105.053325"><ele>684.627</ele><time>2026-04-17T21:01:24.000Z</time></trkpt>
        <trkpt lat="28.321828" lon="105.053375"><ele>685.77795</ele><time>2026-04-17T21:01:28.000Z</time></trkpt>
        <trkpt lat="28.321776" lon="105.053358"><ele>686.3591</ele><time>2026-04-17T21:01:33.000Z</time></trkpt>
        <trkpt lat="28.321784" lon="105.05341"><ele>688.14233</ele><time>2026-04-17T21:01:40.000Z</time></trkpt>
        <trkpt lat="28.321781" lon="105.053471"><ele>686.70337</ele><time>2026-04-17T21:01:49.000Z</time></trkpt>
        <trkpt lat="28.321755" lon="105.053515"><ele>687.28625</ele><time>2026-04-17T21:02:02.000Z</time></trkpt>
        <trkpt lat="28.321764" lon="105.053582"><ele>690.0059</ele><time>2026-04-17T21:02:07.000Z</time></trkpt>
        <trkpt lat="28.321759" lon="105.053638"><ele>692.53577</ele><time>2026-04-17T21:02:15.000Z</time></trkpt>
        <trkpt lat="28.321755" lon="105.053571"><ele>691.1538</ele><time>2026-04-17T21:02:40.000Z</time></trkpt>
        <trkpt lat="28.321752" lon="105.053641"><ele>695.54266</ele><time>2026-04-17T21:03:49.000Z</time></trkpt>
        <trkpt lat="28.321758" lon="105.053695"><ele>691.68976</ele><time>2026-04-17T21:03:57.000Z</time></trkpt>
        <trkpt lat="28.321759" lon="105.053748"><ele>688.14886</ele><time>2026-04-17T21:04:04.000Z</time></trkpt>
        <trkpt lat="28.321719" lon="105.053781"><ele>686.75836</ele><time>2026-04-17T21:04:11.000Z</time></trkpt>
        <trkpt lat="28.321684" lon="105.053821"><ele>690.3967</ele><time>2026-04-17T21:04:15.000Z</time></trkpt>
        <trkpt lat="28.321663" lon="105.053768"><ele>691.6037</ele><time>2026-04-17T21:04:21.000Z</time></trkpt>
        <trkpt lat="28.32163" lon="105.053702"><ele>689.0287</ele><time>2026-04-17T21:04:27.000Z</time></trkpt>
        <trkpt lat="28.32167" lon="105.053675"><ele>688.6127</ele><time>2026-04-17T21:04:29.000Z</time></trkpt>
        <trkpt lat="28.321623" lon="105.053669"><ele>687.03644</ele><time>2026-04-17T21:04:37.000Z</time></trkpt>
        <trkpt lat="28.321599" lon="105.053714"><ele>683.7383</ele><time>2026-04-17T21:04:50.000Z</time></trkpt>
        <trkpt lat="28.321623" lon="105.053767"><ele>683.48334</ele><time>2026-04-17T21:04:56.000Z</time></trkpt>
        <trkpt lat="28.321625" lon="105.053814"><ele>680.576</ele><time>2026-04-17T21:05:04.000Z</time></trkpt>
        <trkpt lat="28.321622" lon="105.05387"><ele>679.02057</ele><time>2026-04-17T21:05:10.000Z</time></trkpt>
        <trkpt lat="28.321583" lon="105.053906"><ele>677.1519</ele><time>2026-04-17T21:05:20.000Z</time></trkpt>
        <trkpt lat="28.321537" lon="105.053916"><ele>678.8854</ele><time>2026-04-17T21:05:24.000Z</time></trkpt>
        <trkpt lat="28.321673" lon="105.053835"><ele>680.8334</ele><time>2026-04-17T21:05:34.000Z</time></trkpt>
        <trkpt lat="28.321591" lon="105.053833"><ele>680.66003</ele><time>2026-04-17T21:05:36.000Z</time></trkpt>
        <trkpt lat="28.321551" lon="105.053803"><ele>682.90015</ele><time>2026-04-17T21:05:53.000Z</time></trkpt>
        <trkpt lat="28.321516" lon="105.053765"><ele>683.2405</ele><time>2026-04-17T21:05:58.000Z</time></trkpt>
        <trkpt lat="28.321513" lon="105.053819"><ele>683.97626</ele><time>2026-04-17T21:06:02.000Z</time></trkpt>
        <trkpt lat="28.321548" lon="105.053891"><ele>683.5464</ele><time>2026-04-17T21:06:11.000Z</time></trkpt>
        <trkpt lat="28.321499" lon="105.053842"><ele>687.0399</ele><time>2026-04-17T21:06:14.000Z</time></trkpt>
        <trkpt lat="28.321497" lon="105.0539"><ele>688.1481</ele><time>2026-04-17T21:06:22.000Z</time></trkpt>
        <trkpt lat="28.321507" lon="105.053954"><ele>687.87823</ele><time>2026-04-17T21:06:24.000Z</time></trkpt>
        <trkpt lat="28.321527" lon="105.054"><ele>687.6406</ele><time>2026-04-17T21:06:25.000Z</time></trkpt>
        <trkpt lat="28.321573" lon="105.054"><ele>685.3463</ele><time>2026-04-17T21:06:37.000Z</time></trkpt>
        <trkpt lat="28.321591" lon="105.053923"><ele>684.7415</ele><time>2026-04-17T21:06:40.000Z</time></trkpt>
        <trkpt lat="28.321478" lon="105.054008"><ele>683.76184</ele><time>2026-04-17T21:06:49.000Z</time></trkpt>
        <trkpt lat="28.321508" lon="105.054052"><ele>684.1622</ele><time>2026-04-17T21:06:51.000Z</time></trkpt>
        <trkpt lat="28.321474" lon="105.054011"><ele>683.012</ele><time>2026-04-17T21:07:00.000Z</time></trkpt>
        <trkpt lat="28.321525" lon="105.054062"><ele>683.8575</ele><time>2026-04-17T21:07:05.000Z</time></trkpt>
        <trkpt lat="28.321559" lon="105.054096"><ele>683.5502</ele><time>2026-04-17T21:07:09.000Z</time></trkpt>
        <trkpt lat="28.321604" lon="105.054085"><ele>682.5773</ele><time>2026-04-17T21:07:20.000Z</time></trkpt>
        <trkpt lat="28.321567" lon="105.054125"><ele>682.2915</ele><time>2026-04-17T21:07:29.000Z</time></trkpt>
        <trkpt lat="28.321518" lon="105.054124"><ele>680.6497</ele><time>2026-04-17T21:07:38.000Z</time></trkpt>
        <trkpt lat="28.321517" lon="105.054176"><ele>680.05634</ele><time>2026-04-17T21:07:45.000Z</time></trkpt>
        <trkpt lat="28.321554" lon="105.054142"><ele>681.4278</ele><time>2026-04-17T21:07:53.000Z</time></trkpt>
        <trkpt lat="28.321532" lon="105.0542"><ele>681.2859</ele><time>2026-04-17T21:08:20.000Z</time></trkpt>
        <trkpt lat="28.321577" lon="105.05419"><ele>678.4638</ele><time>2026-04-17T21:08:45.000Z</time></trkpt>
        <trkpt lat="28.321646" lon="105.054178"><ele>674.83984</ele><time>2026-04-17T21:09:14.000Z</time></trkpt>
        <trkpt lat="28.321636" lon="105.054127"><ele>671.8623</ele><time>2026-04-17T21:09:23.000Z</time></trkpt>
        <trkpt lat="28.32164" lon="105.054181"><ele>671.86304</ele><time>2026-04-17T21:09:41.000Z</time></trkpt>
        <trkpt lat="28.321617" lon="105.05425"><ele>672.2824</ele><time>2026-04-17T21:09:56.000Z</time></trkpt>
        <trkpt lat="28.321602" lon="105.054301"><ele>672.7727</ele><time>2026-04-17T21:10:04.000Z</time></trkpt>
        <trkpt lat="28.321545" lon="105.054343"><ele>672.7132</ele><time>2026-04-17T21:10:31.000Z</time></trkpt>
        <trkpt lat="28.321502" lon="105.054376"><ele>674.80005</ele><time>2026-04-17T21:10:38.000Z</time></trkpt>
        <trkpt lat="28.321455" lon="105.05439"><ele>676.1202</ele><time>2026-04-17T21:10:45.000Z</time></trkpt>
        <trkpt lat="28.32144" lon="105.054439"><ele>676.031</ele><time>2026-04-17T21:10:55.000Z</time></trkpt>
        <trkpt lat="28.321435" lon="105.054494"><ele>676.3368</ele><time>2026-04-17T21:11:01.000Z</time></trkpt>
        <trkpt lat="28.321412" lon="105.054543"><ele>676.2389</ele><time>2026-04-17T21:11:05.000Z</time></trkpt>
        <trkpt lat="28.32137" lon="105.054564"><ele>674.35376</ele><time>2026-04-17T21:11:25.000Z</time></trkpt>
        <trkpt lat="28.321324" lon="105.054584"><ele>676.2956</ele><time>2026-04-17T21:11:30.000Z</time></trkpt>
        <trkpt lat="28.321281" lon="105.054626"><ele>682.3998</ele><time>2026-04-17T21:11:43.000Z</time></trkpt>
        <trkpt lat="28.321243" lon="105.054662"><ele>685.8349</ele><time>2026-04-17T21:11:49.000Z</time></trkpt>
        <trkpt lat="28.32122" lon="105.054731"><ele>688.7084</ele><time>2026-04-17T21:11:58.000Z</time></trkpt>
        <trkpt lat="28.321226" lon="105.054659"><ele>688.9478</ele><time>2026-04-17T21:12:02.000Z</time></trkpt>
        <trkpt lat="28.321225" lon="105.054722"><ele>694.833</ele><time>2026-04-17T21:12:08.000Z</time></trkpt>
        <trkpt lat="28.321184" lon="105.054746"><ele>692.79346</ele><time>2026-04-17T21:12:15.000Z</time></trkpt>
        <trkpt lat="28.321135" lon="105.054769"><ele>697.99524</ele><time>2026-04-17T21:12:25.000Z</time></trkpt>
        <trkpt lat="28.321125" lon="105.054823"><ele>698.0068</ele><time>2026-04-17T21:12:28.000Z</time></trkpt>
        <trkpt lat="28.321077" lon="105.054851"><ele>696.8599</ele><time>2026-04-17T21:12:34.000Z</time></trkpt>
        <trkpt lat="28.321059" lon="105.054901"><ele>699.79224</ele><time>2026-04-17T21:12:40.000Z</time></trkpt>
        <trkpt lat="28.321013" lon="105.054937"><ele>700.6028</ele><time>2026-04-17T21:12:42.000Z</time></trkpt>
        <trkpt lat="28.320965" lon="105.054957"><ele>700.5296</ele><time>2026-04-17T21:12:45.000Z</time></trkpt>
        <trkpt lat="28.320968" lon="105.054903"><ele>700.2415</ele><time>2026-04-17T21:12:51.000Z</time></trkpt>
        <trkpt lat="28.320916" lon="105.05489"><ele>697.7403</ele><time>2026-04-17T21:13:01.000Z</time></trkpt>
        <trkpt lat="28.32092" lon="105.054835"><ele>689.3248</ele><time>2026-04-17T21:13:19.000Z</time></trkpt>
        <trkpt lat="28.320889" lon="105.054874"><ele>687.3027</ele><time>2026-04-17T21:13:30.000Z</time></trkpt>
        <trkpt lat="28.320941" lon="105.054868"><ele>687.21716</ele><time>2026-04-17T21:13:41.000Z</time></trkpt>
        <trkpt lat="28.320933" lon="105.054793"><ele>686.38153</ele><time>2026-04-17T21:13:59.000Z</time></trkpt>
        <trkpt lat="28.320882" lon="105.05481"><ele>689.6913</ele><time>2026-04-17T21:14:10.000Z</time></trkpt>
        <trkpt lat="28.320868" lon="105.054872"><ele>693.277</ele><time>2026-04-17T21:14:34.000Z</time></trkpt>
        <trkpt lat="28.320815" lon="105.054871"><ele>692.74805</ele><time>2026-04-17T21:14:40.000Z</time></trkpt>
        <trkpt lat="28.320767" lon="105.054898"><ele>695.043</ele><time>2026-04-17T21:14:44.000Z</time></trkpt>
        <trkpt lat="28.32072" lon="105.054845"><ele>695.374</ele><time>2026-04-17T21:14:48.000Z</time></trkpt>
        <trkpt lat="28.320674" lon="105.05483"><ele>694.93286</ele><time>2026-04-17T21:14:56.000Z</time></trkpt>
        <trkpt lat="28.320623" lon="105.054836"><ele>695.0133</ele><time>2026-04-17T21:15:06.000Z</time></trkpt>
        <trkpt lat="28.320599" lon="105.054786"><ele>696.45233</ele><time>2026-04-17T21:15:08.000Z</time></trkpt>
        <trkpt lat="28.320559" lon="105.054822"><ele>698.3235</ele><time>2026-04-17T21:15:18.000Z</time></trkpt>
        <trkpt lat="28.320508" lon="105.054859"><ele>700.13</ele><time>2026-04-17T21:15:27.000Z</time></trkpt>
        <trkpt lat="28.320459" lon="105.054878"><ele>701.2365</ele><time>2026-04-17T21:15:44.000Z</time></trkpt>
        <trkpt lat="28.320423" lon="105.054911"><ele>701.73566</ele><time>2026-04-17T21:15:51.000Z</time></trkpt>
        <trkpt lat="28.320522" lon="105.054829"><ele>709.7628</ele><time>2026-04-17T21:16:19.000Z</time></trkpt>
        <trkpt lat="28.320462" lon="105.05484"><ele>709.70605</ele><time>2026-04-17T21:16:24.000Z</time></trkpt>
        <trkpt lat="28.320422" lon="105.054884"><ele>709.0151</ele><time>2026-04-17T21:16:26.000Z</time></trkpt>
        <trkpt lat="28.320404" lon="105.054958"><ele>705.82275</ele><time>2026-04-17T21:16:36.000Z</time></trkpt>
        <trkpt lat="28.320427" lon="105.055006"><ele>704.3416</ele><time>2026-04-17T21:16:54.000Z</time></trkpt>
        <trkpt lat="28.320474" lon="105.055004"><ele>703.9741</ele><time>2026-04-17T21:17:02.000Z</time></trkpt>
        <trkpt lat="28.320515" lon="105.055043"><ele>702.32263</ele><time>2026-04-17T21:17:25.000Z</time></trkpt>
        <trkpt lat="28.32049" lon="105.055092"><ele>703.31573</ele><time>2026-04-17T21:17:36.000Z</time></trkpt>
        <trkpt lat="28.320525" lon="105.055125"><ele>703.1626</ele><time>2026-04-17T21:17:54.000Z</time></trkpt>
        <trkpt lat="28.320509" lon="105.055179"><ele>704.3004</ele><time>2026-04-17T21:18:07.000Z</time></trkpt>
        <trkpt lat="28.320559" lon="105.055159"><ele>703.7819</ele><time>2026-04-17T21:18:18.000Z</time></trkpt>
        <trkpt lat="28.320529" lon="105.055209"><ele>704.11646</ele><time>2026-04-17T21:18:28.000Z</time></trkpt>
        <trkpt lat="28.320613" lon="105.05524"><ele>705.7229</ele><time>2026-04-17T21:18:32.000Z</time></trkpt>
        <trkpt lat="28.320653" lon="105.05529"><ele>706.90314</ele><time>2026-04-17T21:18:41.000Z</time></trkpt>
        <trkpt lat="28.320632" lon="105.05523"><ele>704.9467</ele><time>2026-04-17T21:18:48.000Z</time></trkpt>
        <trkpt lat="28.320588" lon="105.055201"><ele>704.17444</ele><time>2026-04-17T21:18:54.000Z</time></trkpt>
        <trkpt lat="28.320584" lon="105.055252"><ele>705.71643</ele><time>2026-04-17T21:20:42.000Z</time></trkpt>
        <trkpt lat="28.320613" lon="105.055294"><ele>711.9787</ele><time>2026-04-17T21:21:06.000Z</time></trkpt>
        <trkpt lat="28.320665" lon="105.055313"><ele>710.9991</ele><time>2026-04-17T21:21:12.000Z</time></trkpt>
        <trkpt lat="28.320712" lon="105.055324"><ele>710.7536</ele><time>2026-04-17T21:21:20.000Z</time></trkpt>
        <trkpt lat="28.320736" lon="105.055269"><ele>711.3263</ele><time>2026-04-17T21:21:30.000Z</time></trkpt>
        <trkpt lat="28.320781" lon="105.055293"><ele>709.5235</ele><time>2026-04-17T21:21:37.000Z</time></trkpt>
        <trkpt lat="28.320831" lon="105.055301"><ele>709.20526</ele><time>2026-04-17T21:21:44.000Z</time></trkpt>
        <trkpt lat="28.320891" lon="105.055307"><ele>709.9301</ele><time>2026-04-17T21:21:49.000Z</time></trkpt>
        <trkpt lat="28.320928" lon="105.055342"><ele>710.22205</ele><time>2026-04-17T21:22:08.000Z</time></trkpt>
        <trkpt lat="28.32098" lon="105.055365"><ele>709.634</ele><time>2026-04-17T21:22:24.000Z</time></trkpt>
        <trkpt lat="28.32103" lon="105.055366"><ele>710.4493</ele><time>2026-04-17T21:22:35.000Z</time></trkpt>
        <trkpt lat="28.32108" lon="105.055342"><ele>711.27203</ele><time>2026-04-17T21:22:41.000Z</time></trkpt>
        <trkpt lat="28.321112" lon="105.055386"><ele>712.6873</ele><time>2026-04-17T21:22:56.000Z</time></trkpt>
        <trkpt lat="28.321063" lon="105.055369"><ele>711.8295</ele><time>2026-04-17T21:23:14.000Z</time></trkpt>
        <trkpt lat="28.321034" lon="105.055415"><ele>715.78687</ele><time>2026-04-17T21:23:55.000Z</time></trkpt>
        <trkpt lat="28.321076" lon="105.055437"><ele>715.9951</ele><time>2026-04-17T21:24:00.000Z</time></trkpt>
        <trkpt lat="28.321124" lon="105.05542"><ele>716.98535</ele><time>2026-04-17T21:24:07.000Z</time></trkpt>
        <trkpt lat="28.321163" lon="105.05545"><ele>717.43536</ele><time>2026-04-17T21:24:19.000Z</time></trkpt>
        <trkpt lat="28.321219" lon="105.05543"><ele>717.2565</ele><time>2026-04-17T21:24:30.000Z</time></trkpt>
        <trkpt lat="28.321265" lon="105.055455"><ele>720.4827</ele><time>2026-04-17T21:24:47.000Z</time></trkpt>
        <trkpt lat="28.32132" lon="105.055453"><ele>721.6619</ele><time>2026-04-17T21:24:59.000Z</time></trkpt>
        <trkpt lat="28.321371" lon="105.055463"><ele>722.8968</ele><time>2026-04-17T21:25:06.000Z</time></trkpt>
        <trkpt lat="28.321418" lon="105.055465"><ele>724.37573</ele><time>2026-04-17T21:25:22.000Z</time></trkpt>
        <trkpt lat="28.321416" lon="105.055519"><ele>726.1062</ele><time>2026-04-17T21:25:32.000Z</time></trkpt>
        <trkpt lat="28.321423" lon="105.055577"><ele>728.88617</ele><time>2026-04-17T21:25:38.000Z</time></trkpt>
        <trkpt lat="28.321384" lon="105.055548"><ele>728.7647</ele><time>2026-04-17T21:25:43.000Z</time></trkpt>
        <trkpt lat="28.321342" lon="105.055527"><ele>727.4459</ele><time>2026-04-17T21:25:49.000Z</time></trkpt>
        <trkpt lat="28.321296" lon="105.055557"><ele>729.9993</ele><time>2026-04-17T21:25:57.000Z</time></trkpt>
        <trkpt lat="28.321268" lon="105.055606"><ele>731.6634</ele><time>2026-04-17T21:26:05.000Z</time></trkpt>
        <trkpt lat="28.321225" lon="105.05564"><ele>731.8744</ele><time>2026-04-17T21:26:14.000Z</time></trkpt>
        <trkpt lat="28.321168" lon="105.055676"><ele>733.8835</ele><time>2026-04-17T21:26:24.000Z</time></trkpt>
        <trkpt lat="28.321117" lon="105.055676"><ele>734.2431</ele><time>2026-04-17T21:26:40.000Z</time></trkpt>
        <trkpt lat="28.321095" lon="105.055721"><ele>737.56</ele><time>2026-04-17T21:27:00.000Z</time></trkpt>
        <trkpt lat="28.321083" lon="105.055772"><ele>739.1138</ele><time>2026-04-17T21:27:07.000Z</time></trkpt>
        <trkpt lat="28.321036" lon="105.055773"><ele>741.36255</ele><time>2026-04-17T21:27:16.000Z</time></trkpt>
        <trkpt lat="28.321007" lon="105.055818"><ele>742.2575</ele><time>2026-04-17T21:27:24.000Z</time></trkpt>
        <trkpt lat="28.320998" lon="105.055871"><ele>744.82495</ele><time>2026-04-17T21:27:32.000Z</time></trkpt>
        <trkpt lat="28.320957" lon="105.055899"><ele>745.6302</ele><time>2026-04-17T21:27:42.000Z</time></trkpt>
        <trkpt lat="28.320945" lon="105.055958"><ele>746.4138</ele><time>2026-04-17T21:28:02.000Z</time></trkpt>
        <trkpt lat="28.32094" lon="105.056016"><ele>746.9906</ele><time>2026-04-17T21:28:08.000Z</time></trkpt>
        <trkpt lat="28.320943" lon="105.056082"><ele>747.023</ele><time>2026-04-17T21:28:13.000Z</time></trkpt>
        <trkpt lat="28.320922" lon="105.056128"><ele>748.75574</ele><time>2026-04-17T21:28:23.000Z</time></trkpt>
        <trkpt lat="28.320921" lon="105.05619"><ele>749.6367</ele><time>2026-04-17T21:28:30.000Z</time></trkpt>
        <trkpt lat="28.320924" lon="105.056261"><ele>748.8175</ele><time>2026-04-17T21:28:38.000Z</time></trkpt>
        <trkpt lat="28.32091" lon="105.056312"><ele>746.7911</ele><time>2026-04-17T21:28:43.000Z</time></trkpt>
        <trkpt lat="28.320962" lon="105.056326"><ele>746.0346</ele><time>2026-04-17T21:28:50.000Z</time></trkpt>
        <trkpt lat="28.320968" lon="105.056378"><ele>745.50525</ele><time>2026-04-17T21:29:05.000Z</time></trkpt>
        <trkpt lat="28.320986" lon="105.056432"><ele>743.9003</ele><time>2026-04-17T21:29:15.000Z</time></trkpt>
        <trkpt lat="28.320932" lon="105.056438"><ele>742.20807</ele><time>2026-04-17T21:29:29.000Z</time></trkpt>
        <trkpt lat="28.320879" lon="105.056456"><ele>741.2601</ele><time>2026-04-17T21:29:37.000Z</time></trkpt>
        <trkpt lat="28.320857" lon="105.056507"><ele>742.02203</ele><time>2026-04-17T21:29:41.000Z</time></trkpt>
        <trkpt lat="28.320841" lon="105.056565"><ele>742.1269</ele><time>2026-04-17T21:29:47.000Z</time></trkpt>
        <trkpt lat="28.320869" lon="105.056606"><ele>742.77106</ele><time>2026-04-17T21:29:53.000Z</time></trkpt>
        <trkpt lat="28.320908" lon="105.056641"><ele>744.5377</ele><time>2026-04-17T21:29:59.000Z</time></trkpt>
        <trkpt lat="28.320955" lon="105.056651"><ele>744.52325</ele><time>2026-04-17T21:30:03.000Z</time></trkpt>
        <trkpt lat="28.321008" lon="105.056649"><ele>745.8604</ele><time>2026-04-17T21:30:06.000Z</time></trkpt>
        <trkpt lat="28.32106" lon="105.056646"><ele>746.5227</ele><time>2026-04-17T21:30:09.000Z</time></trkpt>
        <trkpt lat="28.321107" lon="105.056637"><ele>746.7828</ele><time>2026-04-17T21:30:13.000Z</time></trkpt>
        <trkpt lat="28.321153" lon="105.056609"><ele>746.2978</ele><time>2026-04-17T21:30:16.000Z</time></trkpt>
        <trkpt lat="28.321206" lon="105.056625"><ele>747.6296</ele><time>2026-04-17T21:30:26.000Z</time></trkpt>
        <trkpt lat="28.321251" lon="105.056646"><ele>748.5494</ele><time>2026-04-17T21:30:33.000Z</time></trkpt>
        <trkpt lat="28.321302" lon="105.056654"><ele>749.5763</ele><time>2026-04-17T21:30:42.000Z</time></trkpt>
        <trkpt lat="28.321268" lon="105.056617"><ele>747.5484</ele><time>2026-04-17T21:31:39.000Z</time></trkpt>
        <trkpt lat="28.321337" lon="105.056672"><ele>745.8406</ele><time>2026-04-17T21:32:00.000Z</time></trkpt>
        <trkpt lat="28.321386" lon="105.056673"><ele>746.9883</ele><time>2026-04-17T21:32:05.000Z</time></trkpt>
        <trkpt lat="28.321447" lon="105.056683"><ele>747.8816</ele><time>2026-04-17T21:32:11.000Z</time></trkpt>
        <trkpt lat="28.321494" lon="105.056687"><ele>747.9042</ele><time>2026-04-17T21:32:17.000Z</time></trkpt>
        <trkpt lat="28.321546" lon="105.056681"><ele>745.1505</ele><time>2026-04-17T21:32:23.000Z</time></trkpt>
        <trkpt lat="28.321592" lon="105.056693"><ele>745.19196</ele><time>2026-04-17T21:32:31.000Z</time></trkpt>
        <trkpt lat="28.321639" lon="105.056722"><ele>746.19086</ele><time>2026-04-17T21:32:36.000Z</time></trkpt>
        <trkpt lat="28.321678" lon="105.056755"><ele>746.1117</ele><time>2026-04-17T21:32:41.000Z</time></trkpt>
        <trkpt lat="28.32173" lon="105.056742"><ele>744.2143</ele><time>2026-04-17T21:32:46.000Z</time></trkpt>
        <trkpt lat="28.321787" lon="105.056722"><ele>741.74084</ele><time>2026-04-17T21:32:54.000Z</time></trkpt>
        <trkpt lat="28.321836" lon="105.056722"><ele>740.3737</ele><time>2026-04-17T21:32:58.000Z</time></trkpt>
        <trkpt lat="28.321879" lon="105.056707"><ele>739.66907</ele><time>2026-04-17T21:33:03.000Z</time></trkpt>
        <trkpt lat="28.321925" lon="105.056714"><ele>738.0681</ele><time>2026-04-17T21:33:14.000Z</time></trkpt>
        <trkpt lat="28.321965" lon="105.056746"><ele>737.6935</ele><time>2026-04-17T21:33:22.000Z</time></trkpt>
        <trkpt lat="28.322005" lon="105.056777"><ele>738.07166</ele><time>2026-04-17T21:33:27.000Z</time></trkpt>
        <trkpt lat="28.322043" lon="105.056831"><ele>739.9607</ele><time>2026-04-17T21:33:33.000Z</time></trkpt>
        <trkpt lat="28.322068" lon="105.05688"><ele>741.65125</ele><time>2026-04-17T21:33:40.000Z</time></trkpt>
        <trkpt lat="28.322105" lon="105.056916"><ele>741.7959</ele><time>2026-04-17T21:33:46.000Z</time></trkpt>
        <trkpt lat="28.322141" lon="105.056953"><ele>742.031</ele><time>2026-04-17T21:33:51.000Z</time></trkpt>
        <trkpt lat="28.322202" lon="105.056948"><ele>742.448</ele><time>2026-04-17T21:34:01.000Z</time></trkpt>
        <trkpt lat="28.322253" lon="105.056963"><ele>739.80365</ele><time>2026-04-17T21:34:07.000Z</time></trkpt>
        <trkpt lat="28.322296" lon="105.057004"><ele>739.57117</ele><time>2026-04-17T21:34:12.000Z</time></trkpt>
        <trkpt lat="28.32234" lon="105.057038"><ele>740.3275</ele><time>2026-04-17T21:34:18.000Z</time></trkpt>
        <trkpt lat="28.322379" lon="105.057074"><ele>738.76074</ele><time>2026-04-17T21:34:24.000Z</time></trkpt>
        <trkpt lat="28.322419" lon="105.057103"><ele>735.3095</ele><time>2026-04-17T21:34:32.000Z</time></trkpt>
        <trkpt lat="28.322456" lon="105.057134"><ele>731.8535</ele><time>2026-04-17T21:34:40.000Z</time></trkpt>
        <trkpt lat="28.322496" lon="105.057165"><ele>729.8191</ele><time>2026-04-17T21:34:46.000Z</time></trkpt>
        <trkpt lat="28.322536" lon="105.057191"><ele>729.3118</ele><time>2026-04-17T21:34:53.000Z</time></trkpt>
        <trkpt lat="28.322527" lon="105.057248"><ele>728.0841</ele><time>2026-04-17T21:35:02.000Z</time></trkpt>
        <trkpt lat="28.322562" lon="105.057305"><ele>726.8507</ele><time>2026-04-17T21:35:52.000Z</time></trkpt>
        <trkpt lat="28.322594" lon="105.057349"><ele>727.7737</ele><time>2026-04-17T21:35:56.000Z</time></trkpt>
        <trkpt lat="28.322621" lon="105.057394"><ele>727.9416</ele><time>2026-04-17T21:36:02.000Z</time></trkpt>
        <trkpt lat="28.322655" lon="105.057442"><ele>726.2467</ele><time>2026-04-17T21:36:06.000Z</time></trkpt>
        <trkpt lat="28.322692" lon="105.05748"><ele>727.4521</ele><time>2026-04-17T21:36:10.000Z</time></trkpt>
        <trkpt lat="28.322728" lon="105.057515"><ele>726.9233</ele><time>2026-04-17T21:36:15.000Z</time></trkpt>
        <trkpt lat="28.32275" lon="105.05756"><ele>726.3272</ele><time>2026-04-17T21:36:20.000Z</time></trkpt>
        <trkpt lat="28.3228" lon="105.057577"><ele>725.9582</ele><time>2026-04-17T21:36:24.000Z</time></trkpt>
        <trkpt lat="28.322847" lon="105.057579"><ele>725.3369</ele><time>2026-04-17T21:36:28.000Z</time></trkpt>
        <trkpt lat="28.322892" lon="105.057598"><ele>725.1783</ele><time>2026-04-17T21:36:32.000Z</time></trkpt>
        <trkpt lat="28.322934" lon="105.057622"><ele>724.40137</ele><time>2026-04-17T21:36:37.000Z</time></trkpt>
        <trkpt lat="28.322979" lon="105.057654"><ele>724.51154</ele><time>2026-04-17T21:36:42.000Z</time></trkpt>
        <trkpt lat="28.323026" lon="105.057677"><ele>723.8861</ele><time>2026-04-17T21:36:48.000Z</time></trkpt>
        <trkpt lat="28.323073" lon="105.05772"><ele>724.0195</ele><time>2026-04-17T21:36:53.000Z</time></trkpt>
        <trkpt lat="28.32311" lon="105.057752"><ele>723.1292</ele><time>2026-04-17T21:36:58.000Z</time></trkpt>
        <trkpt lat="28.323139" lon="105.057796"><ele>723.82166</ele><time>2026-04-17T21:37:03.000Z</time></trkpt>
        <trkpt lat="28.323166" lon="105.05785"><ele>725.4071</ele><time>2026-04-17T21:37:08.000Z</time></trkpt>
        <trkpt lat="28.323204" lon="105.057879"><ele>723.9681</ele><time>2026-04-17T21:37:13.000Z</time></trkpt>
        <trkpt lat="28.323222" lon="105.057928"><ele>723.45056</ele><time>2026-04-17T21:37:19.000Z</time></trkpt>
        <trkpt lat="28.323261" lon="105.057955"><ele>722.10144</ele><time>2026-04-17T21:37:34.000Z</time></trkpt>
        <trkpt lat="28.323236" lon="105.058017"><ele>723.2072</ele><time>2026-04-17T21:37:39.000Z</time></trkpt>
        <trkpt lat="28.323225" lon="105.05808"><ele>725.3361</ele><time>2026-04-17T21:37:42.000Z</time></trkpt>
        <trkpt lat="28.323215" lon="105.058134"><ele>727.13965</ele><time>2026-04-17T21:37:46.000Z</time></trkpt>
        <trkpt lat="28.323188" lon="105.05818"><ele>726.1002</ele><time>2026-04-17T21:37:52.000Z</time></trkpt>
        <trkpt lat="28.323163" lon="105.058226"><ele>728.86554</ele><time>2026-04-17T21:37:57.000Z</time></trkpt>
        <trkpt lat="28.323158" lon="105.058276"><ele>726.3518</ele><time>2026-04-17T21:38:04.000Z</time></trkpt>
        <trkpt lat="28.323151" lon="105.058353"><ele>726.7054</ele><time>2026-04-17T21:38:11.000Z</time></trkpt>
        <trkpt lat="28.323121" lon="105.058403"><ele>726.12177</ele><time>2026-04-17T21:38:19.000Z</time></trkpt>
        <trkpt lat="28.323081" lon="105.058451"><ele>727.09143</ele><time>2026-04-17T21:38:24.000Z</time></trkpt>
        <trkpt lat="28.32306" lon="105.058497"><ele>727.79346</ele><time>2026-04-17T21:38:29.000Z</time></trkpt>
        <trkpt lat="28.323042" lon="105.058555"><ele>728.37164</ele><time>2026-04-17T21:38:34.000Z</time></trkpt>
        <trkpt lat="28.32303" lon="105.058617"><ele>731.14197</ele><time>2026-04-17T21:38:37.000Z</time></trkpt>
        <trkpt lat="28.32301" lon="105.058667"><ele>731.82825</ele><time>2026-04-17T21:38:43.000Z</time></trkpt>
        <trkpt lat="28.322986" lon="105.058721"><ele>732.24036</ele><time>2026-04-17T21:38:49.000Z</time></trkpt>
        <trkpt lat="28.322968" lon="105.058772"><ele>732.5707</ele><time>2026-04-17T21:38:55.000Z</time></trkpt>
        <trkpt lat="28.322933" lon="105.058817"><ele>730.8965</ele><time>2026-04-17T21:39:01.000Z</time></trkpt>
        <trkpt lat="28.322891" lon="105.058857"><ele>730.7559</ele><time>2026-04-17T21:39:06.000Z</time></trkpt>
        <trkpt lat="28.322866" lon="105.058902"><ele>731.2083</ele><time>2026-04-17T21:39:10.000Z</time></trkpt>
        <trkpt lat="28.322818" lon="105.058927"><ele>729.14264</ele><time>2026-04-17T21:39:15.000Z</time></trkpt>
        <trkpt lat="28.322785" lon="105.058968"><ele>730.5886</ele><time>2026-04-17T21:39:20.000Z</time></trkpt>
        <trkpt lat="28.32276" lon="105.059011"><ele>730.83466</ele><time>2026-04-17T21:39:24.000Z</time></trkpt>
        <trkpt lat="28.32273" lon="105.059054"><ele>731.1622</ele><time>2026-04-17T21:39:28.000Z</time></trkpt>
        <trkpt lat="28.322694" lon="105.059097"><ele>731.77686</ele><time>2026-04-17T21:39:32.000Z</time></trkpt>
        <trkpt lat="28.322653" lon="105.059121"><ele>730.7323</ele><time>2026-04-17T21:39:38.000Z</time></trkpt>
        <trkpt lat="28.32262" lon="105.059162"><ele>732.0012</ele><time>2026-04-17T21:39:42.000Z</time></trkpt>
        <trkpt lat="28.322586" lon="105.059204"><ele>731.42114</ele><time>2026-04-17T21:39:47.000Z</time></trkpt>
        <trkpt lat="28.32254" lon="105.059227"><ele>733.39655</ele><time>2026-04-17T21:39:51.000Z</time></trkpt>
        <trkpt lat="28.322488" lon="105.059277"><ele>734.4861</ele><time>2026-04-17T21:39:55.000Z</time></trkpt>
        <trkpt lat="28.32244" lon="105.059293"><ele>734.4586</ele><time>2026-04-17T21:40:02.000Z</time></trkpt>
        <trkpt lat="28.322386" lon="105.059305"><ele>733.82184</ele><time>2026-04-17T21:40:07.000Z</time></trkpt>
        <trkpt lat="28.322344" lon="105.059332"><ele>734.49713</ele><time>2026-04-17T21:40:11.000Z</time></trkpt>
        <trkpt lat="28.322303" lon="105.059363"><ele>734.4207</ele><time>2026-04-17T21:40:16.000Z</time></trkpt>
        <trkpt lat="28.32226" lon="105.059399"><ele>735.57214</ele><time>2026-04-17T21:40:20.000Z</time></trkpt>
        <trkpt lat="28.322219" lon="105.059423"><ele>736.3302</ele><time>2026-04-17T21:40:27.000Z</time></trkpt>
        <trkpt lat="28.322183" lon="105.059461"><ele>737.65533</ele><time>2026-04-17T21:40:34.000Z</time></trkpt>
        <trkpt lat="28.322143" lon="105.059503"><ele>737.2639</ele><time>2026-04-17T21:40:40.000Z</time></trkpt>
        <trkpt lat="28.322099" lon="105.059532"><ele>737.4841</ele><time>2026-04-17T21:40:46.000Z</time></trkpt>
        <trkpt lat="28.322065" lon="105.059569"><ele>738.9173</ele><time>2026-04-17T21:40:50.000Z</time></trkpt>
        <trkpt lat="28.322042" lon="105.059615"><ele>741.2268</ele><time>2026-04-17T21:40:55.000Z</time></trkpt>
        <trkpt lat="28.322003" lon="105.059666"><ele>743.0503</ele><time>2026-04-17T21:40:59.000Z</time></trkpt>
        <trkpt lat="28.321963" lon="105.059698"><ele>742.4963</ele><time>2026-04-17T21:41:05.000Z</time></trkpt>
        <trkpt lat="28.321929" lon="105.059733"><ele>743.70215</ele><time>2026-04-17T21:41:09.000Z</time></trkpt>
        <trkpt lat="28.321884" lon="105.059735"><ele>744.7662</ele><time>2026-04-17T21:41:14.000Z</time></trkpt>
        <trkpt lat="28.321851" lon="105.059787"><ele>746.92725</ele><time>2026-04-17T21:41:19.000Z</time></trkpt>
        <trkpt lat="28.321808" lon="105.059818"><ele>747.2212</ele><time>2026-04-17T21:41:25.000Z</time></trkpt>
        <trkpt lat="28.321763" lon="105.059809"><ele>747.9454</ele><time>2026-04-17T21:41:34.000Z</time></trkpt>
        <trkpt lat="28.321728" lon="105.059847"><ele>746.82086</ele><time>2026-04-17T21:41:48.000Z</time></trkpt>
        <trkpt lat="28.321701" lon="105.059889"><ele>747.52386</ele><time>2026-04-17T21:41:52.000Z</time></trkpt>
        <trkpt lat="28.321674" lon="105.05993"><ele>749.91516</ele><time>2026-04-17T21:41:54.000Z</time></trkpt>
        <trkpt lat="28.321636" lon="105.059981"><ele>750.5686</ele><time>2026-04-17T21:41:58.000Z</time></trkpt>
        <trkpt lat="28.321617" lon="105.060031"><ele>751.05145</ele><time>2026-04-17T21:42:03.000Z</time></trkpt>
        <trkpt lat="28.321613" lon="105.060085"><ele>749.9792</ele><time>2026-04-17T21:42:08.000Z</time></trkpt>
        <trkpt lat="28.321604" lon="105.060143"><ele>747.6495</ele><time>2026-04-17T21:42:14.000Z</time></trkpt>
        <trkpt lat="28.321605" lon="105.060198"><ele>746.414</ele><time>2026-04-17T21:42:19.000Z</time></trkpt>
        <trkpt lat="28.321596" lon="105.060253"><ele>746.26904</ele><time>2026-04-17T21:42:23.000Z</time></trkpt>
        <trkpt lat="28.32159" lon="105.060319"><ele>745.76483</ele><time>2026-04-17T21:42:28.000Z</time></trkpt>
        <trkpt lat="28.32159" lon="105.060377"><ele>744.4662</ele><time>2026-04-17T21:42:34.000Z</time></trkpt>
        <trkpt lat="28.321591" lon="105.06043"><ele>744.83966</ele><time>2026-04-17T21:42:38.000Z</time></trkpt>
        <trkpt lat="28.321589" lon="105.060496"><ele>744.6064</ele><time>2026-04-17T21:42:44.000Z</time></trkpt>
        <trkpt lat="28.321587" lon="105.060549"><ele>745.5803</ele><time>2026-04-17T21:42:48.000Z</time></trkpt>
        <trkpt lat="28.321578" lon="105.060604"><ele>745.83093</ele><time>2026-04-17T21:42:52.000Z</time></trkpt>
        <trkpt lat="28.321545" lon="105.060646"><ele>745.1565</ele><time>2026-04-17T21:42:56.000Z</time></trkpt>
        <trkpt lat="28.321505" lon="105.060685"><ele>744.8883</ele><time>2026-04-17T21:43:00.000Z</time></trkpt>
        <trkpt lat="28.321461" lon="105.060713"><ele>743.12665</ele><time>2026-04-17T21:43:06.000Z</time></trkpt>
        <trkpt lat="28.321419" lon="105.060738"><ele>742.4426</ele><time>2026-04-17T21:43:11.000Z</time></trkpt>
        <trkpt lat="28.321369" lon="105.06075"><ele>743.7832</ele><time>2026-04-17T21:43:16.000Z</time></trkpt>
        <trkpt lat="28.321335" lon="105.060789"><ele>744.3393</ele><time>2026-04-17T21:43:21.000Z</time></trkpt>
        <trkpt lat="28.321293" lon="105.060818"><ele>744.25415</ele><time>2026-04-17T21:43:37.000Z</time></trkpt>
        <trkpt lat="28.321246" lon="105.060839"><ele>744.51776</ele><time>2026-04-17T21:43:44.000Z</time></trkpt>
        <trkpt lat="28.321212" lon="105.06088"><ele>744.8757</ele><time>2026-04-17T21:43:49.000Z</time></trkpt>
        <trkpt lat="28.321172" lon="105.060919"><ele>744.3746</ele><time>2026-04-17T21:43:55.000Z</time></trkpt>
        <trkpt lat="28.321128" lon="105.06095"><ele>745.0182</ele><time>2026-04-17T21:44:00.000Z</time></trkpt>
        <trkpt lat="28.321083" lon="105.060988"><ele>745.9523</ele><time>2026-04-17T21:44:06.000Z</time></trkpt>
        <trkpt lat="28.321044" lon="105.061022"><ele>746.7701</ele><time>2026-04-17T21:44:10.000Z</time></trkpt>
        <trkpt lat="28.321004" lon="105.061051"><ele>747.1337</ele><time>2026-04-17T21:44:15.000Z</time></trkpt>
        <trkpt lat="28.320962" lon="105.061073"><ele>748.6394</ele><time>2026-04-17T21:44:22.000Z</time></trkpt>
        <trkpt lat="28.320915" lon="105.061093"><ele>747.619</ele><time>2026-04-17T21:44:28.000Z</time></trkpt>
        <trkpt lat="28.32087" lon="105.061103"><ele>746.9739</ele><time>2026-04-17T21:44:33.000Z</time></trkpt>
        <trkpt lat="28.320831" lon="105.061131"><ele>747.9394</ele><time>2026-04-17T21:44:38.000Z</time></trkpt>
        <trkpt lat="28.320784" lon="105.061163"><ele>748.543</ele><time>2026-04-17T21:44:42.000Z</time></trkpt>
        <trkpt lat="28.320735" lon="105.06118"><ele>748.5604</ele><time>2026-04-17T21:44:48.000Z</time></trkpt>
        <trkpt lat="28.320687" lon="105.061201"><ele>749.4011</ele><time>2026-04-17T21:44:53.000Z</time></trkpt>
        <trkpt lat="28.320642" lon="105.061215"><ele>748.8176</ele><time>2026-04-17T21:44:59.000Z</time></trkpt>
        <trkpt lat="28.320586" lon="105.061226"><ele>748.8901</ele><time>2026-04-17T21:45:05.000Z</time></trkpt>
        <trkpt lat="28.320539" lon="105.061237"><ele>747.80975</ele><time>2026-04-17T21:45:11.000Z</time></trkpt>
        <trkpt lat="28.320499" lon="105.061265"><ele>748.7935</ele><time>2026-04-17T21:45:17.000Z</time></trkpt>
        <trkpt lat="28.320457" lon="105.061308"><ele>750.08295</ele><time>2026-04-17T21:45:22.000Z</time></trkpt>
        <trkpt lat="28.3204" lon="105.061322"><ele>749.2816</ele><time>2026-04-17T21:45:29.000Z</time></trkpt>
        <trkpt lat="28.320341" lon="105.061332"><ele>749.5765</ele><time>2026-04-17T21:45:35.000Z</time></trkpt>
        <trkpt lat="28.320305" lon="105.061375"><ele>748.1514</ele><time>2026-04-17T21:45:41.000Z</time></trkpt>
        <trkpt lat="28.320258" lon="105.061399"><ele>749.7008</ele><time>2026-04-17T21:45:45.000Z</time></trkpt>
        <trkpt lat="28.32022" lon="105.061431"><ele>751.4672</ele><time>2026-04-17T21:45:49.000Z</time></trkpt>
        <trkpt lat="28.320191" lon="105.061485"><ele>754.136</ele><time>2026-04-17T21:45:55.000Z</time></trkpt>
        <trkpt lat="28.320191" lon="105.06154"><ele>755.32947</ele><time>2026-04-17T21:45:59.000Z</time></trkpt>
        <trkpt lat="28.320211" lon="105.061593"><ele>756.0187</ele><time>2026-04-17T21:46:05.000Z</time></trkpt>
        <trkpt lat="28.320215" lon="105.061651"><ele>757.26483</ele><time>2026-04-17T21:46:10.000Z</time></trkpt>
        <trkpt lat="28.320209" lon="105.061704"><ele>758.8718</ele><time>2026-04-17T21:46:15.000Z</time></trkpt>
        <trkpt lat="28.320208" lon="105.061765"><ele>757.6106</ele><time>2026-04-17T21:46:22.000Z</time></trkpt>
        <trkpt lat="28.320235" lon="105.061808"><ele>756.07104</ele><time>2026-04-17T21:46:27.000Z</time></trkpt>
        <trkpt lat="28.320259" lon="105.061854"><ele>756.16034</ele><time>2026-04-17T21:46:32.000Z</time></trkpt>
        <trkpt lat="28.320294" lon="105.061906"><ele>756.48956</ele><time>2026-04-17T21:46:37.000Z</time></trkpt>
        <trkpt lat="28.320341" lon="105.061949"><ele>756.4721</ele><time>2026-04-17T21:46:43.000Z</time></trkpt>
        <trkpt lat="28.320391" lon="105.061974"><ele>755.2586</ele><time>2026-04-17T21:46:49.000Z</time></trkpt>
        <trkpt lat="28.320429" lon="105.061934"><ele>754.73535</ele><time>2026-04-17T21:46:54.000Z</time></trkpt>
        <trkpt lat="28.320459" lon="105.061881"><ele>754.6445</ele><time>2026-04-17T21:46:58.000Z</time></trkpt>
        <trkpt lat="28.320513" lon="105.061887"><ele>753.5111</ele><time>2026-04-17T21:47:06.000Z</time></trkpt>
        <trkpt lat="28.320547" lon="105.06185"><ele>752.8412</ele><time>2026-04-17T21:47:14.000Z</time></trkpt>
        <trkpt lat="28.320573" lon="105.061893"><ele>755.3567</ele><time>2026-04-17T21:47:36.000Z</time></trkpt>
        <trkpt lat="28.320613" lon="105.061932"><ele>754.4243</ele><time>2026-04-17T21:47:45.000Z</time></trkpt>
        <trkpt lat="28.320656" lon="105.061953"><ele>752.5277</ele><time>2026-04-17T21:47:58.000Z</time></trkpt>
        <trkpt lat="28.320679" lon="105.061899"><ele>754.04034</ele><time>2026-04-17T21:48:14.000Z</time></trkpt>
        <trkpt lat="28.320707" lon="105.061944"><ele>752.08734</ele><time>2026-04-17T21:48:53.000Z</time></trkpt>
        <trkpt lat="28.32075" lon="105.06198"><ele>751.0258</ele><time>2026-04-17T21:49:03.000Z</time></trkpt>
        <trkpt lat="28.320797" lon="105.061981"><ele>751.96625</ele><time>2026-04-17T21:49:09.000Z</time></trkpt>
        <trkpt lat="28.320842" lon="105.062001"><ele>751.1371</ele><time>2026-04-17T21:49:18.000Z</time></trkpt>
        <trkpt lat="28.320896" lon="105.062008"><ele>749.6257</ele><time>2026-04-17T21:49:28.000Z</time></trkpt>
        <trkpt lat="28.32095" lon="105.062018"><ele>750.0469</ele><time>2026-04-17T21:49:32.000Z</time></trkpt>
        <trkpt lat="28.320999" lon="105.062023"><ele>747.3225</ele><time>2026-04-17T21:49:38.000Z</time></trkpt>
        <trkpt lat="28.321051" lon="105.062026"><ele>745.0007</ele><time>2026-04-17T21:49:42.000Z</time></trkpt>
        <trkpt lat="28.321099" lon="105.062033"><ele>743.72015</ele><time>2026-04-17T21:49:48.000Z</time></trkpt>
        <trkpt lat="28.32115" lon="105.062047"><ele>741.8724</ele><time>2026-04-17T21:49:52.000Z</time></trkpt>
        <trkpt lat="28.321203" lon="105.062063"><ele>740.2114</ele><time>2026-04-17T21:50:00.000Z</time></trkpt>
        <trkpt lat="28.321264" lon="105.062063"><ele>739.35736</ele><time>2026-04-17T21:50:04.000Z</time></trkpt>
        <trkpt lat="28.321303" lon="105.062099"><ele>738.674</ele><time>2026-04-17T21:50:08.000Z</time></trkpt>
        <trkpt lat="28.321348" lon="105.062104"><ele>738.3771</ele><time>2026-04-17T21:50:12.000Z</time></trkpt>
        <trkpt lat="28.321393" lon="105.0621"><ele>736.1759</ele><time>2026-04-17T21:50:20.000Z</time></trkpt>
        <trkpt lat="28.32144" lon="105.062086"><ele>735.70844</ele><time>2026-04-17T21:50:26.000Z</time></trkpt>
        <trkpt lat="28.321484" lon="105.062061"><ele>734.04205</ele><time>2026-04-17T21:50:34.000Z</time></trkpt>
        <trkpt lat="28.32153" lon="105.062043"><ele>734.40063</ele><time>2026-04-17T21:50:38.000Z</time></trkpt>
        <trkpt lat="28.321517" lon="105.062108"><ele>731.78265</ele><time>2026-04-17T21:50:50.000Z</time></trkpt>
        <trkpt lat="28.321539" lon="105.062168"><ele>731.487</ele><time>2026-04-17T21:50:55.000Z</time></trkpt>
        <trkpt lat="28.321569" lon="105.062211"><ele>730.7849</ele><time>2026-04-17T21:51:00.000Z</time></trkpt>
        <trkpt lat="28.321613" lon="105.062228"><ele>726.814</ele><time>2026-04-17T21:51:12.000Z</time></trkpt>
        <trkpt lat="28.32166" lon="105.062236"><ele>725.689</ele><time>2026-04-17T21:51:18.000Z</time></trkpt>
        <trkpt lat="28.321701" lon="105.062266"><ele>724.59955</ele><time>2026-04-17T21:51:27.000Z</time></trkpt>
        <trkpt lat="28.321747" lon="105.062258"><ele>722.483</ele><time>2026-04-17T21:51:40.000Z</time></trkpt>
        <trkpt lat="28.321762" lon="105.062313"><ele>721.01843</ele><time>2026-04-17T21:51:50.000Z</time></trkpt>
        <trkpt lat="28.321715" lon="105.062326"><ele>723.9785</ele><time>2026-04-17T21:51:59.000Z</time></trkpt>
        <trkpt lat="28.32171" lon="105.062265"><ele>721.92786</ele><time>2026-04-17T21:52:12.000Z</time></trkpt>
        <trkpt lat="28.321696" lon="105.062203"><ele>722.5142</ele><time>2026-04-17T21:52:17.000Z</time></trkpt>
        <trkpt lat="28.32171" lon="105.062135"><ele>722.6805</ele><time>2026-04-17T21:52:22.000Z</time></trkpt>
        <trkpt lat="28.321729" lon="105.062088"><ele>725.2628</ele><time>2026-04-17T21:52:28.000Z</time></trkpt>
        <trkpt lat="28.321766" lon="105.062121"><ele>723.12646</ele><time>2026-04-17T21:52:51.000Z</time></trkpt>
        <trkpt lat="28.321739" lon="105.062061"><ele>725.08746</ele><time>2026-04-17T21:53:23.000Z</time></trkpt>
        <trkpt lat="28.321785" lon="105.062076"><ele>723.5335</ele><time>2026-04-17T21:54:43.000Z</time></trkpt>
        <trkpt lat="28.321752" lon="105.062132"><ele>724.24866</ele><time>2026-04-17T21:58:00.000Z</time></trkpt>
        <trkpt lat="28.321773" lon="105.062071"><ele>724.6027</ele><time>2026-04-17T21:58:13.000Z</time></trkpt>
        <trkpt lat="28.321821" lon="105.062057"><ele>723.8703</ele><time>2026-04-17T21:58:17.000Z</time></trkpt>
        <trkpt lat="28.321864" lon="105.062085"><ele>723.05914</ele><time>2026-04-17T21:58:23.000Z</time></trkpt>
        <trkpt lat="28.321916" lon="105.062057"><ele>722.35266</ele><time>2026-04-17T21:58:29.000Z</time></trkpt>
        <trkpt lat="28.321957" lon="105.062036"><ele>722.29224</ele><time>2026-04-17T21:58:32.000Z</time></trkpt>
        <trkpt lat="28.32202" lon="105.062032"><ele>719.2347</ele><time>2026-04-17T21:58:40.000Z</time></trkpt>
        <trkpt lat="28.322067" lon="105.062008"><ele>720.4348</ele><time>2026-04-17T21:58:43.000Z</time></trkpt>
        <trkpt lat="28.322063" lon="105.06206"><ele>718.23566</ele><time>2026-04-17T21:58:56.000Z</time></trkpt>
        <trkpt lat="28.32202" lon="105.062102"><ele>717.02094</ele><time>2026-04-17T21:59:03.000Z</time></trkpt>
        <trkpt lat="28.322007" lon="105.062157"><ele>717.9807</ele><time>2026-04-17T21:59:08.000Z</time></trkpt>
        <trkpt lat="28.32201" lon="105.062238"><ele>718.7975</ele><time>2026-04-17T21:59:15.000Z</time></trkpt>
        <trkpt lat="28.322033" lon="105.06219"><ele>715.9201</ele><time>2026-04-17T21:59:19.000Z</time></trkpt>
        <trkpt lat="28.322078" lon="105.062182"><ele>716.15137</ele><time>2026-04-17T21:59:23.000Z</time></trkpt>
        <trkpt lat="28.322128" lon="105.062168"><ele>716.07544</ele><time>2026-04-17T21:59:27.000Z</time></trkpt>
        <trkpt lat="28.322173" lon="105.062141"><ele>715.2617</ele><time>2026-04-17T21:59:32.000Z</time></trkpt>
        <trkpt lat="28.322217" lon="105.062123"><ele>713.1808</ele><time>2026-04-17T21:59:36.000Z</time></trkpt>
        <trkpt lat="28.322248" lon="105.062162"><ele>714.6082</ele><time>2026-04-17T21:59:40.000Z</time></trkpt>
        <trkpt lat="28.322292" lon="105.06215"><ele>713.931</ele><time>2026-04-17T21:59:45.000Z</time></trkpt>
        <trkpt lat="28.322319" lon="105.062091"><ele>713.6962</ele><time>2026-04-17T21:59:51.000Z</time></trkpt>
        <trkpt lat="28.322305" lon="105.062043"><ele>713.90735</ele><time>2026-04-17T21:59:53.000Z</time></trkpt>
        <trkpt lat="28.322322" lon="105.061993"><ele>713.5001</ele><time>2026-04-17T21:59:58.000Z</time></trkpt>
        <trkpt lat="28.32237" lon="105.061973"><ele>711.39966</ele><time>2026-04-17T22:00:06.000Z</time></trkpt>
        <trkpt lat="28.322415" lon="105.061956"><ele>711.3382</ele><time>2026-04-17T22:00:11.000Z</time></trkpt>
        <trkpt lat="28.322421" lon="105.061895"><ele>710.1847</ele><time>2026-04-17T22:00:21.000Z</time></trkpt>
        <trkpt lat="28.322471" lon="105.061898"><ele>708.4885</ele><time>2026-04-17T22:00:28.000Z</time></trkpt>
        <trkpt lat="28.322513" lon="105.061871"><ele>707.4811</ele><time>2026-04-17T22:00:37.000Z</time></trkpt>
        <trkpt lat="28.322549" lon="105.061828"><ele>706.84625</ele><time>2026-04-17T22:00:43.000Z</time></trkpt>
        <trkpt lat="28.322575" lon="105.061786"><ele>706.94525</ele><time>2026-04-17T22:00:47.000Z</time></trkpt>
        <trkpt lat="28.322597" lon="105.061735"><ele>706.6002</ele><time>2026-04-17T22:00:51.000Z</time></trkpt>
        <trkpt lat="28.322635" lon="105.061704"><ele>705.9778</ele><time>2026-04-17T22:00:59.000Z</time></trkpt>
        <trkpt lat="28.322671" lon="105.061669"><ele>703.72644</ele><time>2026-04-17T22:01:08.000Z</time></trkpt>
        <trkpt lat="28.322728" lon="105.061651"><ele>700.1572</ele><time>2026-04-17T22:01:17.000Z</time></trkpt>
        <trkpt lat="28.322774" lon="105.061629"><ele>701.602</ele><time>2026-04-17T22:01:23.000Z</time></trkpt>
        <trkpt lat="28.322751" lon="105.061687"><ele>698.2218</ele><time>2026-04-17T22:01:41.000Z</time></trkpt>
        <trkpt lat="28.322701" lon="105.061726"><ele>698.8824</ele><time>2026-04-17T22:01:47.000Z</time></trkpt>
        <trkpt lat="28.32265" lon="105.061754"><ele>698.43286</ele><time>2026-04-17T22:01:52.000Z</time></trkpt>
        <trkpt lat="28.322639" lon="105.061804"><ele>700.0931</ele><time>2026-04-17T22:02:05.000Z</time></trkpt>
        <trkpt lat="28.322647" lon="105.061875"><ele>702.14465</ele><time>2026-04-17T22:02:10.000Z</time></trkpt>
        <trkpt lat="28.322695" lon="105.061879"><ele>700.9522</ele><time>2026-04-17T22:02:13.000Z</time></trkpt>
        <trkpt lat="28.322739" lon="105.061852"><ele>701.8742</ele><time>2026-04-17T22:02:51.000Z</time></trkpt>
        <trkpt lat="28.322709" lon="105.061801"><ele>701.1767</ele><time>2026-04-17T22:02:58.000Z</time></trkpt>
        <trkpt lat="28.322693" lon="105.061853"><ele>701.57855</ele><time>2026-04-17T22:03:03.000Z</time></trkpt>
        <trkpt lat="28.322728" lon="105.061885"><ele>707.8768</ele><time>2026-04-17T22:04:11.000Z</time></trkpt>
        <trkpt lat="28.322684" lon="105.061857"><ele>709.5493</ele><time>2026-04-17T22:04:47.000Z</time></trkpt>
        <trkpt lat="28.322642" lon="105.061837"><ele>715.5008</ele><time>2026-04-17T22:05:06.000Z</time></trkpt>
        <trkpt lat="28.322676" lon="105.061883"><ele>707.55383</ele><time>2026-04-17T22:06:31.000Z</time></trkpt>
        <trkpt lat="28.322654" lon="105.061832"><ele>708.0863</ele><time>2026-04-17T22:07:12.000Z</time></trkpt>
        <trkpt lat="28.322673" lon="105.061782"><ele>703.25464</ele><time>2026-04-17T22:09:55.000Z</time></trkpt>
        <trkpt lat="28.322636" lon="105.061814"><ele>701.63745</ele><time>2026-04-17T22:10:43.000Z</time></trkpt>
        <trkpt lat="28.322622" lon="105.06188"><ele>701.68536</ele><time>2026-04-17T22:10:48.000Z</time></trkpt>
        <trkpt lat="28.322581" lon="105.061844"><ele>707.3738</ele><time>2026-04-17T22:11:05.000Z</time></trkpt>
        <trkpt lat="28.322593" lon="105.061787"><ele>706.17474</ele><time>2026-04-17T22:11:09.000Z</time></trkpt>
        <trkpt lat="28.322669" lon="105.061803"><ele>705.3835</ele><time>2026-04-17T22:11:12.000Z</time></trkpt>
        <trkpt lat="28.322712" lon="105.061828"><ele>704.388</ele><time>2026-04-17T22:11:16.000Z</time></trkpt>
        <trkpt lat="28.322676" lon="105.061887"><ele>702.5706</ele><time>2026-04-17T22:11:42.000Z</time></trkpt>
        <trkpt lat="28.322727" lon="105.061855"><ele>696.2895</ele><time>2026-04-17T22:12:04.000Z</time></trkpt>
        <trkpt lat="28.3227" lon="105.061799"><ele>697.6763</ele><time>2026-04-17T22:12:16.000Z</time></trkpt>
        <trkpt lat="28.322646" lon="105.061794"><ele>697.45667</ele><time>2026-04-17T22:12:32.000Z</time></trkpt>
        <trkpt lat="28.3226" lon="105.061796"><ele>698.789</ele><time>2026-04-17T22:12:41.000Z</time></trkpt>
        <trkpt lat="28.322569" lon="105.061725"><ele>700.559</ele><time>2026-04-17T22:12:45.000Z</time></trkpt>
        <trkpt lat="28.322615" lon="105.061745"><ele>699.87695</ele><time>2026-04-17T22:12:47.000Z</time></trkpt>
        <trkpt lat="28.322661" lon="105.061762"><ele>701.39453</ele><time>2026-04-17T22:12:50.000Z</time></trkpt>
        <trkpt lat="28.322679" lon="105.061713"><ele>702.5687</ele><time>2026-04-17T22:13:00.000Z</time></trkpt>
        <trkpt lat="28.322728" lon="105.061703"><ele>704.04</ele><time>2026-04-17T22:13:05.000Z</time></trkpt>
        <trkpt lat="28.322769" lon="105.061673"><ele>700.6778</ele><time>2026-04-17T22:13:14.000Z</time></trkpt>
        <trkpt lat="28.322803" lon="105.061638"><ele>700.6694</ele><time>2026-04-17T22:13:30.000Z</time></trkpt>
        <trkpt lat="28.322849" lon="105.061621"><ele>698.69775</ele><time>2026-04-17T22:13:39.000Z</time></trkpt>
        <trkpt lat="28.32289" lon="105.061593"><ele>698.4059</ele><time>2026-04-17T22:13:42.000Z</time></trkpt>
        <trkpt lat="28.322941" lon="105.061568"><ele>697.3121</ele><time>2026-04-17T22:13:47.000Z</time></trkpt>
        <trkpt lat="28.322992" lon="105.061565"><ele>695.3131</ele><time>2026-04-17T22:13:53.000Z</time></trkpt>
        <trkpt lat="28.323028" lon="105.061534"><ele>696.0161</ele><time>2026-04-17T22:13:57.000Z</time></trkpt>
        <trkpt lat="28.323072" lon="105.061506"><ele>694.1042</ele><time>2026-04-17T22:14:04.000Z</time></trkpt>
        <trkpt lat="28.323107" lon="105.061468"><ele>693.6865</ele><time>2026-04-17T22:14:10.000Z</time></trkpt>
        <trkpt lat="28.323117" lon="105.061414"><ele>692.03864</ele><time>2026-04-17T22:14:14.000Z</time></trkpt>
        <trkpt lat="28.323149" lon="105.061365"><ele>694.323</ele><time>2026-04-17T22:14:18.000Z</time></trkpt>
        <trkpt lat="28.323184" lon="105.061399"><ele>692.42883</ele><time>2026-04-17T22:14:23.000Z</time></trkpt>
        <trkpt lat="28.323235" lon="105.061388"><ele>694.1344</ele><time>2026-04-17T22:14:29.000Z</time></trkpt>
        <trkpt lat="28.32328" lon="105.061417"><ele>691.7702</ele><time>2026-04-17T22:14:35.000Z</time></trkpt>
        <trkpt lat="28.323316" lon="105.061449"><ele>692.1953</ele><time>2026-04-17T22:14:39.000Z</time></trkpt>
        <trkpt lat="28.323368" lon="105.061452"><ele>691.734</ele><time>2026-04-17T22:14:46.000Z</time></trkpt>
        <trkpt lat="28.323409" lon="105.061421"><ele>690.8451</ele><time>2026-04-17T22:14:50.000Z</time></trkpt>
        <trkpt lat="28.323461" lon="105.061412"><ele>693.0443</ele><time>2026-04-17T22:14:55.000Z</time></trkpt>
        <trkpt lat="28.323512" lon="105.061434"><ele>694.57227</ele><time>2026-04-17T22:14:59.000Z</time></trkpt>
        <trkpt lat="28.32355" lon="105.061476"><ele>692.7395</ele><time>2026-04-17T22:15:04.000Z</time></trkpt>
        <trkpt lat="28.32359" lon="105.061505"><ele>688.2707</ele><time>2026-04-17T22:15:12.000Z</time></trkpt>
        <trkpt lat="28.323629" lon="105.061458"><ele>689.09717</ele><time>2026-04-17T22:15:17.000Z</time></trkpt>
        <trkpt lat="28.323681" lon="105.061447"><ele>687.86255</ele><time>2026-04-17T22:15:22.000Z</time></trkpt>
        <trkpt lat="28.323734" lon="105.061447"><ele>688.92957</ele><time>2026-04-17T22:15:26.000Z</time></trkpt>
        <trkpt lat="28.323778" lon="105.061474"><ele>687.0737</ele><time>2026-04-17T22:15:31.000Z</time></trkpt>
        <trkpt lat="28.323799" lon="105.06142"><ele>686.72406</ele><time>2026-04-17T22:15:38.000Z</time></trkpt>
        <trkpt lat="28.323826" lon="105.061362"><ele>687.6727</ele><time>2026-04-17T22:15:44.000Z</time></trkpt>
        <trkpt lat="28.323874" lon="105.061349"><ele>687.9028</ele><time>2026-04-17T22:15:49.000Z</time></trkpt>
        <trkpt lat="28.323925" lon="105.061351"><ele>688.87445</ele><time>2026-04-17T22:15:53.000Z</time></trkpt>
        <trkpt lat="28.323969" lon="105.061361"><ele>689.0679</ele><time>2026-04-17T22:15:59.000Z</time></trkpt>
        <trkpt lat="28.324013" lon="105.061379"><ele>689.0349</ele><time>2026-04-17T22:16:03.000Z</time></trkpt>
        <trkpt lat="28.324059" lon="105.061377"><ele>687.88696</ele><time>2026-04-17T22:16:07.000Z</time></trkpt>
        <trkpt lat="28.324109" lon="105.061359"><ele>689.3782</ele><time>2026-04-17T22:16:12.000Z</time></trkpt>
        <trkpt lat="28.324162" lon="105.061345"><ele>688.2921</ele><time>2026-04-17T22:16:17.000Z</time></trkpt>
        <trkpt lat="28.324211" lon="105.061368"><ele>687.84784</ele><time>2026-04-17T22:16:26.000Z</time></trkpt>
        <trkpt lat="28.324251" lon="105.061396"><ele>686.77826</ele><time>2026-04-17T22:16:33.000Z</time></trkpt>
        <trkpt lat="28.324242" lon="105.061332"><ele>686.22943</ele><time>2026-04-17T22:16:45.000Z</time></trkpt>
        <trkpt lat="28.32424" lon="105.061275"><ele>688.39386</ele><time>2026-04-17T22:16:52.000Z</time></trkpt>
        <trkpt lat="28.324271" lon="105.061313"><ele>687.9003</ele><time>2026-04-17T22:17:04.000Z</time></trkpt>
        <trkpt lat="28.324264" lon="105.061367"><ele>685.72815</ele><time>2026-04-17T22:17:16.000Z</time></trkpt>
        <trkpt lat="28.324289" lon="105.06141"><ele>684.92487</ele><time>2026-04-17T22:17:25.000Z</time></trkpt>
        <trkpt lat="28.324318" lon="105.061456"><ele>684.3192</ele><time>2026-04-17T22:17:34.000Z</time></trkpt>
        <trkpt lat="28.324314" lon="105.061515"><ele>682.419</ele><time>2026-04-17T22:18:04.000Z</time></trkpt>
        <trkpt lat="28.324357" lon="105.061535"><ele>679.6208</ele><time>2026-04-17T22:18:19.000Z</time></trkpt>
        <trkpt lat="28.324319" lon="105.06157"><ele>682.3329</ele><time>2026-04-17T22:18:36.000Z</time></trkpt>
        <trkpt lat="28.324312" lon="105.061627"><ele>686.09625</ele><time>2026-04-17T22:18:51.000Z</time></trkpt>
        <trkpt lat="28.324298" lon="105.061677"><ele>684.89545</ele><time>2026-04-17T22:18:56.000Z</time></trkpt>
        <trkpt lat="28.324343" lon="105.061643"><ele>684.85236</ele><time>2026-04-17T22:19:13.000Z</time></trkpt>
        <trkpt lat="28.324383" lon="105.061619"><ele>683.85913</ele><time>2026-04-17T22:19:18.000Z</time></trkpt>
        <trkpt lat="28.324382" lon="105.061562"><ele>682.0056</ele><time>2026-04-17T22:19:25.000Z</time></trkpt>
        <trkpt lat="28.324412" lon="105.061511"><ele>682.1171</ele><time>2026-04-17T22:19:28.000Z</time></trkpt>
        <trkpt lat="28.324455" lon="105.061532"><ele>680.98</ele><time>2026-04-17T22:19:34.000Z</time></trkpt>
        <trkpt lat="28.324512" lon="105.061531"><ele>681.28656</ele><time>2026-04-17T22:19:42.000Z</time></trkpt>
        <trkpt lat="28.324544" lon="105.061482"><ele>680.5833</ele><time>2026-04-17T22:19:51.000Z</time></trkpt>
        <trkpt lat="28.32458" lon="105.061443"><ele>679.50336</ele><time>2026-04-17T22:19:59.000Z</time></trkpt>
        <trkpt lat="28.324621" lon="105.061413"><ele>677.1388</ele><time>2026-04-17T22:20:10.000Z</time></trkpt>
        <trkpt lat="28.324653" lon="105.061372"><ele>675.9516</ele><time>2026-04-17T22:20:16.000Z</time></trkpt>
        <trkpt lat="28.324692" lon="105.061341"><ele>675.1529</ele><time>2026-04-17T22:20:22.000Z</time></trkpt>
        <trkpt lat="28.324665" lon="105.061394"><ele>671.0545</ele><time>2026-04-17T22:20:33.000Z</time></trkpt>
        <trkpt lat="28.32465" lon="105.061443"><ele>669.88513</ele><time>2026-04-17T22:20:44.000Z</time></trkpt>
        <trkpt lat="28.324623" lon="105.061492"><ele>670.3645</ele><time>2026-04-17T22:20:52.000Z</time></trkpt>
        <trkpt lat="28.324663" lon="105.06152"><ele>676.98456</ele><time>2026-04-17T22:21:10.000Z</time></trkpt>
        <trkpt lat="28.324657" lon="105.061457"><ele>679.37354</ele><time>2026-04-17T22:21:16.000Z</time></trkpt>
        <trkpt lat="28.324716" lon="105.061473"><ele>680.0407</ele><time>2026-04-17T22:21:21.000Z</time></trkpt>
        <trkpt lat="28.324767" lon="105.061442"><ele>681.118</ele><time>2026-04-17T22:21:24.000Z</time></trkpt>
        <trkpt lat="28.324815" lon="105.061419"><ele>681.421</ele><time>2026-04-17T22:21:30.000Z</time></trkpt>
        <trkpt lat="28.324853" lon="105.061465"><ele>679.5732</ele><time>2026-04-17T22:21:37.000Z</time></trkpt>
        <trkpt lat="28.324897" lon="105.061448"><ele>679.12573</ele><time>2026-04-17T22:21:43.000Z</time></trkpt>
        <trkpt lat="28.324932" lon="105.061408"><ele>679.49194</ele><time>2026-04-17T22:21:46.000Z</time></trkpt>
        <trkpt lat="28.324981" lon="105.061381"><ele>679.7821</ele><time>2026-04-17T22:21:51.000Z</time></trkpt>
        <trkpt lat="28.32503" lon="105.061383"><ele>678.4179</ele><time>2026-04-17T22:21:57.000Z</time></trkpt>
        <trkpt lat="28.325078" lon="105.061388"><ele>677.1779</ele><time>2026-04-17T22:22:00.000Z</time></trkpt>
        <trkpt lat="28.325125" lon="105.061383"><ele>676.9672</ele><time>2026-04-17T22:22:03.000Z</time></trkpt>
        <trkpt lat="28.325179" lon="105.061384"><ele>677.0161</ele><time>2026-04-17T22:22:08.000Z</time></trkpt>
        <trkpt lat="28.325224" lon="105.061405"><ele>676.76044</ele><time>2026-04-17T22:22:13.000Z</time></trkpt>
        <trkpt lat="28.325278" lon="105.061432"><ele>676.747</ele><time>2026-04-17T22:22:17.000Z</time></trkpt>
        <trkpt lat="28.325317" lon="105.061462"><ele>675.5419</ele><time>2026-04-17T22:22:21.000Z</time></trkpt>
        <trkpt lat="28.325367" lon="105.06149"><ele>674.9261</ele><time>2026-04-17T22:22:27.000Z</time></trkpt>
        <trkpt lat="28.325405" lon="105.061527"><ele>674.4949</ele><time>2026-04-17T22:22:31.000Z</time></trkpt>
        <trkpt lat="28.325449" lon="105.061556"><ele>675.0598</ele><time>2026-04-17T22:22:35.000Z</time></trkpt>
        <trkpt lat="28.325498" lon="105.061576"><ele>676.13025</ele><time>2026-04-17T22:22:39.000Z</time></trkpt>
        <trkpt lat="28.325556" lon="105.061584"><ele>677.3314</ele><time>2026-04-17T22:22:44.000Z</time></trkpt>
        <trkpt lat="28.325603" lon="105.06157"><ele>676.136</ele><time>2026-04-17T22:22:48.000Z</time></trkpt>
        <trkpt lat="28.32566" lon="105.061555"><ele>675.8407</ele><time>2026-04-17T22:22:52.000Z</time></trkpt>
        <trkpt lat="28.325703" lon="105.061531"><ele>675.30585</ele><time>2026-04-17T22:22:57.000Z</time></trkpt>
        <trkpt lat="28.325713" lon="105.061465"><ele>675.55286</ele><time>2026-04-17T22:23:02.000Z</time></trkpt>
        <trkpt lat="28.325714" lon="105.06141"><ele>675.2444</ele><time>2026-04-17T22:23:06.000Z</time></trkpt>
        <trkpt lat="28.325759" lon="105.061372"><ele>675.0058</ele><time>2026-04-17T22:23:12.000Z</time></trkpt>
        <trkpt lat="28.325801" lon="105.061395"><ele>673.4008</ele><time>2026-04-17T22:23:16.000Z</time></trkpt>
        <trkpt lat="28.325833" lon="105.061432"><ele>672.04297</ele><time>2026-04-17T22:23:20.000Z</time></trkpt>
        <trkpt lat="28.325881" lon="105.061413"><ele>671.4283</ele><time>2026-04-17T22:23:25.000Z</time></trkpt>
        <trkpt lat="28.325927" lon="105.06137"><ele>671.45526</ele><time>2026-04-17T22:23:29.000Z</time></trkpt>
        <trkpt lat="28.325969" lon="105.06135"><ele>671.94305</ele><time>2026-04-17T22:23:32.000Z</time></trkpt>
        <trkpt lat="28.326011" lon="105.061326"><ele>671.4659</ele><time>2026-04-17T22:23:35.000Z</time></trkpt>
        <trkpt lat="28.326038" lon="105.06128"><ele>670.43945</ele><time>2026-04-17T22:23:42.000Z</time></trkpt>
        <trkpt lat="28.326043" lon="105.061228"><ele>669.71387</ele><time>2026-04-17T22:23:46.000Z</time></trkpt>
        <trkpt lat="28.326096" lon="105.061239"><ele>668.13354</ele><time>2026-04-17T22:23:50.000Z</time></trkpt>
        <trkpt lat="28.326143" lon="105.061214"><ele>666.0805</ele><time>2026-04-17T22:23:56.000Z</time></trkpt>
        <trkpt lat="28.326171" lon="105.061171"><ele>666.2788</ele><time>2026-04-17T22:24:01.000Z</time></trkpt>
        <trkpt lat="28.326219" lon="105.06117"><ele>666.5845</ele><time>2026-04-17T22:24:05.000Z</time></trkpt>
        <trkpt lat="28.326265" lon="105.061176"><ele>666.0211</ele><time>2026-04-17T22:24:09.000Z</time></trkpt>
        <trkpt lat="28.326314" lon="105.061167"><ele>667.01196</ele><time>2026-04-17T22:24:12.000Z</time></trkpt>
        <trkpt lat="28.32634" lon="105.061123"><ele>666.193</ele><time>2026-04-17T22:24:17.000Z</time></trkpt>
        <trkpt lat="28.326383" lon="105.061076"><ele>664.6687</ele><time>2026-04-17T22:24:23.000Z</time></trkpt>
        <trkpt lat="28.326406" lon="105.061126"><ele>661.71497</ele><time>2026-04-17T22:24:31.000Z</time></trkpt>
        <trkpt lat="28.326339" lon="105.061117"><ele>660.3263</ele><time>2026-04-17T22:24:52.000Z</time></trkpt>
        <trkpt lat="28.326366" lon="105.061158"><ele>662.20905</ele><time>2026-04-17T22:25:41.000Z</time></trkpt>
        <trkpt lat="28.326346" lon="105.061095"><ele>660.83716</ele><time>2026-04-17T22:26:02.000Z</time></trkpt>
        <trkpt lat="28.326185" lon="105.061186"><ele>662.30096</ele><time>2026-04-17T22:26:50.000Z</time></trkpt>
        <trkpt lat="28.32623" lon="105.061171"><ele>666.97906</ele><time>2026-04-17T22:27:32.000Z</time></trkpt>
        <trkpt lat="28.326267" lon="105.061139"><ele>667.01434</ele><time>2026-04-17T22:27:37.000Z</time></trkpt>
        <trkpt lat="28.326324" lon="105.061139"><ele>665.9265</ele><time>2026-04-17T22:27:43.000Z</time></trkpt>
        <trkpt lat="28.326371" lon="105.061133"><ele>665.74786</ele><time>2026-04-17T22:27:46.000Z</time></trkpt>
        <trkpt lat="28.326417" lon="105.061135"><ele>663.5024</ele><time>2026-04-17T22:27:53.000Z</time></trkpt>
        <trkpt lat="28.326377" lon="105.061105"><ele>665.1234</ele><time>2026-04-17T22:28:32.000Z</time></trkpt>
        <trkpt lat="28.326334" lon="105.061078"><ele>663.4339</ele><time>2026-04-17T22:28:40.000Z</time></trkpt>
        <trkpt lat="28.326335" lon="105.06102"><ele>664.6961</ele><time>2026-04-17T22:29:02.000Z</time></trkpt>
        <trkpt lat="28.326264" lon="105.061051"><ele>669.58844</ele><time>2026-04-17T22:31:15.000Z</time></trkpt>
        <trkpt lat="28.326304" lon="105.061081"><ele>667.0187</ele><time>2026-04-17T22:31:35.000Z</time></trkpt>
        <trkpt lat="28.326361" lon="105.061119"><ele>667.56006</ele><time>2026-04-17T22:31:55.000Z</time></trkpt>
        <trkpt lat="28.326287" lon="105.06116"><ele>664.7055</ele><time>2026-04-17T22:38:20.000Z</time></trkpt>
        <trkpt lat="28.326333" lon="105.061126"><ele>665.42633</ele><time>2026-04-17T22:38:41.000Z</time></trkpt>
        <trkpt lat="28.326308" lon="105.061083"><ele>663.3262</ele><time>2026-04-17T22:39:12.000Z</time></trkpt>
        <trkpt lat="28.326348" lon="105.061129"><ele>667.16504</ele><time>2026-04-17T22:41:34.000Z</time></trkpt>
        <trkpt lat="28.326383" lon="105.061096"><ele>665.3827</ele><time>2026-04-17T22:42:00.000Z</time></trkpt>
        <trkpt lat="28.326319" lon="105.061078"><ele>665.4367</ele><time>2026-04-17T22:42:58.000Z</time></trkpt>
        <trkpt lat="28.326356" lon="105.061109"><ele>664.2109</ele><time>2026-04-17T22:43:13.000Z</time></trkpt>
        <trkpt lat="28.326382" lon="105.061067"><ele>663.4716</ele><time>2026-04-17T22:43:19.000Z</time></trkpt>
        <trkpt lat="28.326409" lon="105.061025"><ele>662.8542</ele><time>2026-04-17T22:43:25.000Z</time></trkpt>
        <trkpt lat="28.326461" lon="105.061002"><ele>662.2134</ele><time>2026-04-17T22:43:33.000Z</time></trkpt>
        <trkpt lat="28.326517" lon="105.060993"><ele>662.243</ele><time>2026-04-17T22:43:38.000Z</time></trkpt>
        <trkpt lat="28.326545" lon="105.060945"><ele>661.92926</ele><time>2026-04-17T22:43:44.000Z</time></trkpt>
        <trkpt lat="28.326583" lon="105.060914"><ele>661.26056</ele><time>2026-04-17T22:43:48.000Z</time></trkpt>
        <trkpt lat="28.326631" lon="105.060916"><ele>661.1133</ele><time>2026-04-17T22:43:51.000Z</time></trkpt>
        <trkpt lat="28.326686" lon="105.060912"><ele>660.7074</ele><time>2026-04-17T22:43:56.000Z</time></trkpt>
        <trkpt lat="28.326736" lon="105.0609"><ele>659.2305</ele><time>2026-04-17T22:44:01.000Z</time></trkpt>
        <trkpt lat="28.326792" lon="105.060895"><ele>657.6433</ele><time>2026-04-17T22:44:06.000Z</time></trkpt>
        <trkpt lat="28.326833" lon="105.06086"><ele>656.659</ele><time>2026-04-17T22:44:14.000Z</time></trkpt>
        <trkpt lat="28.326876" lon="105.06083"><ele>653.8498</ele><time>2026-04-17T22:44:22.000Z</time></trkpt>
        <trkpt lat="28.326919" lon="105.060814"><ele>653.5961</ele><time>2026-04-17T22:44:26.000Z</time></trkpt>
        <trkpt lat="28.326965" lon="105.060828"><ele>652.8884</ele><time>2026-04-17T22:44:31.000Z</time></trkpt>
        <trkpt lat="28.327013" lon="105.060831"><ele>652.49445</ele><time>2026-04-17T22:44:35.000Z</time></trkpt>
        <trkpt lat="28.327061" lon="105.06083"><ele>650.92346</ele><time>2026-04-17T22:44:41.000Z</time></trkpt>
        <trkpt lat="28.327123" lon="105.060838"><ele>649.6713</ele><time>2026-04-17T22:44:46.000Z</time></trkpt>
        <trkpt lat="28.327169" lon="105.060847"><ele>649.1187</ele><time>2026-04-17T22:44:51.000Z</time></trkpt>
        <trkpt lat="28.327208" lon="105.060881"><ele>647.44965</ele><time>2026-04-17T22:44:58.000Z</time></trkpt>
        <trkpt lat="28.327253" lon="105.060892"><ele>646.3075</ele><time>2026-04-17T22:45:06.000Z</time></trkpt>
        <trkpt lat="28.3273" lon="105.060875"><ele>644.4172</ele><time>2026-04-17T22:45:10.000Z</time></trkpt>
        <trkpt lat="28.327346" lon="105.060848"><ele>641.3218</ele><time>2026-04-17T22:45:17.000Z</time></trkpt>
        <trkpt lat="28.327391" lon="105.060812"><ele>639.065</ele><time>2026-04-17T22:45:26.000Z</time></trkpt>
        <trkpt lat="28.327406" lon="105.060763"><ele>638.5878</ele><time>2026-04-17T22:45:34.000Z</time></trkpt>
        <trkpt lat="28.327422" lon="105.060709"><ele>638.85065</ele><time>2026-04-17T22:45:40.000Z</time></trkpt>
        <trkpt lat="28.327465" lon="105.060666"><ele>637.74835</ele><time>2026-04-17T22:45:50.000Z</time></trkpt>
        <trkpt lat="28.327518" lon="105.060657"><ele>634.3049</ele><time>2026-04-17T22:46:01.000Z</time></trkpt>
        <trkpt lat="28.327562" lon="105.060635"><ele>633.0304</ele><time>2026-04-17T22:46:08.000Z</time></trkpt>
        <trkpt lat="28.327608" lon="105.060634"><ele>632.1052</ele><time>2026-04-17T22:46:13.000Z</time></trkpt>
        <trkpt lat="28.327624" lon="105.060581"><ele>631.5219</ele><time>2026-04-17T22:46:19.000Z</time></trkpt>
        <trkpt lat="28.327665" lon="105.060555"><ele>630.7457</ele><time>2026-04-17T22:46:24.000Z</time></trkpt>
        <trkpt lat="28.327708" lon="105.060532"><ele>629.96094</ele><time>2026-04-17T22:46:30.000Z</time></trkpt>
        <trkpt lat="28.327752" lon="105.060505"><ele>628.64276</ele><time>2026-04-17T22:46:39.000Z</time></trkpt>
        <trkpt lat="28.327793" lon="105.06048"><ele>627.72986</ele><time>2026-04-17T22:46:44.000Z</time></trkpt>
        <trkpt lat="28.327824" lon="105.060437"><ele>628.21857</ele><time>2026-04-17T22:46:49.000Z</time></trkpt>
        <trkpt lat="28.327859" lon="105.060402"><ele>627.1682</ele><time>2026-04-17T22:46:55.000Z</time></trkpt>
        <trkpt lat="28.32788" lon="105.060348"><ele>626.91144</ele><time>2026-04-17T22:47:00.000Z</time></trkpt>
        <trkpt lat="28.327904" lon="105.060288"><ele>627.0048</ele><time>2026-04-17T22:47:07.000Z</time></trkpt>
        <trkpt lat="28.327933" lon="105.060248"><ele>628.59204</ele><time>2026-04-17T22:47:14.000Z</time></trkpt>
        <trkpt lat="28.327973" lon="105.060217"><ele>629.7454</ele><time>2026-04-17T22:47:19.000Z</time></trkpt>
        <trkpt lat="28.32802" lon="105.060209"><ele>629.976</ele><time>2026-04-17T22:47:24.000Z</time></trkpt>
        <trkpt lat="28.328065" lon="105.060194"><ele>629.6341</ele><time>2026-04-17T22:47:27.000Z</time></trkpt>
        <trkpt lat="28.328112" lon="105.060223"><ele>628.9699</ele><time>2026-04-17T22:47:30.000Z</time></trkpt>
        <trkpt lat="28.328176" lon="105.060243"><ele>628.14404</ele><time>2026-04-17T22:47:34.000Z</time></trkpt>
        <trkpt lat="28.328229" lon="105.060266"><ele>628.4436</ele><time>2026-04-17T22:47:40.000Z</time></trkpt>
        <trkpt lat="28.328283" lon="105.060267"><ele>626.4147</ele><time>2026-04-17T22:47:53.000Z</time></trkpt>
        <trkpt lat="28.328326" lon="105.060283"><ele>625.2546</ele><time>2026-04-17T22:47:58.000Z</time></trkpt>
        <trkpt lat="28.328357" lon="105.06032"><ele>625.16986</ele><time>2026-04-17T22:48:02.000Z</time></trkpt>
        <trkpt lat="28.328403" lon="105.060335"><ele>624.9727</ele><time>2026-04-17T22:48:07.000Z</time></trkpt>
        <trkpt lat="28.328464" lon="105.060307"><ele>622.18884</ele><time>2026-04-17T22:48:16.000Z</time></trkpt>
        <trkpt lat="28.328519" lon="105.060336"><ele>622.70056</ele><time>2026-04-17T22:48:21.000Z</time></trkpt>
        <trkpt lat="28.328557" lon="105.0603"><ele>622.458</ele><time>2026-04-17T22:48:29.000Z</time></trkpt>
        <trkpt lat="28.328593" lon="105.060265"><ele>622.47034</ele><time>2026-04-17T22:48:33.000Z</time></trkpt>
        <trkpt lat="28.328578" lon="105.060213"><ele>623.34686</ele><time>2026-04-17T22:48:41.000Z</time></trkpt>
        <trkpt lat="28.328619" lon="105.060191"><ele>623.24</ele><time>2026-04-17T22:48:49.000Z</time></trkpt>
        <trkpt lat="28.328668" lon="105.060199"><ele>621.7538</ele><time>2026-04-17T22:48:53.000Z</time></trkpt>
        <trkpt lat="28.328716" lon="105.060216"><ele>622.3651</ele><time>2026-04-17T22:48:57.000Z</time></trkpt>
        <trkpt lat="28.328763" lon="105.060187"><ele>622.27856</ele><time>2026-04-17T22:49:03.000Z</time></trkpt>
        <trkpt lat="28.328805" lon="105.060159"><ele>623.7066</ele><time>2026-04-17T22:49:07.000Z</time></trkpt>
        <trkpt lat="28.328859" lon="105.060151"><ele>623.58856</ele><time>2026-04-17T22:49:12.000Z</time></trkpt>
        <trkpt lat="28.328904" lon="105.060142"><ele>622.7335</ele><time>2026-04-17T22:49:17.000Z</time></trkpt>
        <trkpt lat="28.328935" lon="105.0601"><ele>623.5497</ele><time>2026-04-17T22:49:23.000Z</time></trkpt>
        <trkpt lat="28.328991" lon="105.060113"><ele>623.41907</ele><time>2026-04-17T22:49:28.000Z</time></trkpt>
        <trkpt lat="28.329046" lon="105.060119"><ele>622.4638</ele><time>2026-04-17T22:49:34.000Z</time></trkpt>
        <trkpt lat="28.329097" lon="105.060126"><ele>621.90283</ele><time>2026-04-17T22:49:40.000Z</time></trkpt>
        <trkpt lat="28.329154" lon="105.060113"><ele>621.3248</ele><time>2026-04-17T22:49:46.000Z</time></trkpt>
        <trkpt lat="28.329203" lon="105.060122"><ele>620.54553</ele><time>2026-04-17T22:49:51.000Z</time></trkpt>
        <trkpt lat="28.329251" lon="105.060114"><ele>620.18567</ele><time>2026-04-17T22:49:56.000Z</time></trkpt>
        <trkpt lat="28.329301" lon="105.060106"><ele>619.18524</ele><time>2026-04-17T22:50:00.000Z</time></trkpt>
        <trkpt lat="28.329355" lon="105.060091"><ele>618.78204</ele><time>2026-04-17T22:50:05.000Z</time></trkpt>
        <trkpt lat="28.329401" lon="105.06007"><ele>617.3135</ele><time>2026-04-17T22:50:09.000Z</time></trkpt>
        <trkpt lat="28.329445" lon="105.060087"><ele>617.7853</ele><time>2026-04-17T22:50:13.000Z</time></trkpt>
        <trkpt lat="28.329494" lon="105.060066"><ele>617.21173</ele><time>2026-04-17T22:50:19.000Z</time></trkpt>
        <trkpt lat="28.32954" lon="105.060055"><ele>616.688</ele><time>2026-04-17T22:50:24.000Z</time></trkpt>
        <trkpt lat="28.329583" lon="105.060029"><ele>615.50494</ele><time>2026-04-17T22:50:29.000Z</time></trkpt>
        <trkpt lat="28.329634" lon="105.060025"><ele>614.64435</ele><time>2026-04-17T22:50:34.000Z</time></trkpt>
        <trkpt lat="28.32969" lon="105.060008"><ele>614.4857</ele><time>2026-04-17T22:50:39.000Z</time></trkpt>
        <trkpt lat="28.329726" lon="105.059977"><ele>613.8933</ele><time>2026-04-17T22:50:43.000Z</time></trkpt>
        <trkpt lat="28.329783" lon="105.059983"><ele>612.4453</ele><time>2026-04-17T22:50:47.000Z</time></trkpt>
        <trkpt lat="28.329826" lon="105.059955"><ele>611.24774</ele><time>2026-04-17T22:50:52.000Z</time></trkpt>
        <trkpt lat="28.329859" lon="105.059914"><ele>611.05786</ele><time>2026-04-17T22:50:56.000Z</time></trkpt>
        <trkpt lat="28.329905" lon="105.059891"><ele>610.0793</ele><time>2026-04-17T22:51:00.000Z</time></trkpt>
        <trkpt lat="28.329941" lon="105.059858"><ele>610.4492</ele><time>2026-04-17T22:51:05.000Z</time></trkpt>
        <trkpt lat="28.329983" lon="105.059837"><ele>606.4877</ele><time>2026-04-17T22:51:09.000Z</time></trkpt>
        <trkpt lat="28.330023" lon="105.059793"><ele>607.2088</ele><time>2026-04-17T22:51:14.000Z</time></trkpt>
        <trkpt lat="28.33004" lon="105.059743"><ele>606.6887</ele><time>2026-04-17T22:51:19.000Z</time></trkpt>
        <trkpt lat="28.330081" lon="105.059708"><ele>606.307</ele><time>2026-04-17T22:51:23.000Z</time></trkpt>
        <trkpt lat="28.33012" lon="105.059666"><ele>606.061</ele><time>2026-04-17T22:51:28.000Z</time></trkpt>
        <trkpt lat="28.330122" lon="105.059605"><ele>605.7165</ele><time>2026-04-17T22:51:32.000Z</time></trkpt>
        <trkpt lat="28.33015" lon="105.059548"><ele>605.16705</ele><time>2026-04-17T22:51:37.000Z</time></trkpt>
        <trkpt lat="28.330177" lon="105.059492"><ele>602.7474</ele><time>2026-04-17T22:51:41.000Z</time></trkpt>
        <trkpt lat="28.330197" lon="105.059445"><ele>603.0169</ele><time>2026-04-17T22:51:45.000Z</time></trkpt>
        <trkpt lat="28.330232" lon="105.059406"><ele>602.0532</ele><time>2026-04-17T22:51:49.000Z</time></trkpt>
        <trkpt lat="28.330267" lon="105.059358"><ele>601.9617</ele><time>2026-04-17T22:51:56.000Z</time></trkpt>
        <trkpt lat="28.33027" lon="105.059306"><ele>601.82776</ele><time>2026-04-17T22:52:00.000Z</time></trkpt>
        <trkpt lat="28.330289" lon="105.059252"><ele>601.07874</ele><time>2026-04-17T22:52:06.000Z</time></trkpt>
        <trkpt lat="28.330313" lon="105.059201"><ele>601.40015</ele><time>2026-04-17T22:52:10.000Z</time></trkpt>
        <trkpt lat="28.330345" lon="105.059162"><ele>602.4278</ele><time>2026-04-17T22:52:15.000Z</time></trkpt>
        <trkpt lat="28.330369" lon="105.059119"><ele>602.89624</ele><time>2026-04-17T22:52:20.000Z</time></trkpt>
        <trkpt lat="28.330387" lon="105.059059"><ele>601.9586</ele><time>2026-04-17T22:52:26.000Z</time></trkpt>
        <trkpt lat="28.330426" lon="105.059019"><ele>603.2656</ele><time>2026-04-17T22:52:29.000Z</time></trkpt>
        <trkpt lat="28.330473" lon="105.058981"><ele>603.5033</ele><time>2026-04-17T22:52:33.000Z</time></trkpt>
        <trkpt lat="28.330519" lon="105.058945"><ele>604.57733</ele><time>2026-04-17T22:52:38.000Z</time></trkpt>
        <trkpt lat="28.330558" lon="105.058909"><ele>606.9894</ele><time>2026-04-17T22:52:43.000Z</time></trkpt>
        <trkpt lat="28.330599" lon="105.058883"><ele>606.78973</ele><time>2026-04-17T22:52:46.000Z</time></trkpt>
        <trkpt lat="28.330648" lon="105.058877"><ele>607.8409</ele><time>2026-04-17T22:52:50.000Z</time></trkpt>
        <trkpt lat="28.330704" lon="105.058881"><ele>607.6668</ele><time>2026-04-17T22:52:55.000Z</time></trkpt>
        <trkpt lat="28.33075" lon="105.05887"><ele>607.4365</ele><time>2026-04-17T22:53:01.000Z</time></trkpt>
        <trkpt lat="28.330797" lon="105.058864"><ele>607.50757</ele><time>2026-04-17T22:53:06.000Z</time></trkpt>
        <trkpt lat="28.330853" lon="105.058854"><ele>606.4731</ele><time>2026-04-17T22:53:12.000Z</time></trkpt>
        <trkpt lat="28.330893" lon="105.058828"><ele>606.78986</ele><time>2026-04-17T22:53:20.000Z</time></trkpt>
        <trkpt lat="28.330933" lon="105.058796"><ele>606.3758</ele><time>2026-04-17T22:53:25.000Z</time></trkpt>
        <trkpt lat="28.330981" lon="105.058762"><ele>605.3281</ele><time>2026-04-17T22:53:33.000Z</time></trkpt>
        <trkpt lat="28.331039" lon="105.058749"><ele>604.03125</ele><time>2026-04-17T22:53:37.000Z</time></trkpt>
        <trkpt lat="28.331086" lon="105.058746"><ele>603.4876</ele><time>2026-04-17T22:53:41.000Z</time></trkpt>
        <trkpt lat="28.331132" lon="105.058725"><ele>599.7974</ele><time>2026-04-17T22:53:46.000Z</time></trkpt>
        <trkpt lat="28.331179" lon="105.058737"><ele>598.73267</ele><time>2026-04-17T22:53:49.000Z</time></trkpt>
        <trkpt lat="28.331199" lon="105.058691"><ele>597.4125</ele><time>2026-04-17T22:53:54.000Z</time></trkpt>
        <trkpt lat="28.331244" lon="105.058682"><ele>593.2748</ele><time>2026-04-17T22:54:02.000Z</time></trkpt>
        <trkpt lat="28.331289" lon="105.05866"><ele>590.6163</ele><time>2026-04-17T22:54:09.000Z</time></trkpt>
        <trkpt lat="28.331333" lon="105.05862"><ele>591.1245</ele><time>2026-04-17T22:54:13.000Z</time></trkpt>
        <trkpt lat="28.331363" lon="105.058577"><ele>589.9697</ele><time>2026-04-17T22:54:19.000Z</time></trkpt>
        <trkpt lat="28.331404" lon="105.058545"><ele>588.787</ele><time>2026-04-17T22:54:33.000Z</time></trkpt>
        <trkpt lat="28.331443" lon="105.058517"><ele>586.94147</ele><time>2026-04-17T22:54:46.000Z</time></trkpt>
        <trkpt lat="28.331472" lon="105.058568"><ele>586.7974</ele><time>2026-04-17T22:54:50.000Z</time></trkpt>
        <trkpt lat="28.331471" lon="105.058621"><ele>586.29297</ele><time>2026-04-17T22:54:54.000Z</time></trkpt>
        <trkpt lat="28.331497" lon="105.058571"><ele>585.3354</ele><time>2026-04-17T22:55:08.000Z</time></trkpt>
        <trkpt lat="28.331527" lon="105.058531"><ele>583.70996</ele><time>2026-04-17T22:55:13.000Z</time></trkpt>
        <trkpt lat="28.331581" lon="105.058528"><ele>584.439</ele><time>2026-04-17T22:55:17.000Z</time></trkpt>
        <trkpt lat="28.331637" lon="105.058506"><ele>585.9254</ele><time>2026-04-17T22:55:22.000Z</time></trkpt>
        <trkpt lat="28.331685" lon="105.058506"><ele>584.6419</ele><time>2026-04-17T22:55:27.000Z</time></trkpt>
        <trkpt lat="28.331731" lon="105.058508"><ele>583.7703</ele><time>2026-04-17T22:55:30.000Z</time></trkpt>
        <trkpt lat="28.331767" lon="105.058473"><ele>583.11017</ele><time>2026-04-17T22:55:34.000Z</time></trkpt>
        <trkpt lat="28.331815" lon="105.058512"><ele>582.60785</ele><time>2026-04-17T22:55:38.000Z</time></trkpt>
        <trkpt lat="28.33187" lon="105.058518"><ele>582.1649</ele><time>2026-04-17T22:55:43.000Z</time></trkpt>
        <trkpt lat="28.331886" lon="105.05858"><ele>581.8103</ele><time>2026-04-17T22:55:47.000Z</time></trkpt>
        <trkpt lat="28.331935" lon="105.058569"><ele>581.645</ele><time>2026-04-17T22:56:03.000Z</time></trkpt>
        <trkpt lat="28.331955" lon="105.05852"><ele>582.73474</ele><time>2026-04-17T22:56:09.000Z</time></trkpt>
        <trkpt lat="28.331968" lon="105.058582"><ele>584.2501</ele><time>2026-04-17T22:56:20.000Z</time></trkpt>
        <trkpt lat="28.331956" lon="105.058531"><ele>584.74457</ele><time>2026-04-17T22:56:27.000Z</time></trkpt>
        <trkpt lat="28.331959" lon="105.058607"><ele>584.7383</ele><time>2026-04-17T22:56:39.000Z</time></trkpt>
        <trkpt lat="28.331958" lon="105.058552"><ele>584.28253</ele><time>2026-04-17T22:57:10.000Z</time></trkpt>
        <trkpt lat="28.331956" lon="105.058604"><ele>582.944</ele><time>2026-04-17T22:57:17.000Z</time></trkpt>
        <trkpt lat="28.331991" lon="105.058545"><ele>582.49207</ele><time>2026-04-17T23:09:23.000Z</time></trkpt>
        <trkpt lat="28.331952" lon="105.058509"><ele>582.201</ele><time>2026-04-17T23:09:30.000Z</time></trkpt>
        <trkpt lat="28.331873" lon="105.058549"><ele>579.5355</ele><time>2026-04-17T23:10:17.000Z</time></trkpt>
        <trkpt lat="28.331923" lon="105.058548"><ele>582.58746</ele><time>2026-04-17T23:10:33.000Z</time></trkpt>
        <trkpt lat="28.331969" lon="105.058582"><ele>582.7539</ele><time>2026-04-17T23:11:02.000Z</time></trkpt>
        <trkpt lat="28.331917" lon="105.05856"><ele>581.83</ele><time>2026-04-17T23:11:03.000Z</time></trkpt>
        <trkpt lat="28.331952" lon="105.058522"><ele>579.2099</ele><time>2026-04-17T23:11:25.000Z</time></trkpt>
        <trkpt lat="28.331951" lon="105.058583"><ele>585.63983</ele><time>2026-04-17T23:13:20.000Z</time></trkpt>
        <trkpt lat="28.331927" lon="105.058586"><ele>585.6525</ele><time>2026-04-17T23:13:22.000Z</time></trkpt>
        <trkpt lat="28.331982" lon="105.058555"><ele>584.4437</ele><time>2026-04-17T23:13:41.000Z</time></trkpt>
        <trkpt lat="28.33195" lon="105.058602"><ele>582.2902</ele><time>2026-04-17T23:14:08.000Z</time></trkpt>
        <trkpt lat="28.331963" lon="105.058551"><ele>581.73346</ele><time>2026-04-17T23:14:17.000Z</time></trkpt>
        <trkpt lat="28.331995" lon="105.058588"><ele>578.9935</ele><time>2026-04-17T23:14:26.000Z</time></trkpt>
        <trkpt lat="28.331994" lon="105.058521"><ele>583.28754</ele><time>2026-04-17T23:14:57.000Z</time></trkpt>
        <trkpt lat="28.332047" lon="105.058489"><ele>583.86</ele><time>2026-04-17T23:15:06.000Z</time></trkpt>
        <trkpt lat="28.332026" lon="105.058544"><ele>583.5281</ele><time>2026-04-17T23:15:12.000Z</time></trkpt>
        <trkpt lat="28.33199" lon="105.058611"><ele>583.55145</ele><time>2026-04-17T23:15:20.000Z</time></trkpt>
        <trkpt lat="28.332055" lon="105.058569"><ele>583.68365</ele><time>2026-04-17T23:15:30.000Z</time></trkpt>
        <trkpt lat="28.332001" lon="105.058537"><ele>584.75037</ele><time>2026-04-17T23:16:02.000Z</time></trkpt>
        <trkpt lat="28.331956" lon="105.058545"><ele>584.0688</ele><time>2026-04-17T23:16:42.000Z</time></trkpt>
        <trkpt lat="28.33198" lon="105.0585"><ele>583.14703</ele><time>2026-04-17T23:16:48.000Z</time></trkpt>
        <trkpt lat="28.332044" lon="105.058487"><ele>582.94916</ele><time>2026-04-17T23:16:51.000Z</time></trkpt>
        <trkpt lat="28.332075" lon="105.058526"><ele>583.79974</ele><time>2026-04-17T23:17:11.000Z</time></trkpt>
        <trkpt lat="28.332119" lon="105.058507"><ele>583.8443</ele><time>2026-04-17T23:17:16.000Z</time></trkpt>
        <trkpt lat="28.332159" lon="105.058543"><ele>582.9164</ele><time>2026-04-17T23:17:31.000Z</time></trkpt>
        <trkpt lat="28.33223" lon="105.058541"><ele>581.38434</ele><time>2026-04-17T23:17:39.000Z</time></trkpt>
        <trkpt lat="28.332279" lon="105.058539"><ele>581.2879</ele><time>2026-04-17T23:17:46.000Z</time></trkpt>
        <trkpt lat="28.332324" lon="105.058556"><ele>582.3918</ele><time>2026-04-17T23:17:49.000Z</time></trkpt>
        <trkpt lat="28.332375" lon="105.058563"><ele>582.37756</ele><time>2026-04-17T23:17:57.000Z</time></trkpt>
        <trkpt lat="28.332423" lon="105.058578"><ele>582.10156</ele><time>2026-04-17T23:18:05.000Z</time></trkpt>
        <trkpt lat="28.332439" lon="105.058641"><ele>582.1988</ele><time>2026-04-17T23:18:10.000Z</time></trkpt>
        <trkpt lat="28.332484" lon="105.058657"><ele>582.81274</ele><time>2026-04-17T23:18:18.000Z</time></trkpt>
        <trkpt lat="28.332458" lon="105.058606"><ele>582.3481</ele><time>2026-04-17T23:18:20.000Z</time></trkpt>
        <trkpt lat="28.332484" lon="105.058559"><ele>583.226</ele><time>2026-04-17T23:18:26.000Z</time></trkpt>
        <trkpt lat="28.332511" lon="105.058504"><ele>583.8811</ele><time>2026-04-17T23:18:29.000Z</time></trkpt>
        <trkpt lat="28.332559" lon="105.058489"><ele>583.53406</ele><time>2026-04-17T23:18:32.000Z</time></trkpt>
        <trkpt lat="28.332516" lon="105.058453"><ele>583.2163</ele><time>2026-04-17T23:18:33.000Z</time></trkpt>
        <trkpt lat="28.332563" lon="105.058504"><ele>582.96716</ele><time>2026-04-17T23:18:36.000Z</time></trkpt>
        <trkpt lat="28.332597" lon="105.05845"><ele>582.1057</ele><time>2026-04-17T23:18:42.000Z</time></trkpt>
        <trkpt lat="28.332655" lon="105.058502"><ele>581.2067</ele><time>2026-04-17T23:18:46.000Z</time></trkpt>
        <trkpt lat="28.332712" lon="105.058501"><ele>581.58954</ele><time>2026-04-17T23:18:49.000Z</time></trkpt>
        <trkpt lat="28.332758" lon="105.058475"><ele>581.1649</ele><time>2026-04-17T23:18:54.000Z</time></trkpt>
        <trkpt lat="28.332792" lon="105.058441"><ele>580.6564</ele><time>2026-04-17T23:19:00.000Z</time></trkpt>
        <trkpt lat="28.332835" lon="105.058459"><ele>579.8876</ele><time>2026-04-17T23:19:12.000Z</time></trkpt>
        <trkpt lat="28.332781" lon="105.058494"><ele>578.7493</ele><time>2026-04-17T23:19:17.000Z</time></trkpt>
        <trkpt lat="28.332737" lon="105.058515"><ele>578.6512</ele><time>2026-04-17T23:19:20.000Z</time></trkpt>
        <trkpt lat="28.332723" lon="105.05859"><ele>579.05</ele><time>2026-04-17T23:19:23.000Z</time></trkpt>
        <trkpt lat="28.33275" lon="105.058639"><ele>579.66644</ele><time>2026-04-17T23:19:36.000Z</time></trkpt>
        <trkpt lat="28.332768" lon="105.058586"><ele>580.31824</ele><time>2026-04-17T23:19:42.000Z</time></trkpt>
        <trkpt lat="28.332813" lon="105.058666"><ele>581.7575</ele><time>2026-04-17T23:19:46.000Z</time></trkpt>
        <trkpt lat="28.332776" lon="105.058721"><ele>581.5977</ele><time>2026-04-17T23:19:47.000Z</time></trkpt>
        <trkpt lat="28.332734" lon="105.058748"><ele>581.7789</ele><time>2026-04-17T23:19:51.000Z</time></trkpt>
        <trkpt lat="28.332782" lon="105.058717"><ele>584.06415</ele><time>2026-04-17T23:19:54.000Z</time></trkpt>
        <trkpt lat="28.332762" lon="105.05866"><ele>585.9794</ele><time>2026-04-17T23:19:58.000Z</time></trkpt>
        <trkpt lat="28.33281" lon="105.058673"><ele>585.2147</ele><time>2026-04-17T23:20:01.000Z</time></trkpt>
        <trkpt lat="28.332814" lon="105.058595"><ele>587.9462</ele><time>2026-04-17T23:20:05.000Z</time></trkpt>
        <trkpt lat="28.33286" lon="105.058838"><ele>587.04004</ele><time>2026-04-17T23:20:16.000Z</time></trkpt>
        <trkpt lat="28.332705" lon="105.05864"><ele>587.86176</ele><time>2026-04-17T23:20:31.000Z</time></trkpt>
        <trkpt lat="28.33269" lon="105.058591"><ele>586.9153</ele><time>2026-04-17T23:20:48.000Z</time></trkpt>
        <trkpt lat="28.332526" lon="105.058733"><ele>580.688</ele><time>2026-04-17T23:21:21.000Z</time></trkpt>
        <trkpt lat="28.33248" lon="105.058741"><ele>580.688</ele><time>2026-04-17T23:21:28.000Z</time></trkpt>
        <trkpt lat="28.332434" lon="105.058763"><ele>580.688</ele><time>2026-04-17T23:21:37.000Z</time></trkpt>
        <trkpt lat="28.332189" lon="105.058797"><ele>580.7061</ele><time>2026-04-17T23:22:00.000Z</time></trkpt>
        <trkpt lat="28.332143" lon="105.058757"><ele>580.718</ele><time>2026-04-17T23:22:08.000Z</time></trkpt>
        <trkpt lat="28.332152" lon="105.058758"><ele>580.7099</ele><time>2026-04-17T23:22:16.000Z</time></trkpt>
        <trkpt lat="28.332201" lon="105.058787"><ele>580.688</ele><time>2026-04-17T23:22:24.000Z</time></trkpt>
        <trkpt lat="28.331936" lon="105.059053"><ele>590.9736</ele><time>2026-04-17T23:22:46.000Z</time></trkpt>
        <trkpt lat="28.331927" lon="105.059035"><ele>587.7751</ele><time>2026-04-17T23:22:47.000Z</time></trkpt>
        <trkpt lat="28.331902" lon="105.058986"><ele>585.3681</ele><time>2026-04-17T23:22:49.000Z</time></trkpt>
        <trkpt lat="28.331879" lon="105.05892"><ele>581.3757</ele><time>2026-04-17T23:22:51.000Z</time></trkpt>
        <trkpt lat="28.331829" lon="105.059123"><ele>599.5469</ele><time>2026-04-17T23:23:04.000Z</time></trkpt>
        <trkpt lat="28.331846" lon="105.059071"><ele>598.9301</ele><time>2026-04-17T23:23:21.000Z</time></trkpt>
        <trkpt lat="28.331847" lon="105.059001"><ele>598.87787</ele><time>2026-04-17T23:23:31.000Z</time></trkpt>
        <trkpt lat="28.33175" lon="105.059007"><ele>597.518</ele><time>2026-04-17T23:23:41.000Z</time></trkpt>
        <trkpt lat="28.33168" lon="105.059034"><ele>597.4256</ele><time>2026-04-17T23:23:43.000Z</time></trkpt>
        <trkpt lat="28.331589" lon="105.059046"><ele>572.3222</ele><time>2026-04-17T23:24:08.000Z</time></trkpt>
        <trkpt lat="28.331283" lon="105.059092"><ele>598.0734</ele><time>2026-04-17T23:24:19.000Z</time></trkpt>
        <trkpt lat="28.331185" lon="105.059097"><ele>598.33936</ele><time>2026-04-17T23:24:29.000Z</time></trkpt>
        <trkpt lat="28.331126" lon="105.059061"><ele>597.5341</ele><time>2026-04-17T23:24:33.000Z</time></trkpt>
        <trkpt lat="28.331081" lon="105.059036"><ele>597.8333</ele><time>2026-04-17T23:24:36.000Z</time></trkpt>
        <trkpt lat="28.331078" lon="105.059088"><ele>597.7335</ele><time>2026-04-17T23:24:39.000Z</time></trkpt>
        <trkpt lat="28.331035" lon="105.059062"><ele>597.3049</ele><time>2026-04-17T23:24:41.000Z</time></trkpt>
        <trkpt lat="28.330978" lon="105.059054"><ele>598.13995</ele><time>2026-04-17T23:24:44.000Z</time></trkpt>
        <trkpt lat="28.330931" lon="105.059041"><ele>597.7503</ele><time>2026-04-17T23:24:49.000Z</time></trkpt>
        <trkpt lat="28.330941" lon="105.059108"><ele>597.73737</ele><time>2026-04-17T23:24:52.000Z</time></trkpt>
        <trkpt lat="28.330895" lon="105.059114"><ele>597.2985</ele><time>2026-04-17T23:24:56.000Z</time></trkpt>
        <trkpt lat="28.330845" lon="105.059135"><ele>596.32074</ele><time>2026-04-17T23:25:04.000Z</time></trkpt>
        <trkpt lat="28.330831" lon="105.059209"><ele>595.0798</ele><time>2026-04-17T23:25:11.000Z</time></trkpt>
        <trkpt lat="28.33074" lon="105.059263"><ele>595.24445</ele><time>2026-04-17T23:25:17.000Z</time></trkpt>
        <trkpt lat="28.330701" lon="105.05923"><ele>594.59656</ele><time>2026-04-17T23:25:20.000Z</time></trkpt>
        <trkpt lat="28.330609" lon="105.059288"><ele>594.9197</ele><time>2026-04-17T23:25:26.000Z</time></trkpt>
        <trkpt lat="28.330671" lon="105.059399"><ele>595.1775</ele><time>2026-04-17T23:25:29.000Z</time></trkpt>
        <trkpt lat="28.330716" lon="105.059415"><ele>595.6093</ele><time>2026-04-17T23:25:31.000Z</time></trkpt>
        <trkpt lat="28.330684" lon="105.05945"><ele>596.4145</ele><time>2026-04-17T23:25:40.000Z</time></trkpt>
        <trkpt lat="28.330621" lon="105.059351"><ele>595.80963</ele><time>2026-04-17T23:25:48.000Z</time></trkpt>
        <trkpt lat="28.330694" lon="105.059205"><ele>595.5061</ele><time>2026-04-17T23:26:20.000Z</time></trkpt>
        <trkpt lat="28.330733" lon="105.059302"><ele>594.00287</ele><time>2026-04-17T23:26:49.000Z</time></trkpt>
        <trkpt lat="28.330719" lon="105.059355"><ele>595.02216</ele><time>2026-04-17T23:27:04.000Z</time></trkpt>
        <trkpt lat="28.330758" lon="105.059324"><ele>595.77094</ele><time>2026-04-17T23:27:13.000Z</time></trkpt>
        <trkpt lat="28.330803" lon="105.059318"><ele>596.7072</ele><time>2026-04-17T23:27:18.000Z</time></trkpt>
        <trkpt lat="28.330766" lon="105.059386"><ele>596.0483</ele><time>2026-04-17T23:27:24.000Z</time></trkpt>
        <trkpt lat="28.330653" lon="105.059287"><ele>595.7199</ele><time>2026-04-17T23:27:37.000Z</time></trkpt>
        <trkpt lat="28.330719" lon="105.059435"><ele>596.0458</ele><time>2026-04-17T23:27:44.000Z</time></trkpt>
        <trkpt lat="28.330867" lon="105.059259"><ele>584.79193</ele><time>2026-04-17T23:28:05.000Z</time></trkpt>
        <trkpt lat="28.330692" lon="105.059349"><ele>595.37164</ele><time>2026-04-17T23:28:17.000Z</time></trkpt>
        <trkpt lat="28.330753" lon="105.059352"><ele>595.7649</ele><time>2026-04-17T23:28:23.000Z</time></trkpt>
        <trkpt lat="28.330824" lon="105.059088"><ele>595.29926</ele><time>2026-04-17T23:28:40.000Z</time></trkpt>
        <trkpt lat="28.330824" lon="105.059145"><ele>595.0465</ele><time>2026-04-17T23:28:52.000Z</time></trkpt>
        <trkpt lat="28.330726" lon="105.059242"><ele>558.75775</ele><time>2026-04-17T23:29:03.000Z</time></trkpt>
        <trkpt lat="28.330837" lon="105.059185"><ele>594.9557</ele><time>2026-04-17T23:29:08.000Z</time></trkpt>
        <trkpt lat="28.330491" lon="105.059144"><ele>565.40936</ele><time>2026-04-17T23:29:37.000Z</time></trkpt>
        <trkpt lat="28.330601" lon="105.059339"><ele>594.37946</ele><time>2026-04-17T23:29:55.000Z</time></trkpt>
        <trkpt lat="28.330574" lon="105.05942"><ele>594.7787</ele><time>2026-04-17T23:30:42.000Z</time></trkpt>
        <trkpt lat="28.330517" lon="105.059453"><ele>595.3832</ele><time>2026-04-17T23:31:23.000Z</time></trkpt>
        <trkpt lat="28.330548" lon="105.059526"><ele>595.7299</ele><time>2026-04-17T23:33:45.000Z</time></trkpt>
        <trkpt lat="28.330563" lon="105.059432"><ele>596.395</ele><time>2026-04-17T23:33:52.000Z</time></trkpt>
        <trkpt lat="28.330559" lon="105.05938"><ele>596.1806</ele><time>2026-04-17T23:34:13.000Z</time></trkpt>
        <trkpt lat="28.330603" lon="105.059351"><ele>595.20233</ele><time>2026-04-17T23:34:17.000Z</time></trkpt>
        <trkpt lat="28.330649" lon="105.059309"><ele>594.96594</ele><time>2026-04-17T23:34:19.000Z</time></trkpt>
        <trkpt lat="28.330708" lon="105.059233"><ele>594.3078</ele><time>2026-04-17T23:34:23.000Z</time></trkpt>
        <trkpt lat="28.330743" lon="105.059278"><ele>594.15607</ele><time>2026-04-17T23:34:28.000Z</time></trkpt>
        <trkpt lat="28.330797" lon="105.059257"><ele>594.4023</ele><time>2026-04-17T23:34:31.000Z</time></trkpt>
        <trkpt lat="28.330815" lon="105.05921"><ele>592.7066</ele><time>2026-04-17T23:34:33.000Z</time></trkpt>
        <trkpt lat="28.330872" lon="105.059192"><ele>594.6258</ele><time>2026-04-17T23:34:35.000Z</time></trkpt>
        <trkpt lat="28.330891" lon="105.059128"><ele>593.37036</ele><time>2026-04-17T23:34:39.000Z</time></trkpt>
        <trkpt lat="28.330936" lon="105.059094"><ele>595.1763</ele><time>2026-04-17T23:34:43.000Z</time></trkpt>
        <trkpt lat="28.330982" lon="105.059107"><ele>595.5513</ele><time>2026-04-17T23:34:48.000Z</time></trkpt>
        <trkpt lat="28.330975" lon="105.059163"><ele>595.58777</ele><time>2026-04-17T23:34:55.000Z</time></trkpt>
        <trkpt lat="28.330931" lon="105.059191"><ele>595.79626</ele><time>2026-04-17T23:35:02.000Z</time></trkpt>
        <trkpt lat="28.330892" lon="105.059234"><ele>595.94836</ele><time>2026-04-17T23:35:10.000Z</time></trkpt>
        <trkpt lat="28.330842" lon="105.059251"><ele>595.6138</ele><time>2026-04-17T23:35:14.000Z</time></trkpt>
        <trkpt lat="28.3308" lon="105.059354"><ele>594.79346</ele><time>2026-04-17T23:35:19.000Z</time></trkpt>
        <trkpt lat="28.33081" lon="105.059412"><ele>595.7115</ele><time>2026-04-17T23:35:22.000Z</time></trkpt>
        <trkpt lat="28.330614" lon="105.059409"><ele>596.1339</ele><time>2026-04-17T23:35:36.000Z</time></trkpt>
        <trkpt lat="28.330572" lon="105.059242"><ele>594.1963</ele><time>2026-04-17T23:36:29.000Z</time></trkpt>
        <trkpt lat="28.330566" lon="105.059297"><ele>593.35913</ele><time>2026-04-17T23:37:42.000Z</time></trkpt>
        <trkpt lat="28.330762" lon="105.059352"><ele>593.29047</ele><time>2026-04-17T23:38:02.000Z</time></trkpt>
        <trkpt lat="28.330805" lon="105.059281"><ele>593.29047</ele><time>2026-04-17T23:38:17.000Z</time></trkpt>
        <trkpt lat="28.33076" lon="105.059348"><ele>593.29047</ele><time>2026-04-17T23:38:20.000Z</time></trkpt>
        <trkpt lat="28.330729" lon="105.059257"><ele>596.7745</ele><time>2026-04-17T23:38:28.000Z</time></trkpt>
        <trkpt lat="28.330769" lon="105.05931"><ele>597.2012</ele><time>2026-04-17T23:38:36.000Z</time></trkpt>
        <trkpt lat="28.330716" lon="105.059296"><ele>597.387</ele><time>2026-04-17T23:38:40.000Z</time></trkpt>
        <trkpt lat="28.330771" lon="105.059311"><ele>596.87506</ele><time>2026-04-17T23:38:47.000Z</time></trkpt>
        <trkpt lat="28.330798" lon="105.05927"><ele>596.4963</ele><time>2026-04-17T23:38:52.000Z</time></trkpt>
        <trkpt lat="28.330754" lon="105.05932"><ele>596.13947</ele><time>2026-04-17T23:39:02.000Z</time></trkpt>
        <trkpt lat="28.330711" lon="105.059304"><ele>596.0395</ele><time>2026-04-17T23:39:09.000Z</time></trkpt>
        <trkpt lat="28.330684" lon="105.059258"><ele>596.1658</ele><time>2026-04-17T23:39:15.000Z</time></trkpt>
        <trkpt lat="28.330725" lon="105.059233"><ele>595.5498</ele><time>2026-04-17T23:39:20.000Z</time></trkpt>
        <trkpt lat="28.330764" lon="105.059378"><ele>595.5411</ele><time>2026-04-17T23:39:26.000Z</time></trkpt>
        <trkpt lat="28.330717" lon="105.059373"><ele>597.0498</ele><time>2026-04-17T23:39:37.000Z</time></trkpt>
        <trkpt lat="28.330666" lon="105.05933"><ele>597.028</ele><time>2026-04-17T23:39:44.000Z</time></trkpt>
        <trkpt lat="28.330728" lon="105.059287"><ele>595.59766</ele><time>2026-04-17T23:39:51.000Z</time></trkpt>
        <trkpt lat="28.330736" lon="105.059339"><ele>595.36115</ele><time>2026-04-17T23:39:57.000Z</time></trkpt>
        <trkpt lat="28.330789" lon="105.059311"><ele>596.0554</ele><time>2026-04-17T23:40:22.000Z</time></trkpt>
        <trkpt lat="28.3307" lon="105.059264"><ele>596.37054</ele><time>2026-04-17T23:40:30.000Z</time></trkpt>
        <trkpt lat="28.330652" lon="105.059243"><ele>596.2726</ele><time>2026-04-17T23:40:33.000Z</time></trkpt>
        <trkpt lat="28.330697" lon="105.059286"><ele>595.6613</ele><time>2026-04-17T23:40:42.000Z</time></trkpt>
        <trkpt lat="28.330736" lon="105.059332"><ele>595.2002</ele><time>2026-04-17T23:40:49.000Z</time></trkpt>
        <trkpt lat="28.33079" lon="105.059296"><ele>596.68884</ele><time>2026-04-17T23:41:10.000Z</time></trkpt>
        <trkpt lat="28.330735" lon="105.059309"><ele>596.75305</ele><time>2026-04-17T23:41:23.000Z</time></trkpt>
        <trkpt lat="28.330737" lon="105.05936"><ele>597.133</ele><time>2026-04-17T23:41:26.000Z</time></trkpt>
        <trkpt lat="28.330786" lon="105.059397"><ele>597.83923</ele><time>2026-04-17T23:41:34.000Z</time></trkpt>
        <trkpt lat="28.33074" lon="105.059393"><ele>598.0047</ele><time>2026-04-17T23:41:38.000Z</time></trkpt>
        <trkpt lat="28.330713" lon="105.059334"><ele>597.8891</ele><time>2026-04-17T23:41:50.000Z</time></trkpt>
        <trkpt lat="28.330678" lon="105.059297"><ele>596.545</ele><time>2026-04-17T23:41:57.000Z</time></trkpt>
        <trkpt lat="28.330661" lon="105.05927"><ele>596.388</ele><time>2026-04-17T23:42:02.000Z</time></trkpt>
        <trkpt lat="28.330636" lon="105.05924"><ele>595.64044</ele><time>2026-04-17T23:42:24.000Z</time></trkpt>
        <trkpt lat="28.330674" lon="105.059198"><ele>595.09973</ele><time>2026-04-17T23:42:33.000Z</time></trkpt>
        <trkpt lat="28.330851" lon="105.059148"><ele>595.126</ele><time>2026-04-17T23:42:41.000Z</time></trkpt>
        <trkpt lat="28.330866" lon="105.059201"><ele>594.63763</ele><time>2026-04-17T23:42:43.000Z</time></trkpt>
        <trkpt lat="28.330923" lon="105.059154"><ele>593.61273</ele><time>2026-04-17T23:42:54.000Z</time></trkpt>
        <trkpt lat="28.330931" lon="105.059033"><ele>594.60645</ele><time>2026-04-17T23:42:58.000Z</time></trkpt>
        <trkpt lat="28.330886" lon="105.058894"><ele>596.99316</ele><time>2026-04-17T23:43:08.000Z</time></trkpt>
        <trkpt lat="28.330914" lon="105.058826"><ele>596.6096</ele><time>2026-04-17T23:43:11.000Z</time></trkpt>
        <trkpt lat="28.330958" lon="105.058875"><ele>598.56134</ele><time>2026-04-17T23:43:13.000Z</time></trkpt>
        <trkpt lat="28.33099" lon="105.058928"><ele>597.952</ele><time>2026-04-17T23:43:15.000Z</time></trkpt>
        <trkpt lat="28.331016" lon="105.058986"><ele>598.22156</ele><time>2026-04-17T23:43:19.000Z</time></trkpt>
        <trkpt lat="28.33106" lon="105.059018"><ele>598.28314</ele><time>2026-04-17T23:43:23.000Z</time></trkpt>
        <trkpt lat="28.331081" lon="105.058968"><ele>596.8431</ele><time>2026-04-17T23:43:27.000Z</time></trkpt>
        <trkpt lat="28.331082" lon="105.058917"><ele>597.2778</ele><time>2026-04-17T23:43:29.000Z</time></trkpt>
        <trkpt lat="28.331107" lon="105.058986"><ele>596.9181</ele><time>2026-04-17T23:43:31.000Z</time></trkpt>
        <trkpt lat="28.331129" lon="105.058941"><ele>596.42566</ele><time>2026-04-17T23:43:32.000Z</time></trkpt>
        <trkpt lat="28.331109" lon="105.058889"><ele>596.5203</ele><time>2026-04-17T23:43:33.000Z</time></trkpt>
        <trkpt lat="28.331157" lon="105.058938"><ele>596.12506</ele><time>2026-04-17T23:43:35.000Z</time></trkpt>
        <trkpt lat="28.331226" lon="105.058996"><ele>595.77527</ele><time>2026-04-17T23:43:37.000Z</time></trkpt>
        <trkpt lat="28.331297" lon="105.059148"><ele>595.70013</ele><time>2026-04-17T23:43:40.000Z</time></trkpt>
        <trkpt lat="28.331284" lon="105.059058"><ele>596.0759</ele><time>2026-04-17T23:43:43.000Z</time></trkpt>
        <trkpt lat="28.331331" lon="105.059002"><ele>595.37384</ele><time>2026-04-17T23:43:49.000Z</time></trkpt>
        <trkpt lat="28.331329" lon="105.058929"><ele>594.966</ele><time>2026-04-17T23:43:51.000Z</time></trkpt>
        <trkpt lat="28.331313" lon="105.058877"><ele>595.21857</ele><time>2026-04-17T23:43:53.000Z</time></trkpt>
        <trkpt lat="28.331299" lon="105.058811"><ele>594.6213</ele><time>2026-04-17T23:43:56.000Z</time></trkpt>
        <trkpt lat="28.331342" lon="105.058798"><ele>593.27484</ele><time>2026-04-17T23:44:00.000Z</time></trkpt>
        <trkpt lat="28.331389" lon="105.058806"><ele>592.924</ele><time>2026-04-17T23:44:08.000Z</time></trkpt>
        <trkpt lat="28.331437" lon="105.058783"><ele>590.8401</ele><time>2026-04-17T23:44:16.000Z</time></trkpt>
        <trkpt lat="28.331487" lon="105.058767"><ele>591.3229</ele><time>2026-04-17T23:44:21.000Z</time></trkpt>
        <trkpt lat="28.331515" lon="105.058719"><ele>592.3897</ele><time>2026-04-17T23:44:26.000Z</time></trkpt>
        <trkpt lat="28.331561" lon="105.05873"><ele>592.45856</ele><time>2026-04-17T23:44:28.000Z</time></trkpt>
        <trkpt lat="28.331721" lon="105.058805"><ele>589.4459</ele><time>2026-04-17T23:44:40.000Z</time></trkpt>
        <trkpt lat="28.33178" lon="105.058846"><ele>589.46313</ele><time>2026-04-17T23:45:01.000Z</time></trkpt>
        <trkpt lat="28.331699" lon="105.058766"><ele>588.53156</ele><time>2026-04-17T23:45:29.000Z</time></trkpt>
        <trkpt lat="28.331671" lon="105.058809"><ele>590.33246</ele><time>2026-04-17T23:45:33.000Z</time></trkpt>
        <trkpt lat="28.331684" lon="105.05876"><ele>590.907</ele><time>2026-04-17T23:45:36.000Z</time></trkpt>
        <trkpt lat="28.331747" lon="105.05875"><ele>588.9844</ele><time>2026-04-17T23:45:46.000Z</time></trkpt>
        <trkpt lat="28.331729" lon="105.058941"><ele>592.81476</ele><time>2026-04-17T23:46:10.000Z</time></trkpt>
        <trkpt lat="28.331811" lon="105.05874"><ele>571.23285</ele><time>2026-04-17T23:46:44.000Z</time></trkpt>
        <trkpt lat="28.331859" lon="105.058771"><ele>571.39984</ele><time>2026-04-17T23:46:53.000Z</time></trkpt>
        <trkpt lat="28.33178" lon="105.058932"><ele>591.7633</ele><time>2026-04-17T23:47:05.000Z</time></trkpt>
        <trkpt lat="28.331817" lon="105.058963"><ele>591.9746</ele><time>2026-04-17T23:47:12.000Z</time></trkpt>
        <trkpt lat="28.331786" lon="105.058805"><ele>592.3822</ele><time>2026-04-17T23:47:20.000Z</time></trkpt>
        <trkpt lat="28.33176" lon="105.058733"><ele>592.44653</ele><time>2026-04-17T23:47:33.000Z</time></trkpt>
        <trkpt lat="28.331821" lon="105.05874"><ele>590.9271</ele><time>2026-04-17T23:47:35.000Z</time></trkpt>
        <trkpt lat="28.331835" lon="105.058686"><ele>589.6117</ele><time>2026-04-17T23:47:38.000Z</time></trkpt>
        <trkpt lat="28.331871" lon="105.058645"><ele>586.7185</ele><time>2026-04-17T23:47:49.000Z</time></trkpt>
        <trkpt lat="28.33194" lon="105.058635"><ele>586.4546</ele><time>2026-04-17T23:47:51.000Z</time></trkpt>
        <trkpt lat="28.331992" lon="105.058652"><ele>585.1813</ele><time>2026-04-17T23:47:55.000Z</time></trkpt>
        <trkpt lat="28.332023" lon="105.05869"><ele>584.98627</ele><time>2026-04-17T23:47:57.000Z</time></trkpt>
        <trkpt lat="28.332048" lon="105.058646"><ele>587.3458</ele><time>2026-04-17T23:48:23.000Z</time></trkpt>
        <trkpt lat="28.332063" lon="105.058698"><ele>586.63837</ele><time>2026-04-17T23:48:27.000Z</time></trkpt>
        <trkpt lat="28.332079" lon="105.058764"><ele>588.5506</ele><time>2026-04-17T23:48:33.000Z</time></trkpt>
        <trkpt lat="28.332115" lon="105.058802"><ele>588.22015</ele><time>2026-04-17T23:48:37.000Z</time></trkpt>
        <trkpt lat="28.332164" lon="105.058814"><ele>589.5823</ele><time>2026-04-17T23:48:43.000Z</time></trkpt>
        <trkpt lat="28.332208" lon="105.058847"><ele>592.39496</ele><time>2026-04-17T23:48:51.000Z</time></trkpt>
        <trkpt lat="28.332257" lon="105.058853"><ele>592.7787</ele><time>2026-04-17T23:49:03.000Z</time></trkpt>
        <trkpt lat="28.332303" lon="105.058846"><ele>594.0475</ele><time>2026-04-17T23:49:08.000Z</time></trkpt>
        <trkpt lat="28.332351" lon="105.058857"><ele>596.44135</ele><time>2026-04-17T23:49:25.000Z</time></trkpt>
        <trkpt lat="28.332383" lon="105.058894"><ele>595.7679</ele><time>2026-04-17T23:49:35.000Z</time></trkpt>
        <trkpt lat="28.332428" lon="105.058929"><ele>596.93286</ele><time>2026-04-17T23:49:50.000Z</time></trkpt>
        <trkpt lat="28.332434" lon="105.058986"><ele>595.6541</ele><time>2026-04-17T23:49:56.000Z</time></trkpt>
        <trkpt lat="28.33248" lon="105.059004"><ele>599.919</ele><time>2026-04-17T23:50:07.000Z</time></trkpt>
        <trkpt lat="28.332534" lon="105.059"><ele>601.6982</ele><time>2026-04-17T23:50:13.000Z</time></trkpt>
        <trkpt lat="28.332586" lon="105.059012"><ele>600.72534</ele><time>2026-04-17T23:50:37.000Z</time></trkpt>
        <trkpt lat="28.332618" lon="105.059062"><ele>601.8192</ele><time>2026-04-17T23:50:47.000Z</time></trkpt>
        <trkpt lat="28.332654" lon="105.059096"><ele>603.7169</ele><time>2026-04-17T23:51:07.000Z</time></trkpt>
        <trkpt lat="28.332692" lon="105.059128"><ele>604.49695</ele><time>2026-04-17T23:51:18.000Z</time></trkpt>
        <trkpt lat="28.332694" lon="105.05918"><ele>605.9412</ele><time>2026-04-17T23:51:56.000Z</time></trkpt>
        <trkpt lat="28.332724" lon="105.059221"><ele>606.5628</ele><time>2026-04-17T23:52:44.000Z</time></trkpt>
        <trkpt lat="28.332749" lon="105.059264"><ele>608.388</ele><time>2026-04-17T23:53:01.000Z</time></trkpt>
        <trkpt lat="28.332777" lon="105.059315"><ele>610.8192</ele><time>2026-04-17T23:53:20.000Z</time></trkpt>
        <trkpt lat="28.332792" lon="105.059375"><ele>609.8879</ele><time>2026-04-17T23:53:29.000Z</time></trkpt>
        <trkpt lat="28.332825" lon="105.05942"><ele>610.60046</ele><time>2026-04-17T23:53:38.000Z</time></trkpt>
        <trkpt lat="28.332865" lon="105.059454"><ele>610.9528</ele><time>2026-04-17T23:53:44.000Z</time></trkpt>
        <trkpt lat="28.332872" lon="105.059505"><ele>612.7993</ele><time>2026-04-17T23:53:54.000Z</time></trkpt>
        <trkpt lat="28.332859" lon="105.059555"><ele>613.58984</ele><time>2026-04-17T23:54:00.000Z</time></trkpt>
        <trkpt lat="28.33287" lon="105.059608"><ele>614.4626</ele><time>2026-04-17T23:54:13.000Z</time></trkpt>
        <trkpt lat="28.332923" lon="105.05962"><ele>614.1442</ele><time>2026-04-17T23:54:20.000Z</time></trkpt>
        <trkpt lat="28.33296" lon="105.059651"><ele>613.4031</ele><time>2026-04-17T23:54:25.000Z</time></trkpt>
        <trkpt lat="28.332964" lon="105.059704"><ele>615.1403</ele><time>2026-04-17T23:54:37.000Z</time></trkpt>
        <trkpt lat="28.333008" lon="105.059742"><ele>618.0442</ele><time>2026-04-17T23:55:04.000Z</time></trkpt>
        <trkpt lat="28.333001" lon="105.0598"><ele>615.3186</ele><time>2026-04-17T23:55:22.000Z</time></trkpt>
        <trkpt lat="28.332958" lon="105.059783"><ele>618.43774</ele><time>2026-04-17T23:55:47.000Z</time></trkpt>
        <trkpt lat="28.332997" lon="105.059826"><ele>618.541</ele><time>2026-04-17T23:56:05.000Z</time></trkpt>
        <trkpt lat="28.333042" lon="105.059843"><ele>618.1229</ele><time>2026-04-17T23:56:19.000Z</time></trkpt>
        <trkpt lat="28.333011" lon="105.05988"><ele>615.55646</ele><time>2026-04-17T23:56:32.000Z</time></trkpt>
        <trkpt lat="28.333" lon="105.05993"><ele>612.6204</ele><time>2026-04-17T23:57:05.000Z</time></trkpt>
        <trkpt lat="28.332974" lon="105.059978"><ele>615.6218</ele><time>2026-04-17T23:57:13.000Z</time></trkpt>
        <trkpt lat="28.332977" lon="105.059861"><ele>616.7481</ele><time>2026-04-17T23:57:48.000Z</time></trkpt>
        <trkpt lat="28.332999" lon="105.059919"><ele>615.6735</ele><time>2026-04-17T23:57:55.000Z</time></trkpt>
        <trkpt lat="28.332962" lon="105.05989"><ele>615.0986</ele><time>2026-04-17T23:58:05.000Z</time></trkpt>
        <trkpt lat="28.333015" lon="105.059891"><ele>613.28296</ele><time>2026-04-17T23:58:37.000Z</time></trkpt>
        <trkpt lat="28.333007" lon="105.059947"><ele>609.77325</ele><time>2026-04-17T23:58:49.000Z</time></trkpt>
        <trkpt lat="28.333095" lon="105.060037"><ele>610.35767</ele><time>2026-04-17T23:58:55.000Z</time></trkpt>
        <trkpt lat="28.333116" lon="105.060007"><ele>609.93585</ele><time>2026-04-17T23:59:01.000Z</time></trkpt>
        <trkpt lat="28.333064" lon="105.059977"><ele>610.0074</ele><time>2026-04-17T23:59:08.000Z</time></trkpt>
        <trkpt lat="28.332575" lon="105.060175"><ele>619.9853</ele><time>2026-04-17T23:59:18.000Z</time></trkpt>
        <trkpt lat="28.332508" lon="105.060176"><ele>622.1117</ele><time>2026-04-17T23:59:19.000Z</time></trkpt>
        <trkpt lat="28.332465" lon="105.060221"><ele>623.6119</ele><time>2026-04-17T23:59:20.000Z</time></trkpt>
        <trkpt lat="28.332401" lon="105.060274"><ele>624.99963</ele><time>2026-04-17T23:59:21.000Z</time></trkpt>
        <trkpt lat="28.332346" lon="105.060333"><ele>625.7464</ele><time>2026-04-17T23:59:22.000Z</time></trkpt>
        <trkpt lat="28.332295" lon="105.060395"><ele>627.2765</ele><time>2026-04-17T23:59:23.000Z</time></trkpt>
        <trkpt lat="28.332246" lon="105.060481"><ele>628.1939</ele><time>2026-04-17T23:59:24.000Z</time></trkpt>
        <trkpt lat="28.332189" lon="105.060539"><ele>629.2269</ele><time>2026-04-17T23:59:25.000Z</time></trkpt>
        <trkpt lat="28.332137" lon="105.060604"><ele>630.79474</ele><time>2026-04-17T23:59:26.000Z</time></trkpt>
        <trkpt lat="28.332082" lon="105.060649"><ele>631.8359</ele><time>2026-04-17T23:59:27.000Z</time></trkpt>
        <trkpt lat="28.33204" lon="105.060701"><ele>632.23584</ele><time>2026-04-17T23:59:28.000Z</time></trkpt>
        <trkpt lat="28.331978" lon="105.060718"><ele>633.0482</ele><time>2026-04-17T23:59:29.000Z</time></trkpt>
        <trkpt lat="28.331906" lon="105.060721"><ele>633.3567</ele><time>2026-04-17T23:59:30.000Z</time></trkpt>
        <trkpt lat="28.331827" lon="105.060706"><ele>633.7827</ele><time>2026-04-17T23:59:31.000Z</time></trkpt>
        <trkpt lat="28.331735" lon="105.0607"><ele>634.5085</ele><time>2026-04-17T23:59:32.000Z</time></trkpt>
        <trkpt lat="28.331633" lon="105.060683"><ele>635.85345</ele><time>2026-04-17T23:59:33.000Z</time></trkpt>
        <trkpt lat="28.331539" lon="105.060663"><ele>636.6834</ele><time>2026-04-17T23:59:34.000Z</time></trkpt>
        <trkpt lat="28.331454" lon="105.060652"><ele>636.3402</ele><time>2026-04-17T23:59:35.000Z</time></trkpt>
        <trkpt lat="28.33138" lon="105.060653"><ele>636.94366</ele><time>2026-04-17T23:59:36.000Z</time></trkpt>
        <trkpt lat="28.33132" lon="105.060669"><ele>637.0643</ele><time>2026-04-17T23:59:37.000Z</time></trkpt>
        <trkpt lat="28.331283" lon="105.060754"><ele>638.8253</ele><time>2026-04-17T23:59:39.000Z</time></trkpt>
        <trkpt lat="28.331284" lon="105.060843"><ele>638.82007</ele><time>2026-04-17T23:59:40.000Z</time></trkpt>
        <trkpt lat="28.331282" lon="105.060915"><ele>638.958</ele><time>2026-04-17T23:59:41.000Z</time></trkpt>
        <trkpt lat="28.331266" lon="105.060978"><ele>639.44293</ele><time>2026-04-17T23:59:42.000Z</time></trkpt>
        <trkpt lat="28.331219" lon="105.06102"><ele>639.7246</ele><time>2026-04-17T23:59:43.000Z</time></trkpt>
        <trkpt lat="28.331153" lon="105.061043"><ele>640.1442</ele><time>2026-04-17T23:59:44.000Z</time></trkpt>
        <trkpt lat="28.331082" lon="105.061048"><ele>641.1464</ele><time>2026-04-17T23:59:45.000Z</time></trkpt>
        <trkpt lat="28.331008" lon="105.061055"><ele>641.7161</ele><time>2026-04-17T23:59:46.000Z</time></trkpt>
        <trkpt lat="28.330897" lon="105.061037"><ele>642.1198</ele><time>2026-04-17T23:59:47.000Z</time></trkpt>
        <trkpt lat="28.330805" lon="105.061024"><ele>642.6337</ele><time>2026-04-17T23:59:48.000Z</time></trkpt>
        <trkpt lat="28.330712" lon="105.061017"><ele>642.6745</ele><time>2026-04-17T23:59:49.000Z</time></trkpt>
        <trkpt lat="28.330627" lon="105.061028"><ele>643.1007</ele><time>2026-04-17T23:59:50.000Z</time></trkpt>
        <trkpt lat="28.330554" lon="105.061026"><ele>642.56165</ele><time>2026-04-17T23:59:51.000Z</time></trkpt>
        <trkpt lat="28.330508" lon="105.061036"><ele>643.01306</ele><time>2026-04-17T23:59:52.000Z</time></trkpt>
        <trkpt lat="28.330481" lon="105.061096"><ele>642.97894</ele><time>2026-04-17T23:59:53.000Z</time></trkpt>
        <trkpt lat="28.33048" lon="105.061157"><ele>644.25195</ele><time>2026-04-17T23:59:54.000Z</time></trkpt>
        <trkpt lat="28.330521" lon="105.061231"><ele>645.30273</ele><time>2026-04-17T23:59:55.000Z</time></trkpt>
        <trkpt lat="28.330581" lon="105.061287"><ele>646.7104</ele><time>2026-04-17T23:59:56.000Z</time></trkpt>
        <trkpt lat="28.330654" lon="105.061333"><ele>648.7983</ele><time>2026-04-17T23:59:57.000Z</time></trkpt>
        <trkpt lat="28.330726" lon="105.061368"><ele>650.08356</ele><time>2026-04-17T23:59:58.000Z</time></trkpt>
        <trkpt lat="28.330791" lon="105.061415"><ele>652.4658</ele><time>2026-04-17T23:59:59.000Z</time></trkpt>
        <trkpt lat="28.330851" lon="105.061456"><ele>653.773</ele><time>2026-04-18T00:00:00.000Z</time></trkpt>
        <trkpt lat="28.330889" lon="105.061514"><ele>654.9522</ele><time>2026-04-18T00:00:01.000Z</time></trkpt>
        <trkpt lat="28.330917" lon="105.061581"><ele>655.69244</ele><time>2026-04-18T00:00:02.000Z</time></trkpt>
        <trkpt lat="28.330924" lon="105.061644"><ele>656.04785</ele><time>2026-04-18T00:00:03.000Z</time></trkpt>
        <trkpt lat="28.33088" lon="105.061724"><ele>656.54114</ele><time>2026-04-18T00:00:04.000Z</time></trkpt>
        <trkpt lat="28.330804" lon="105.061772"><ele>656.92816</ele><time>2026-04-18T00:00:05.000Z</time></trkpt>
        <trkpt lat="28.330717" lon="105.061792"><ele>657.8106</ele><time>2026-04-18T00:00:06.000Z</time></trkpt>
        <trkpt lat="28.330626" lon="105.061801"><ele>658.8701</ele><time>2026-04-18T00:00:07.000Z</time></trkpt>
        <trkpt lat="28.330524" lon="105.061813"><ele>659.0497</ele><time>2026-04-18T00:00:08.000Z</time></trkpt>
        <trkpt lat="28.33042" lon="105.061831"><ele>660.9484</ele><time>2026-04-18T00:00:09.000Z</time></trkpt>
        <trkpt lat="28.330317" lon="105.061856"><ele>661.9012</ele><time>2026-04-18T00:00:10.000Z</time></trkpt>
        <trkpt lat="28.330217" lon="105.061876"><ele>662.4755</ele><time>2026-04-18T00:00:11.000Z</time></trkpt>
        <trkpt lat="28.330125" lon="105.061911"><ele>662.5829</ele><time>2026-04-18T00:00:12.000Z</time></trkpt>
        <trkpt lat="28.330089" lon="105.062"><ele>663.2303</ele><time>2026-04-18T00:00:13.000Z</time></trkpt>
      </trkseg>
  </trk>
</gpx>